Darstellungsparameter: Aktuell verwendete Einstellungen:
Skalierung der Graphiken ... ?
xyx+y,   Skalierungsfaktor:      Skalierung: Modus: x, Faktor: 1
Darstellungszeitraum ... ?
Vom - - bis: - -   Zeitraum: 14.12.2008 - 13.06.2009
Min/Max/Avg-Anzeige ... ?
Zeige MMA aktuell
Zeige MMA Monat
Zeige MMA alles
Zeige --A aktuell
Zeige --A Monat
Zeige --A alles
Keine MMA-Anzeige
MMA:
Keine MMA-Graphiken
MMA-Basis: 14.12.2008 - 13.06.2009
Quicknavigation für Darstellung... ?
Tage:      1T, 2T, 3T, 5T -1T -2T -3T -5T +1T +2T +3T +5T
Wochen: 1W, 2W, 3W -1W -2W -3W +1W +2W +3W
Monate: 1M, 3M, 6M -1M -3M -6M +1M +3M +6M
Jahre:    1J, 3J, 5J, 10J -1J -3J -5J -10J +1J +3J +5J +10J
Nutze für die Darstellung ... ?
Originaldaten oder Mittelwerte auf ...
Stundenbasis Tagesbasis Wochenbasis
Monatsbasis Jahresbasis      Datenbasis: Original-Daten
Darstellen als:
Statistik (Auto) Statistik J:M      Darstellung:
Zur Graphik,    zurück zur Übersicht aller Sensoren.
 
Tabellarische Datenbersicht: ?
 
Sensor: Nr:Datum:Temp:Abs-Feuchte:Windchill:Wind:
Aussen-T/F 1 14-12-2008 00:09:30 -1 C 3.57 g/m*3 -1 C 0 km/h
2 14-12-2008 00:21:30 -1.3 C 3.54 g/m*3 -1.3 C 0 km/h
3 14-12-2008 00:33:30 -1.4 C 3.56 g/m*3 -1.4 C 0 km/h
4 14-12-2008 00:45:30 -1.2 C 3.7 g/m*3 -1.2 C 0 km/h
5 14-12-2008 00:57:30 -1 C 3.75 g/m*3 -1 C 0 km/h
6 14-12-2008 01:09:30 -1.2 C 3.7 g/m*3 -1.2 C 0 km/h
7 14-12-2008 01:21:30 -1.4 C 3.65 g/m*3 -1.4 C 0 km/h
8 14-12-2008 01:33:30 -1.4 C 3.65 g/m*3 -1.4 C 0 km/h
9 14-12-2008 01:45:31 -1.2 C 3.74 g/m*3 -1.2 C 0 km/h
10 14-12-2008 01:57:31 -1 C 3.8 g/m*3 -1 C 0 km/h
11 14-12-2008 02:09:31 -1.1 C 3.73 g/m*3 -1.1 C 0 km/h
12 14-12-2008 02:21:31 -1.2 C 3.7 g/m*3 -1.2 C 0 km/h
13 14-12-2008 02:33:31 -0.8 C 3.8 g/m*3 -0.8 C 0 km/h
14 14-12-2008 02:45:31 -0.5 C 3.88 g/m*3 -0.5 C 0 km/h
15 14-12-2008 02:57:31 -0.4 C 3.86 g/m*3 -0.4 C 0 km/h
16 14-12-2008 03:09:31 -0.5 C 3.84 g/m*3 -0.5 C 0 km/h
17 14-12-2008 03:21:31 -0.4 C 3.86 g/m*3 -0.4 C 0 km/h
18 14-12-2008 03:33:31 -0.5 C 3.84 g/m*3 -0.5 C 0 km/h
19 14-12-2008 03:45:31 -0.5 C 3.84 g/m*3 -0.5 C 0 km/h
20 14-12-2008 03:57:31 -0.6 C 3.81 g/m*3 -0.6 C 0 km/h
21 14-12-2008 04:09:31 -0.8 C 3.76 g/m*3 -0.8 C 0 km/h
22 14-12-2008 04:21:31 -0.9 C 3.73 g/m*3 -0.9 C 0 km/h
23 14-12-2008 04:33:31 -0.8 C 3.8 g/m*3 -0.8 C 0 km/h
24 14-12-2008 04:45:31 -0.8 C 3.8 g/m*3 -0.8 C 0 km/h
25 14-12-2008 04:57:31 -0.9 C 3.78 g/m*3 -0.9 C 0 km/h
Sensor: Nr:Datum:Temp:Abs-Feuchte:Windchill:Wind:
Aussen-T/F 26 14-12-2008 05:09:31 -0.9 C 3.73 g/m*3 -0.9 C 0 km/h
27 14-12-2008 05:21:31 -1 C 3.71 g/m*3 -1 C 0 km/h
28 14-12-2008 05:33:31 -1.1 C 3.73 g/m*3 -1.1 C 0 km/h
29 14-12-2008 05:45:32 -1.1 C 3.73 g/m*3 -1.1 C 0 km/h
30 14-12-2008 05:57:32 -1.1 C 3.73 g/m*3 -1.1 C 0 km/h
31 14-12-2008 06:09:32 -1.1 C 3.73 g/m*3 -1.1 C 0 km/h
32 14-12-2008 06:21:32 -1.1 C 3.77 g/m*3 -1.1 C 0 km/h
33 14-12-2008 06:33:32 -1.1 C 3.77 g/m*3 -1.1 C 0 km/h
34 14-12-2008 06:45:32 -1 C 3.8 g/m*3 -1 C 0 km/h
35 14-12-2008 06:57:32 -1.1 C 3.77 g/m*3 -1.1 C 0 km/h
36 14-12-2008 07:09:32 -1.1 C 3.77 g/m*3 -1.1 C 0 km/h
37 14-12-2008 07:21:32 -1.3 C 3.67 g/m*3 -1.3 C 0 km/h
38 14-12-2008 07:33:32 -1.3 C 3.72 g/m*3 -1.3 C 0 km/h
39 14-12-2008 07:45:32 -1.4 C 3.69 g/m*3 -1.4 C 0 km/h
40 14-12-2008 07:57:32 -1.4 C 3.69 g/m*3 -1.4 C 0 km/h
41 14-12-2008 08:09:31 -1.4 C 3.69 g/m*3 -1.4 C 0 km/h
42 14-12-2008 08:21:30 -1.5 C 3.71 g/m*3 -1.5 C 0 km/h
43 14-12-2008 08:33:31 -1.4 C 3.74 g/m*3 -1.4 C 0 km/h
44 14-12-2008 08:45:30 -1.5 C 3.71 g/m*3 -1.5 C 0 km/h
45 14-12-2008 08:57:30 -1.5 C 3.71 g/m*3 -1.5 C 0 km/h
46 14-12-2008 09:09:30 -1.3 C 3.76 g/m*3 -1.3 C 0 km/h
47 14-12-2008 09:21:30 -1 C 3.89 g/m*3 -1 C 0 km/h
48 14-12-2008 09:33:30 -0.9 C 3.91 g/m*3 -0.9 C 0 km/h
49 14-12-2008 09:45:29 -0.8 C 3.9 g/m*3 -0.8 C 0 km/h
50 14-12-2008 09:57:29 -0.7 C 3.92 g/m*3 -0.7 C 0 km/h
Sensor: Nr:Datum:Temp:Abs-Feuchte:Windchill:Wind:
Aussen-T/F 51 14-12-2008 10:09:30 -0.7 C 3.92 g/m*3 -0.7 C 0 km/h
52 14-12-2008 10:21:30 -0.4 C 4.05 g/m*3 -0.4 C 0 km/h
53 14-12-2008 10:33:29 0 C 4.12 g/m*3 0 C 0 km/h
54 14-12-2008 10:45:30 0.2 C 4.18 g/m*3 0.2 C 0 km/h
55 14-12-2008 10:57:30 0.7 C 4.37 g/m*3 0.7 C 0 km/h
56 14-12-2008 11:09:29 1 C 4.41 g/m*3 1 C 0 km/h
57 14-12-2008 11:21:29 1.2 C 4.42 g/m*3 1.2 C 0 km/h
58 14-12-2008 11:33:28 1.2 C 4.42 g/m*3 1.2 C 0 km/h
59 14-12-2008 11:45:29 1.1 C 4.39 g/m*3 1.1 C 0 km/h
60 14-12-2008 11:57:29 1.1 C 4.44 g/m*3 1.1 C 0 km/h
61 14-12-2008 12:09:29 1.2 C 4.47 g/m*3 1.2 C 0 km/h
62 14-12-2008 12:21:28 1 C 4.41 g/m*3 1 C 0 km/h
63 14-12-2008 12:33:29 1 C 4.46 g/m*3 1 C 0 km/h
64 14-12-2008 12:45:28 1.1 C 4.49 g/m*3 1.1 C 0 km/h
65 14-12-2008 12:57:28 1.4 C 4.64 g/m*3 1.4 C 0 km/h
66 14-12-2008 13:09:28 1.8 C 4.77 g/m*3 1.8 C 0 km/h
67 14-12-2008 13:21:28 2.2 C 4.79 g/m*3 2.2 C 0 km/h
68 14-12-2008 13:33:28 2.4 C 4.8 g/m*3 2.4 C 0 km/h
69 14-12-2008 13:45:27 2.3 C 4.71 g/m*3 2.3 C 0 km/h
70 14-12-2008 13:57:27 2.6 C 4.8 g/m*3 2.6 C 0 km/h
71 14-12-2008 14:09:28 2.8 C 4.81 g/m*3 2.8 C 0 km/h
72 14-12-2008 14:21:28 2.5 C 4.66 g/m*3 2.5 C 0 km/h
73 14-12-2008 14:33:27 2.5 C 4.66 g/m*3 2.5 C 0 km/h
74 14-12-2008 14:45:27 2.4 C 4.62 g/m*3 2.4 C 0 km/h
75 14-12-2008 14:57:27 2.3 C 4.65 g/m*3 2.3 C 0 km/h
Sensor: Nr:Datum:Temp:Abs-Feuchte:Windchill:Wind:
Aussen-T/F 76 14-12-2008 15:09:27 2.4 C 4.68 g/m*3 2.4 C 0 km/h
77 14-12-2008 15:21:27 2.3 C 4.65 g/m*3 2.3 C 0 km/h
78 14-12-2008 15:33:26 2.1 C 4.64 g/m*3 2.1 C 0 km/h
79 14-12-2008 15:45:27 2.1 C 4.64 g/m*3 2.1 C 0 km/h
80 14-12-2008 15:57:28 2.1 C 4.7 g/m*3 2.1 C 0 km/h
81 14-12-2008 16:09:26 2.2 C 4.73 g/m*3 2.2 C 0 km/h
82 14-12-2008 16:21:26 1.7 C 4.57 g/m*3 1.7 C 0 km/h
83 14-12-2008 16:33:27 1.5 C 4.57 g/m*3 1.5 C 0 km/h
84 14-12-2008 16:45:26 1.4 C 4.59 g/m*3 1.4 C 0 km/h
85 14-12-2008 16:57:26 1.2 C 4.53 g/m*3 1.2 C 0 km/h
86 14-12-2008 17:09:26 1.3 C 4.61 g/m*3 1.3 C 0 km/h
87 14-12-2008 17:21:25 1.3 C 4.66 g/m*3 1.3 C 0 km/h
88 14-12-2008 17:33:26 1.2 C 4.63 g/m*3 1.2 C 0 km/h
89 14-12-2008 17:45:25 1.2 C 4.63 g/m*3 1.2 C 0 km/h
90 14-12-2008 17:57:25 1 C 4.62 g/m*3 1 C 0 km/h
91 14-12-2008 18:09:25 1 C 4.62 g/m*3 1 C 0 km/h
92 14-12-2008 18:21:25 0.9 C 4.64 g/m*3 0.9 C 0 km/h
93 14-12-2008 18:33:25 0.9 C 4.64 g/m*3 0.9 C 0 km/h
94 14-12-2008 18:45:25 0.9 C 4.69 g/m*3 0.9 C 0 km/h
95 14-12-2008 18:57:25 0.7 C 4.63 g/m*3 0.7 C 0 km/h
96 14-12-2008 19:09:25 0.5 C 4.51 g/m*3 0.5 C 0 km/h
97 14-12-2008 19:21:25 0.7 C 4.63 g/m*3 0.7 C 0 km/h
98 14-12-2008 19:33:24 0.8 C 4.71 g/m*3 0.8 C 0 km/h
99 14-12-2008 19:45:25 0.7 C 4.68 g/m*3 0.7 C 0 km/h
100 14-12-2008 19:57:25 0.7 C 4.68 g/m*3 0.7 C 0 km/h
Sensor: Nr:Datum:Temp:Abs-Feuchte:Windchill:Wind:
Aussen-T/F 101 14-12-2008 20:09:24 0.9 C 4.74 g/m*3 0.9 C 0 km/h
102 14-12-2008 20:21:24 1 C 4.78 g/m*3 1 C 0 km/h
103 14-12-2008 20:33:24 1.2 C 4.84 g/m*3 1.2 C 0 km/h
104 14-12-2008 20:45:23 1.1 C 4.81 g/m*3 1.1 C 0 km/h
105 14-12-2008 20:57:23 1.2 C 4.84 g/m*3 1.2 C 0 km/h
106 14-12-2008 21:09:24 1 C 4.72 g/m*3 1 C 0 km/h
107 14-12-2008 21:21:23 1 C 4.72 g/m*3 1 C 0 km/h
108 14-12-2008 21:33:24 0.8 C 4.71 g/m*3 0.8 C 0 km/h
109 14-12-2008 21:45:24 0.8 C 4.71 g/m*3 0.8 C 0 km/h
110 14-12-2008 21:57:24 0.8 C 4.71 g/m*3 0.8 C 0 km/h
111 14-12-2008 22:09:23 0.7 C 4.68 g/m*3 0.7 C 0 km/h
112 14-12-2008 22:21:23 0.6 C 4.65 g/m*3 0.6 C 0 km/h
113 14-12-2008 22:34:24 0.5 C 4.61 g/m*3 0.5 C 0 km/h
114 14-12-2008 22:46:24 0.6 C 4.65 g/m*3 0.6 C 0 km/h
115 14-12-2008 22:58:24 0.7 C 4.73 g/m*3 0.7 C 0 km/h
116 14-12-2008 23:10:24 0.6 C 4.65 g/m*3 0.6 C 0 km/h
117 14-12-2008 23:22:24 0.7 C 4.68 g/m*3 0.7 C 0 km/h
118 14-12-2008 23:34:24 0.9 C 4.79 g/m*3 0.9 C 0 km/h
119 14-12-2008 23:46:24 1.3 C 4.87 g/m*3 1.3 C 0 km/h
120 14-12-2008 23:58:25 1.5 C 4.89 g/m*3 1.5 C 0 km/h
121 15-12-2008 00:10:25 1.4 C 4.8 g/m*3 1.4 C 0 km/h
122 15-12-2008 00:22:25 1.2 C 4.68 g/m*3 1.2 C 0 km/h
123 15-12-2008 00:34:25 0.8 C 4.56 g/m*3 0.8 C 0 km/h
124 15-12-2008 00:46:25 0.6 C 4.54 g/m*3 0.6 C 0 km/h
125 15-12-2008 00:58:25 0.5 C 4.51 g/m*3 0.5 C 0 km/h
Sensor: Nr:Datum:Temp:Abs-Feuchte:Windchill:Wind:
Aussen-T/F 126 15-12-2008 01:10:25 0.2 C 4.42 g/m*3 0.2 C 0 km/h
127 15-12-2008 01:22:25 0.2 C 4.47 g/m*3 0.2 C 0 km/h
128 15-12-2008 01:34:25 0.2 C 4.47 g/m*3 0.2 C 0 km/h
129 15-12-2008 01:46:25 0.4 C 4.58 g/m*3 0.4 C 0 km/h
130 15-12-2008 01:58:25 0.3 C 4.55 g/m*3 0.3 C 0 km/h
131 15-12-2008 02:10:25 0.3 C 4.55 g/m*3 0.3 C 0 km/h
132 15-12-2008 02:22:25 0.1 C 4.49 g/m*3 0.1 C 0 km/h
133 15-12-2008 02:34:25 0 C 4.46 g/m*3 0 C 0 km/h
134 15-12-2008 02:46:25 -0.1 C 4.43 g/m*3 -0.1 C 0 km/h
135 15-12-2008 02:58:25 -0.1 C 4.43 g/m*3 -0.1 C 0 km/h
136 15-12-2008 03:10:25 -0.2 C 4.4 g/m*3 -0.2 C 0 km/h
137 15-12-2008 03:22:25 -0.3 C 4.41 g/m*3 -0.3 C 0 km/h
138 15-12-2008 03:34:25 -0.4 C 4.38 g/m*3 -0.4 C 0 km/h
139 15-12-2008 03:46:25 -0.3 C 4.41 g/m*3 -0.3 C 0 km/h
140 15-12-2008 03:58:26 -0.4 C 4.38 g/m*3 -0.4 C 0 km/h
141 15-12-2008 04:10:26 -0.4 C 4.38 g/m*3 -0.4 C 0 km/h
142 15-12-2008 04:22:26 -0.3 C 4.46 g/m*3 -0.3 C 0 km/h
143 15-12-2008 04:34:26 -0.3 C 4.46 g/m*3 -0.3 C 0 km/h
144 15-12-2008 04:46:26 -0.3 C 4.46 g/m*3 -0.3 C 0 km/h
145 15-12-2008 04:58:26 -0.3 C 4.46 g/m*3 -0.3 C 0 km/h
146 15-12-2008 05:10:26 -0.5 C 4.4 g/m*3 -0.5 C 0 km/h
147 15-12-2008 05:22:26 -0.4 C 4.43 g/m*3 -0.4 C 0 km/h
148 15-12-2008 05:34:26 -0.5 C 4.4 g/m*3 -0.5 C 0 km/h
149 15-12-2008 05:46:26 -0.6 C 4.37 g/m*3 -0.6 C 0 km/h
150 15-12-2008 05:58:26 -0.9 C 4.28 g/m*3 -0.9 C 0 km/h
Sensor: Nr:Datum:Temp:Abs-Feuchte:Windchill:Wind:
Aussen-T/F 151 15-12-2008 06:10:26 -1 C 4.25 g/m*3 -1 C 0 km/h
152 15-12-2008 06:22:26 -1 C 4.25 g/m*3 -1 C 0 km/h
153 15-12-2008 06:34:24 -1.1 C 4.26 g/m*3 -1.1 C 0 km/h
154 15-12-2008 06:46:23 -1.3 C 4.16 g/m*3 -1.3 C 0 km/h
155 15-12-2008 06:58:23 -1.6 C 4.07 g/m*3 -1.6 C 0 km/h
156 15-12-2008 07:10:24 -1.4 C 4.18 g/m*3 -1.4 C 0 km/h
157 15-12-2008 07:22:23 -1.5 C 4.15 g/m*3 -1.5 C 0 km/h
158 15-12-2008 07:34:23 -1.4 C 4.18 g/m*3 -1.4 C 0 km/h
159 15-12-2008 07:46:22 -1.4 C 4.18 g/m*3 -1.4 C 0 km/h
160 15-12-2008 07:58:22 -1.6 C 4.12 g/m*3 -1.6 C 0 km/h
161 15-12-2008 08:10:23 -1.7 C 4.09 g/m*3 -1.7 C 0 km/h
162 15-12-2008 08:22:23 -1.9 C 4.03 g/m*3 -1.9 C 0 km/h
163 15-12-2008 08:34:22 -2 C 4 g/m*3 -2 C 0 km/h
164 15-12-2008 08:46:23 -2 C 4 g/m*3 -2 C 0 km/h
165 15-12-2008 08:58:23 -2.1 C 3.98 g/m*3 -2.1 C 0 km/h
166 15-12-2008 09:10:22 -2.1 C 3.98 g/m*3 -2.1 C 0 km/h
167 15-12-2008 09:22:22 -1.8 C 4.06 g/m*3 -1.8 C 0 km/h
168 15-12-2008 09:34:22 -1.8 C 4.06 g/m*3 -1.8 C 0 km/h
169 15-12-2008 09:46:22 -1.8 C 4.06 g/m*3 -1.8 C 0 km/h
170 15-12-2008 09:58:22 -1.7 C 4.09 g/m*3 -1.7 C 0 km/h
171 15-12-2008 10:10:22 -1.6 C 4.12 g/m*3 -1.6 C 0 km/h
172 15-12-2008 10:22:21 -1.5 C 4.15 g/m*3 -1.5 C 0 km/h
173 15-12-2008 10:34:22 -1.4 C 4.18 g/m*3 -1.4 C 0 km/h
174 15-12-2008 10:46:21 -1.1 C 4.26 g/m*3 -1.1 C 0 km/h
175 15-12-2008 10:58:21 -0.9 C 4.32 g/m*3 -0.9 C 0 km/h
Sensor: Nr:Datum:Temp:Abs-Feuchte:Windchill:Wind:
Aussen-T/F 176 15-12-2008 11:10:21 -0.7 C 4.39 g/m*3 -0.7 C 0 km/h
177 15-12-2008 11:22:21 -0.8 C 4.35 g/m*3 -0.8 C 0 km/h
178 15-12-2008 11:34:21 -0.7 C 4.39 g/m*3 -0.7 C 0 km/h
179 15-12-2008 11:46:20 -0.6 C 4.42 g/m*3 -0.6 C 0 km/h
180 15-12-2008 11:58:20 -0.4 C 4.48 g/m*3 -0.4 C 0 km/h
181 15-12-2008 12:10:21 -0.2 C 4.54 g/m*3 -0.2 C 0 km/h
182 15-12-2008 12:22:21 -0.2 C 4.54 g/m*3 -0.2 C 0 km/h
183 15-12-2008 12:34:20 0.1 C 4.63 g/m*3 0.1 C 0 km/h
184 15-12-2008 12:46:21 0.2 C 4.67 g/m*3 0.2 C 0 km/h
185 15-12-2008 12:58:21 0.3 C 4.7 g/m*3 0.3 C 0 km/h
186 15-12-2008 13:10:20 0.5 C 4.76 g/m*3 0.5 C 0 km/h
187 15-12-2008 13:22:20 0.5 C 4.76 g/m*3 0.5 C 0 km/h
188 15-12-2008 13:34:19 0.5 C 4.76 g/m*3 0.5 C 0 km/h
189 15-12-2008 13:46:20 0.7 C 4.83 g/m*3 0.7 C 0 km/h
190 15-12-2008 13:58:20 0.7 C 4.83 g/m*3 0.7 C 0 km/h
191 15-12-2008 14:10:19 0.8 C 4.86 g/m*3 0.8 C 0 km/h
192 15-12-2008 14:22:19 1 C 4.93 g/m*3 1 C 0 km/h
193 15-12-2008 14:34:20 1 C 4.93 g/m*3 1 C 0 km/h
194 15-12-2008 14:46:19 1.1 C 4.96 g/m*3 1.1 C 0 km/h
195 15-12-2008 14:58:19 1.1 C 4.96 g/m*3 1.1 C 0 km/h
196 15-12-2008 15:10:19 1.1 C 4.96 g/m*3 1.1 C 0 km/h
197 15-12-2008 15:22:19 1 C 4.93 g/m*3 1 C 0 km/h
198 15-12-2008 15:34:19 1 C 4.93 g/m*3 1 C 0 km/h
199 15-12-2008 15:46:18 0.9 C 4.9 g/m*3 0.9 C 0 km/h
200 15-12-2008 15:58:18 0.7 C 4.83 g/m*3 0.7 C 0 km/h
Sensor: Nr:Datum:Temp:Abs-Feuchte:Windchill:Wind:
Aussen-T/F 201 15-12-2008 16:10:19 0.7 C 4.83 g/m*3 0.7 C 0 km/h
202 15-12-2008 16:22:19 0.5 C 4.76 g/m*3 0.5 C 0 km/h
203 15-12-2008 16:34:18 0.2 C 4.67 g/m*3 0.2 C 0 km/h
204 15-12-2008 16:46:18 0.2 C 4.67 g/m*3 0.2 C 0 km/h
205 15-12-2008 16:58:18 0 C 4.6 g/m*3 0 C 0 km/h
206 15-12-2008 17:10:18 -0.1 C 4.57 g/m*3 -0.1 C 0 km/h
207 15-12-2008 17:22:18 0 C 4.6 g/m*3 0 C 0 km/h
208 15-12-2008 17:34:17 0.3 C 4.7 g/m*3 0.3 C 0 km/h
209 15-12-2008 17:46:18 0.3 C 4.7 g/m*3 0.3 C 0 km/h
210 15-12-2008 17:58:18 0.2 C 4.67 g/m*3 0.2 C 0 km/h
211 15-12-2008 18:10:17 0.1 C 4.63 g/m*3 0.1 C 0 km/h
212 15-12-2008 18:22:17 0.1 C 4.63 g/m*3 0.1 C 0 km/h
213 15-12-2008 18:34:18 0.1 C 4.63 g/m*3 0.1 C 0 km/h
214 15-12-2008 18:46:17 0.2 C 4.67 g/m*3 0.2 C 0 km/h
215 15-12-2008 18:58:17 0.2 C 4.67 g/m*3 0.2 C 0 km/h
216 15-12-2008 19:10:17 0.3 C 4.7 g/m*3 0.3 C 0 km/h
217 15-12-2008 19:22:17 0.3 C 4.7 g/m*3 0.3 C 0 km/h
218 15-12-2008 19:34:16 0.4 C 4.73 g/m*3 0.4 C 0 km/h
219 15-12-2008 19:46:17 0.4 C 4.73 g/m*3 0.4 C 0 km/h
220 15-12-2008 19:58:17 0.4 C 4.73 g/m*3 0.4 C 0 km/h
221 15-12-2008 20:10:16 0.4 C 4.73 g/m*3 0.4 C 0 km/h
222 15-12-2008 20:22:16 0.4 C 4.73 g/m*3 0.4 C 0 km/h
223 15-12-2008 20:34:16 0.6 C 4.8 g/m*3 0.6 C 0 km/h
224 15-12-2008 20:46:16 0.6 C 4.8 g/m*3 0.6 C 0 km/h
225 15-12-2008 20:58:16 0.6 C 4.8 g/m*3 0.6 C 0 km/h
Sensor: Nr:Datum:Temp:Abs-Feuchte:Windchill:Wind:
Aussen-T/F 226 15-12-2008 21:10:15 0.6 C 4.8 g/m*3 0.6 C 0 km/h
227 15-12-2008 21:22:16 0.6 C 4.8 g/m*3 0.6 C 0 km/h
228 15-12-2008 21:34:16 0.5 C 4.76 g/m*3 0.5 C 0 km/h
229 15-12-2008 21:46:15 0.6 C 4.8 g/m*3 0.6 C 0 km/h
230 15-12-2008 21:58:15 0.6 C 4.8 g/m*3 0.6 C 0 km/h
231 15-12-2008 22:10:16 0.6 C 4.8 g/m*3 0.6 C 0 km/h
232 15-12-2008 22:23:15 0.6 C 4.8 g/m*3 0.6 C 0 km/h
233 15-12-2008 22:35:15 0.6 C 4.8 g/m*3 0.6 C 0 km/h
234 15-12-2008 22:47:15 0.6 C 4.8 g/m*3 0.6 C 0 km/h
235 15-12-2008 22:59:15 0.6 C 4.8 g/m*3 0.6 C 0 km/h
236 15-12-2008 23:11:15 0.6 C 4.8 g/m*3 0.6 C 0 km/h
237 15-12-2008 23:23:15 0.6 C 4.8 g/m*3 0.6 C 0 km/h
238 15-12-2008 23:35:15 0.6 C 4.8 g/m*3 0.6 C 0 km/h
239 15-12-2008 23:47:15 0.6 C 4.8 g/m*3 0.6 C 0 km/h
240 15-12-2008 23:59:15 0.6 C 4.8 g/m*3 0.6 C 0 km/h
241 16-12-2008 00:11:16 0.7 C 4.83 g/m*3 0.7 C 0 km/h
242 16-12-2008 00:23:16 0.7 C 4.83 g/m*3 0.7 C 0 km/h
243 16-12-2008 00:35:16 0.7 C 4.83 g/m*3 0.7 C 0 km/h
244 16-12-2008 00:47:16 0.6 C 4.8 g/m*3 0.6 C 0 km/h
245 16-12-2008 00:59:16 0.6 C 4.8 g/m*3 0.6 C 0 km/h
246 16-12-2008 01:11:16 0.6 C 4.8 g/m*3 0.6 C 0 km/h
247 16-12-2008 01:23:16 0.6 C 4.8 g/m*3 0.6 C 0 km/h
248 16-12-2008 01:35:16 0.6 C 4.8 g/m*3 0.6 C 0 km/h
249 16-12-2008 01:47:16 0.6 C 4.8 g/m*3 0.6 C 0 km/h
250 16-12-2008 01:59:16 0.6 C 4.8 g/m*3 0.6 C 0 km/h
Sensor: Nr:Datum:Temp:Abs-Feuchte:Windchill:Wind:
Aussen-T/F 251 16-12-2008 02:11:16 0.6 C 4.8 g/m*3 0.6 C 0 km/h
252 16-12-2008 02:23:16 0.6 C 4.8 g/m*3 0.6 C 0 km/h
253 16-12-2008 02:35:16 0.5 C 4.76 g/m*3 0.5 C 0 km/h
254 16-12-2008 02:47:16 0.5 C 4.76 g/m*3 0.5 C 0 km/h
255 16-12-2008 02:59:16 0.5 C 4.76 g/m*3 0.5 C 0 km/h
256 16-12-2008 03:11:16 0.4 C 4.73 g/m*3 0.4 C 0 km/h
257 16-12-2008 03:23:16 0.4 C 4.73 g/m*3 0.4 C 0 km/h
258 16-12-2008 03:35:16 0.3 C 4.7 g/m*3 0.3 C 0 km/h
259 16-12-2008 03:47:16 0.3 C 4.7 g/m*3 0.3 C 0 km/h
260 16-12-2008 03:59:17 0.3 C 4.7 g/m*3 0.3 C 0 km/h
261 16-12-2008 04:11:17 0.3 C 4.65 g/m*3 0.3 C 0 km/h
262 16-12-2008 04:23:17 0.3 C 4.65 g/m*3 0.3 C 0 km/h
263 16-12-2008 04:35:17 0.3 C 4.65 g/m*3 0.3 C 0 km/h
264 16-12-2008 04:47:17 0.2 C 4.62 g/m*3 0.2 C 0 km/h
265 16-12-2008 04:59:17 0.1 C 4.59 g/m*3 0.1 C 0 km/h
266 16-12-2008 05:11:17 0.2 C 4.62 g/m*3 0.2 C 0 km/h
267 16-12-2008 05:23:17 0.2 C 4.62 g/m*3 0.2 C 0 km/h
268 16-12-2008 05:35:17 0.2 C 4.62 g/m*3 0.2 C 0 km/h
269 16-12-2008 05:47:17 0.2 C 4.57 g/m*3 0.2 C 0 km/h
270 16-12-2008 05:59:17 0 C 4.51 g/m*3 0 C 0 km/h
271 16-12-2008 06:11:17 0 C 4.51 g/m*3 0 C 0 km/h
272 16-12-2008 06:23:17 0 C 4.51 g/m*3 0 C 0 km/h
273 16-12-2008 06:35:16 -0.1 C 4.47 g/m*3 -0.1 C 0 km/h
274 16-12-2008 06:47:15 -0.2 C 4.4 g/m*3 -0.2 C 0 km/h
275 16-12-2008 06:59:15 -0.2 C 4.4 g/m*3 -0.2 C 0 km/h
Sensor: Nr:Datum:Temp:Abs-Feuchte:Windchill:Wind:
Aussen-T/F 276 16-12-2008 07:11:16 -0.2 C 4.4 g/m*3 -0.2 C 0 km/h
277 16-12-2008 07:23:15 -0.2 C 4.4 g/m*3 -0.2 C 0 km/h
278 16-12-2008 07:35:15 -0.1 C 4.43 g/m*3 -0.1 C 0 km/h
279 16-12-2008 07:47:14 -0.1 C 4.43 g/m*3 -0.1 C 0 km/h
280 16-12-2008 07:59:14 -0.1 C 4.43 g/m*3 -0.1 C 0 km/h
281 16-12-2008 08:11:15 -0.1 C 4.43 g/m*3 -0.1 C 0 km/h
282 16-12-2008 08:23:15 -0.2 C 4.4 g/m*3 -0.2 C 0 km/h
283 16-12-2008 08:35:14 -0.3 C 4.37 g/m*3 -0.3 C 0 km/h
284 16-12-2008 08:47:15 -0.3 C 4.32 g/m*3 -0.3 C 0 km/h
285 16-12-2008 08:59:15 -0.3 C 4.32 g/m*3 -0.3 C 0 km/h
286 16-12-2008 09:11:14 -0.2 C 4.35 g/m*3 -0.2 C 0 km/h
287 16-12-2008 09:23:14 -0.2 C 4.35 g/m*3 -0.2 C 0 km/h
288 16-12-2008 09:35:14 0 C 4.41 g/m*3 0 C 0 km/h
289 16-12-2008 09:47:14 0 C 4.41 g/m*3 0 C 0 km/h
290 16-12-2008 09:59:14 0.1 C 4.44 g/m*3 0.1 C 0 km/h
291 16-12-2008 10:11:14 0 C 4.41 g/m*3 0 C 0 km/h
292 16-12-2008 10:23:13 0 C 4.36 g/m*3 0 C 0 km/h
293 16-12-2008 10:35:14 0 C 4.36 g/m*3 0 C 0 km/h
294 16-12-2008 10:47:13 0 C 4.36 g/m*3 0 C 0 km/h
295 16-12-2008 10:59:13 0 C 4.36 g/m*3 0 C 0 km/h
296 16-12-2008 11:11:13 0 C 4.31 g/m*3 0 C 0 km/h
297 16-12-2008 11:23:13 0.2 C 4.37 g/m*3 0.2 C 0 km/h
298 16-12-2008 11:35:13 0.2 C 4.37 g/m*3 0.2 C 0 km/h
299 16-12-2008 11:47:12 0.4 C 4.43 g/m*3 0.4 C 0 km/h
300 16-12-2008 11:59:12 0.6 C 4.49 g/m*3 0.6 C 0 km/h
Sensor: Nr:Datum:Temp:Abs-Feuchte:Windchill:Wind:
Aussen-T/F 301 16-12-2008 12:11:13 0.7 C 4.53 g/m*3 0.7 C 0 km/h
302 16-12-2008 12:23:13 0.7 C 4.53 g/m*3 0.7 C 0 km/h
303 16-12-2008 12:35:12 0.6 C 4.49 g/m*3 0.6 C 0 km/h
304 16-12-2008 12:47:12 0.6 C 4.49 g/m*3 0.6 C 0 km/h
305 16-12-2008 12:59:12 0.7 C 4.53 g/m*3 0.7 C 0 km/h
306 16-12-2008 13:11:12 0.7 C 4.53 g/m*3 0.7 C 0 km/h
307 16-12-2008 13:23:12 0.8 C 4.56 g/m*3 0.8 C 0 km/h
308 16-12-2008 13:35:11 0.8 C 4.56 g/m*3 0.8 C 0 km/h
309 16-12-2008 13:47:12 0.9 C 4.59 g/m*3 0.9 C 0 km/h
310 16-12-2008 13:59:12 0.8 C 4.56 g/m*3 0.8 C 0 km/h
311 16-12-2008 14:11:11 0.9 C 4.64 g/m*3 0.9 C 0 km/h
312 16-12-2008 14:23:11 1 C 4.62 g/m*3 1 C 0 km/h
313 16-12-2008 14:35:12 1 C 4.67 g/m*3 1 C 0 km/h
314 16-12-2008 14:47:11 1 C 4.62 g/m*3 1 C 0 km/h
315 16-12-2008 14:59:11 1 C 4.62 g/m*3 1 C 0 km/h
316 16-12-2008 15:11:11 0.9 C 4.64 g/m*3 0.9 C 0 km/h
317 16-12-2008 15:23:11 0.8 C 4.61 g/m*3 0.8 C 0 km/h
318 16-12-2008 15:35:11 0.8 C 4.61 g/m*3 0.8 C 0 km/h
319 16-12-2008 15:47:10 0.9 C 4.69 g/m*3 0.9 C 0 km/h
320 16-12-2008 15:59:10 0.8 C 4.66 g/m*3 0.8 C 0 km/h
321 16-12-2008 16:11:10 0.8 C 4.66 g/m*3 0.8 C 0 km/h
322 16-12-2008 16:23:11 0.7 C 4.63 g/m*3 0.7 C 0 km/h
323 16-12-2008 16:35:10 0.6 C 4.6 g/m*3 0.6 C 0 km/h
324 16-12-2008 16:47:10 0.7 C 4.63 g/m*3 0.7 C 0 km/h
325 16-12-2008 16:59:10 0.7 C 4.63 g/m*3 0.7 C 0 km/h
Sensor: Nr:Datum:Temp:Abs-Feuchte:Windchill:Wind:
Aussen-T/F 326 16-12-2008 17:11:10 0.7 C 4.63 g/m*3 0.7 C 0 km/h
327 16-12-2008 17:23:10 0.6 C 4.6 g/m*3 0.6 C 0 km/h
328 16-12-2008 17:35:10 0.7 C 4.68 g/m*3 0.7 C 0 km/h
329 16-12-2008 17:47:10 0.7 C 4.68 g/m*3 0.7 C 0 km/h
330 16-12-2008 17:59:10 0.6 C 4.65 g/m*3 0.6 C 0 km/h
331 16-12-2008 18:11:09 0.6 C 4.65 g/m*3 0.6 C 0 km/h
332 16-12-2008 18:23:09 0.5 C 4.61 g/m*3 0.5 C 0 km/h
333 16-12-2008 18:35:10 0.6 C 4.65 g/m*3 0.6 C 0 km/h
334 16-12-2008 18:47:09 0.6 C 4.65 g/m*3 0.6 C 0 km/h
335 16-12-2008 18:59:09 0.6 C 4.65 g/m*3 0.6 C 0 km/h
336 16-12-2008 19:11:09 0.5 C 4.61 g/m*3 0.5 C 0 km/h
337 16-12-2008 19:23:09 0.6 C 4.65 g/m*3 0.6 C 0 km/h
338 16-12-2008 19:35:08 0.6 C 4.65 g/m*3 0.6 C 0 km/h
339 16-12-2008 19:47:09 0.6 C 4.65 g/m*3 0.6 C 0 km/h
340 16-12-2008 19:59:10 0.6 C 4.65 g/m*3 0.6 C 0 km/h
341 16-12-2008 20:11:08 0.5 C 4.61 g/m*3 0.5 C 0 km/h
342 16-12-2008 20:23:08 0.6 C 4.65 g/m*3 0.6 C 0 km/h
343 16-12-2008 20:35:08 0.6 C 4.65 g/m*3 0.6 C 0 km/h
344 16-12-2008 20:47:08 0.5 C 4.61 g/m*3 0.5 C 0 km/h
345 16-12-2008 20:59:08 0.6 C 4.65 g/m*3 0.6 C 0 km/h
346 16-12-2008 21:11:08 0.6 C 4.65 g/m*3 0.6 C 0 km/h
347 16-12-2008 21:23:08 0.6 C 4.65 g/m*3 0.6 C 0 km/h
348 16-12-2008 21:35:07 0.6 C 4.65 g/m*3 0.6 C 0 km/h
349 16-12-2008 21:48:08 0.6 C 4.65 g/m*3 0.6 C 0 km/h
350 16-12-2008 22:00:08 0.5 C 4.61 g/m*3 0.5 C 0 km/h
Sensor: Nr:Datum:Temp:Abs-Feuchte:Windchill:Wind:
Aussen-T/F 351 16-12-2008 22:12:08 0.5 C 4.61 g/m*3 0.5 C 0 km/h
352 16-12-2008 22:24:08 0.5 C 4.61 g/m*3 0.5 C 0 km/h
353 16-12-2008 22:36:08 0.5 C 4.61 g/m*3 0.5 C 0 km/h
354 16-12-2008 22:48:08 0.5 C 4.61 g/m*3 0.5 C 0 km/h
355 16-12-2008 23:00:08 0.5 C 4.61 g/m*3 0.5 C 0 km/h
356 16-12-2008 23:12:08 0.5 C 4.61 g/m*3 0.5 C 0 km/h
357 16-12-2008 23:24:08 0.5 C 4.61 g/m*3 0.5 C 0 km/h
358 16-12-2008 23:36:08 0.5 C 4.61 g/m*3 0.5 C 0 km/h
359 16-12-2008 23:48:08 0.5 C 4.61 g/m*3 0.5 C 0 km/h
360 17-12-2008 00:00:09 0.5 C 4.61 g/m*3 0.5 C 0 km/h
361 17-12-2008 00:12:09 0.3 C 4.55 g/m*3 0.3 C 0 km/h
362 17-12-2008 00:24:09 0.4 C 4.58 g/m*3 0.4 C 0 km/h
363 17-12-2008 00:36:09 0.5 C 4.61 g/m*3 0.5 C 0 km/h
364 17-12-2008 00:48:09 0.3 C 4.55 g/m*3 0.3 C 0 km/h
365 17-12-2008 01:00:09 0.3 C 4.55 g/m*3 0.3 C 0 km/h
366 17-12-2008 01:12:09 0.3 C 4.55 g/m*3 0.3 C 0 km/h
367 17-12-2008 01:24:09 0.2 C 4.52 g/m*3 0.2 C 0 km/h
368 17-12-2008 01:36:09 0.1 C 4.49 g/m*3 0.1 C 0 km/h
369 17-12-2008 01:48:09 0.1 C 4.49 g/m*3 0.1 C 0 km/h
370 17-12-2008 02:00:09 0 C 4.46 g/m*3 0 C 0 km/h
371 17-12-2008 02:12:09 0 C 4.46 g/m*3 0 C 0 km/h
372 17-12-2008 02:24:09 -0.1 C 4.43 g/m*3 -0.1 C 0 km/h
373 17-12-2008 02:36:09 -0.1 C 4.43 g/m*3 -0.1 C 0 km/h
374 17-12-2008 02:48:09 -0.2 C 4.4 g/m*3 -0.2 C 0 km/h
375 17-12-2008 03:00:09 -0.2 C 4.35 g/m*3 -0.2 C 0 km/h
Sensor: Nr:Datum:Temp:Abs-Feuchte:Windchill:Wind:
Aussen-T/F 376 17-12-2008 03:12:09 -0.3 C 4.32 g/m*3 -0.3 C 0 km/h
377 17-12-2008 03:24:09 -0.2 C 4.35 g/m*3 -0.2 C 0 km/h
378 17-12-2008 03:36:09 -0.3 C 4.32 g/m*3 -0.3 C 0 km/h
379 17-12-2008 03:48:09 -0.4 C 4.29 g/m*3 -0.4 C 0 km/h
380 17-12-2008 04:00:10 -0.4 C 4.29 g/m*3 -0.4 C 0 km/h
381 17-12-2008 04:12:10 -0.4 C 4.29 g/m*3 -0.4 C 0 km/h
382 17-12-2008 04:24:10 -0.5 C 4.26 g/m*3 -0.5 C 0 km/h
383 17-12-2008 04:36:10 -0.5 C 4.21 g/m*3 -0.5 C 0 km/h
384 17-12-2008 04:48:10 -0.6 C 4.18 g/m*3 -0.6 C 0 km/h
385 17-12-2008 05:00:10 -0.6 C 4.18 g/m*3 -0.6 C 0 km/h
386 17-12-2008 05:12:10 -0.6 C 4.18 g/m*3 -0.6 C 0 km/h
387 17-12-2008 05:24:10 -0.7 C 4.15 g/m*3 -0.7 C 0 km/h
388 17-12-2008 05:36:10 -0.8 C 4.13 g/m*3 -0.8 C 0 km/h
389 17-12-2008 05:48:10 -1 C 4.07 g/m*3 -1 C 0 km/h
390 17-12-2008 06:00:10 -1.1 C 4 g/m*3 -1.1 C 0 km/h
391 17-12-2008 06:12:10 -1.2 C 3.97 g/m*3 -1.2 C 0 km/h
392 17-12-2008 06:24:10 -1.2 C 3.97 g/m*3 -1.2 C 0 km/h
393 17-12-2008 06:36:10 -1.2 C 3.97 g/m*3 -1.2 C 0 km/h
394 17-12-2008 06:48:10 -1.2 C 3.92 g/m*3 -1.2 C 0 km/h
395 17-12-2008 07:00:10 -1.2 C 3.92 g/m*3 -1.2 C 0 km/h
396 17-12-2008 07:12:09 -1.2 C 3.92 g/m*3 -1.2 C 0 km/h
397 17-12-2008 07:24:08 -1.2 C 3.88 g/m*3 -1.2 C 0 km/h
398 17-12-2008 07:36:08 -1.2 C 3.88 g/m*3 -1.2 C 0 km/h
399 17-12-2008 07:48:08 -1.1 C 3.86 g/m*3 -1.1 C 0 km/h
400 17-12-2008 08:00:08 -1 C 3.89 g/m*3 -1 C 0 km/h
Sensor: Nr:Datum:Temp:Abs-Feuchte:Windchill:Wind:
Aussen-T/F 401 17-12-2008 08:12:08 -1 C 3.89 g/m*3 -1 C 0 km/h
402 17-12-2008 08:24:08 -1.1 C 3.82 g/m*3 -1.1 C 0 km/h
403 17-12-2008 08:36:08 -1.2 C 3.74 g/m*3 -1.2 C 0 km/h
404 17-12-2008 08:48:08 -1.2 C 3.74 g/m*3 -1.2 C 0 km/h
405 17-12-2008 09:00:08 -1.1 C 3.82 g/m*3 -1.1 C 0 km/h
406 17-12-2008 09:12:08 -1.1 C 3.77 g/m*3 -1.1 C 0 km/h
407 17-12-2008 09:24:07 -0.9 C 3.82 g/m*3 -0.9 C 0 km/h
408 17-12-2008 09:36:07 -1 C 3.8 g/m*3 -1 C 0 km/h
409 17-12-2008 09:48:07 -0.9 C 3.78 g/m*3 -0.9 C 0 km/h
410 17-12-2008 10:00:07 -0.9 C 3.78 g/m*3 -0.9 C 0 km/h
411 17-12-2008 10:12:07 -0.7 C 3.78 g/m*3 -0.7 C 0 km/h
412 17-12-2008 10:24:06 -0.7 C 3.78 g/m*3 -0.7 C 0 km/h
413 17-12-2008 10:36:07 -0.6 C 3.76 g/m*3 -0.6 C 0 km/h
414 17-12-2008 10:48:06 -0.4 C 3.82 g/m*3 -0.4 C 0 km/h
415 17-12-2008 11:00:06 -0.3 C 3.8 g/m*3 -0.3 C 0 km/h
416 17-12-2008 11:12:06 -0.1 C 3.85 g/m*3 -0.1 C 0 km/h
417 17-12-2008 11:24:07 0.1 C 3.85 g/m*3 0.1 C 0 km/h
418 17-12-2008 11:36:06 0.1 C 3.81 g/m*3 0.1 C 0 km/h
419 17-12-2008 11:48:06 0 C 3.73 g/m*3 0 C 0 km/h
420 17-12-2008 12:00:06 0.1 C 3.76 g/m*3 0.1 C 0 km/h
421 17-12-2008 12:12:06 0.1 C 3.76 g/m*3 0.1 C 0 km/h
422 17-12-2008 12:24:06 0.2 C 3.78 g/m*3 0.2 C 0 km/h
423 17-12-2008 12:36:05 0.2 C 3.78 g/m*3 0.2 C 0 km/h
424 17-12-2008 12:48:06 0.3 C 3.81 g/m*3 0.3 C 0 km/h
425 17-12-2008 13:00:07 0.4 C 3.88 g/m*3 0.4 C 0 km/h
Sensor: Nr:Datum:Temp:Abs-Feuchte:Windchill:Wind:
Aussen-T/F 426 17-12-2008 13:12:05 0.5 C 3.86 g/m*3 0.5 C 0 km/h
427 17-12-2008 13:24:05 0.5 C 3.91 g/m*3 0.5 C 0 km/h
428 17-12-2008 13:36:05 0.6 C 3.94 g/m*3 0.6 C 0 km/h
429 17-12-2008 13:48:05 0.6 C 3.94 g/m*3 0.6 C 0 km/h
430 17-12-2008 14:00:05 0.6 C 3.99 g/m*3 0.6 C 0 km/h
431 17-12-2008 14:12:05 0.4 C 4.03 g/m*3 0.4 C 0 km/h
432 17-12-2008 14:24:04 0.3 C 4.16 g/m*3 0.3 C 0 km/h
433 17-12-2008 14:36:05 0.2 C 4.22 g/m*3 0.2 C 0 km/h
434 17-12-2008 14:48:04 0.1 C 4.29 g/m*3 0.1 C 0 km/h
435 17-12-2008 15:00:04 0.1 C 4.34 g/m*3 0.1 C 0 km/h
436 17-12-2008 15:12:05 0.1 C 4.39 g/m*3 0.1 C 0 km/h
437 17-12-2008 15:24:04 0.1 C 4.44 g/m*3 0.1 C 0 km/h
438 17-12-2008 15:36:04 0.1 C 4.44 g/m*3 0.1 C 0 km/h
439 17-12-2008 15:48:04 0.2 C 4.47 g/m*3 0.2 C 0 km/h
440 17-12-2008 16:00:04 0.2 C 4.52 g/m*3 0.2 C 0 km/h
441 17-12-2008 16:12:04 0.2 C 4.52 g/m*3 0.2 C 0 km/h
442 17-12-2008 16:24:03 0.1 C 4.49 g/m*3 0.1 C 0 km/h
443 17-12-2008 16:36:03 0 C 4.51 g/m*3 0 C 0 km/h
444 17-12-2008 16:48:03 0 C 4.51 g/m*3 0 C 0 km/h
445 17-12-2008 17:00:03 0 C 4.55 g/m*3 0 C 0 km/h
446 17-12-2008 17:12:03 0.1 C 4.59 g/m*3 0.1 C 0 km/h
447 17-12-2008 17:24:03 0.1 C 4.59 g/m*3 0.1 C 0 km/h
448 17-12-2008 17:36:03 0.1 C 4.59 g/m*3 0.1 C 0 km/h
449 17-12-2008 17:48:03 0.1 C 4.59 g/m*3 0.1 C 0 km/h
450 17-12-2008 18:00:03 0.2 C 4.67 g/m*3 0.2 C 0 km/h
Sensor: Nr:Datum:Temp:Abs-Feuchte:Windchill:Wind:
Aussen-T/F 451 17-12-2008 18:12:02 0.2 C 4.67 g/m*3 0.2 C 0 km/h
452 17-12-2008 18:24:03 0.3 C 4.7 g/m*3 0.3 C 0 km/h
453 17-12-2008 18:36:02 0.3 C 4.7 g/m*3 0.3 C 0 km/h
454 17-12-2008 18:48:02 0.4 C 4.73 g/m*3 0.4 C 0 km/h
455 17-12-2008 19:00:02 0.5 C 4.76 g/m*3 0.5 C 0 km/h
456 17-12-2008 19:12:02 0.5 C 4.76 g/m*3 0.5 C 0 km/h
457 17-12-2008 19:24:02 0.5 C 4.76 g/m*3 0.5 C 0 km/h
458 17-12-2008 19:36:02 0.5 C 4.76 g/m*3 0.5 C 0 km/h
459 17-12-2008 19:48:02 0.5 C 4.76 g/m*3 0.5 C 0 km/h
460 17-12-2008 20:00:02 0.5 C 4.76 g/m*3 0.5 C 0 km/h
461 17-12-2008 20:12:01 0.6 C 4.8 g/m*3 0.6 C 0 km/h
462 17-12-2008 20:24:01 0.6 C 4.8 g/m*3 0.6 C 0 km/h
463 17-12-2008 20:36:01 0.6 C 4.8 g/m*3 0.6 C 0 km/h
464 17-12-2008 20:48:02 0.6 C 4.8 g/m*3 0.6 C 0 km/h
465 17-12-2008 21:00:02 0.7 C 4.83 g/m*3 0.7 C 0 km/h
466 17-12-2008 21:12:01 0.7 C 4.83 g/m*3 0.7 C 0 km/h
467 17-12-2008 21:24:00 0.7 C 4.83 g/m*3 0.7 C 0 km/h
468 17-12-2008 21:36:01 0.7 C 4.83 g/m*3 0.7 C 0 km/h
469 17-12-2008 21:49:03 0.8 C 4.86 g/m*3 0.8 C 0 km/h
470 17-12-2008 22:01:03 0.8 C 4.86 g/m*3 0.8 C 0 km/h
471 17-12-2008 22:13:03 0.8 C 4.86 g/m*3 0.8 C 0 km/h
472 17-12-2008 22:25:03 0.8 C 4.86 g/m*3 0.8 C 0 km/h
473 17-12-2008 22:37:03 0.9 C 4.9 g/m*3 0.9 C 0 km/h
474 17-12-2008 22:49:03 0.9 C 4.9 g/m*3 0.9 C 0 km/h
475 17-12-2008 23:01:03 1 C 4.93 g/m*3 1 C 0 km/h
Sensor: Nr:Datum:Temp:Abs-Feuchte:Windchill:Wind:
Aussen-T/F 476 17-12-2008 23:13:03 1 C 4.93 g/m*3 1 C 0 km/h
477 17-12-2008 23:25:03 1 C 4.93 g/m*3 1 C 0 km/h
478 17-12-2008 23:37:03 1 C 4.93 g/m*3 1 C 0 km/h
479 17-12-2008 23:49:03 1 C 4.93 g/m*3 1 C 0 km/h
480 18-12-2008 00:01:03 1 C 4.93 g/m*3 1 C 0 km/h
481 18-12-2008 00:13:03 1 C 4.93 g/m*3 1 C 0 km/h
482 18-12-2008 00:25:03 1.1 C 4.96 g/m*3 1.1 C 0 km/h
483 18-12-2008 00:37:03 1.1 C 4.96 g/m*3 1.1 C 0 km/h
484 18-12-2008 00:49:03 1.1 C 4.96 g/m*3 1.1 C 0 km/h
485 18-12-2008 01:01:03 1.2 C 5 g/m*3 1.2 C 0 km/h
486 18-12-2008 01:13:03 1.2 C 5 g/m*3 1.2 C 0 km/h
487 18-12-2008 01:25:03 1.2 C 5 g/m*3 1.2 C 0 km/h
488 18-12-2008 01:37:04 1.2 C 5 g/m*3 1.2 C 0 km/h
489 18-12-2008 01:49:04 1.2 C 5 g/m*3 1.2 C 0 km/h
490 18-12-2008 02:01:04 1.2 C 5 g/m*3 1.2 C 0 km/h
491 18-12-2008 02:13:04 1.3 C 5.03 g/m*3 1.3 C 0 km/h
492 18-12-2008 02:25:04 1.3 C 5.03 g/m*3 1.3 C 0 km/h
493 18-12-2008 02:37:04 1.3 C 5.03 g/m*3 1.3 C 0 km/h
494 18-12-2008 02:49:04 1.3 C 5.03 g/m*3 1.3 C 0 km/h
495 18-12-2008 03:01:04 1.3 C 5.03 g/m*3 1.3 C 0 km/h
496 18-12-2008 03:13:04 1.4 C 5.07 g/m*3 1.4 C 0 km/h
497 18-12-2008 03:25:04 1.4 C 5.07 g/m*3 1.4 C 0 km/h
498 18-12-2008 03:37:04 1.4 C 5.07 g/m*3 1.4 C 0 km/h
499 18-12-2008 03:49:04 1.4 C 5.07 g/m*3 1.4 C 0 km/h
500 18-12-2008 04:01:04 1.5 C 5.1 g/m*3 1.5 C 0 km/h
Sensor: Nr:Datum:Temp:Abs-Feuchte:Windchill:Wind:
Aussen-T/F 501 18-12-2008 04:13:04 1.5 C 5.1 g/m*3 1.5 C 0 km/h
502 18-12-2008 04:25:04 1.5 C 5.1 g/m*3 1.5 C 0 km/h
503 18-12-2008 04:37:04 1.5 C 5.1 g/m*3 1.5 C 0 km/h
504 18-12-2008 04:49:04 1.5 C 5.1 g/m*3 1.5 C 0 km/h
505 18-12-2008 05:01:04 1.5 C 5.1 g/m*3 1.5 C 0 km/h
506 18-12-2008 05:13:04 1.5 C 5.1 g/m*3 1.5 C 0 km/h
507 18-12-2008 05:25:05 1.6 C 5.14 g/m*3 1.6 C 0 km/h
508 18-12-2008 05:37:05 1.6 C 5.14 g/m*3 1.6 C 0 km/h
509 18-12-2008 05:49:05 1.6 C 5.14 g/m*3 1.6 C 0 km/h
510 18-12-2008 06:01:02 1.6 C 5.14 g/m*3 1.6 C 0 km/h
511 18-12-2008 06:13:02 1.6 C 5.14 g/m*3 1.6 C 0 km/h
512 18-12-2008 06:25:03 1.6 C 5.14 g/m*3 1.6 C 0 km/h
513 18-12-2008 06:37:02 1.6 C 5.14 g/m*3 1.6 C 0 km/h
514 18-12-2008 06:49:02 1.6 C 5.14 g/m*3 1.6 C 0 km/h
515 18-12-2008 07:01:02 1.6 C 5.14 g/m*3 1.6 C 0 km/h
516 18-12-2008 07:13:02 1.6 C 5.14 g/m*3 1.6 C 0 km/h
517 18-12-2008 07:25:02 1.6 C 5.14 g/m*3 1.6 C 0 km/h
518 18-12-2008 07:37:02 1.6 C 5.14 g/m*3 1.6 C 0 km/h
519 18-12-2008 07:49:02 1.7 C 5.17 g/m*3 1.7 C 0 km/h
520 18-12-2008 08:01:02 1.7 C 5.17 g/m*3 1.7 C 0 km/h
521 18-12-2008 08:13:02 1.7 C 5.17 g/m*3 1.7 C 0 km/h
522 18-12-2008 08:25:01 1.7 C 5.17 g/m*3 1.7 C 0 km/h
523 18-12-2008 08:37:02 1.7 C 5.17 g/m*3 1.7 C 0 km/h
524 18-12-2008 08:49:01 1.7 C 5.17 g/m*3 1.7 C 0 km/h
525 18-12-2008 09:01:01 1.8 C 5.21 g/m*3 1.8 C 0 km/h
Sensor: Nr:Datum:Temp:Abs-Feuchte:Windchill:Wind:
Aussen-T/F 526 18-12-2008 09:13:01 1.8 C 5.21 g/m*3 1.8 C 0 km/h
527 18-12-2008 09:25:01 1.9 C 5.24 g/m*3 1.9 C 0 km/h
528 18-12-2008 09:37:01 1.9 C 5.24 g/m*3 1.9 C 0 km/h
529 18-12-2008 09:49:00 2 C 5.22 g/m*3 2 C 0 km/h
530 18-12-2008 10:01:01 2.1 C 5.26 g/m*3 2.1 C 0 km/h
531 18-12-2008 10:13:01 2 C 5.17 g/m*3 2 C 0 km/h
532 18-12-2008 10:25:00 2.2 C 5.24 g/m*3 2.2 C 0 km/h
533 18-12-2008 10:37:00 2.4 C 5.31 g/m*3 2.4 C 0 km/h
534 18-12-2008 10:49:00 2.5 C 5.29 g/m*3 2.5 C 0 km/h
535 18-12-2008 11:01:00 2.5 C 5.23 g/m*3 2.5 C 0 km/h
536 18-12-2008 11:13:00 2.6 C 5.21 g/m*3 2.6 C 0 km/h
537 18-12-2008 11:25:00 2.7 C 5.13 g/m*3 2.7 C 0 km/h
538 18-12-2008 11:36:59 2.7 C 5.07 g/m*3 2.7 C 0 km/h
539 18-12-2008 11:49:00 2.7 C 5.01 g/m*3 2.7 C 0 km/h
540 18-12-2008 12:01:59 2.6 C 4.92 g/m*3 2.6 C 0 km/h
541 18-12-2008 12:13:59 2.5 C 4.89 g/m*3 2.5 C 0 km/h
542 18-12-2008 12:25:00 2.6 C 4.92 g/m*3 2.6 C 0 km/h
543 18-12-2008 12:37:59 2.6 C 4.86 g/m*3 2.6 C 0 km/h
544 18-12-2008 12:49:59 2.7 C 4.84 g/m*3 2.7 C 0 km/h
545 18-12-2008 13:01:59 2.7 C 4.72 g/m*3 2.7 C 0 km/h
546 18-12-2008 13:13:59 2.5 C 4.6 g/m*3 2.5 C 0 km/h
547 18-12-2008 13:25:59 2.5 C 4.66 g/m*3 2.5 C 0 km/h
548 18-12-2008 13:37:58 2.6 C 4.63 g/m*3 2.6 C 0 km/h
549 18-12-2008 13:49:59 2.8 C 4.63 g/m*3 2.8 C 0 km/h
550 18-12-2008 14:01:58 3 C 4.58 g/m*3 3 C 0 km/h
Sensor: Nr:Datum:Temp:Abs-Feuchte:Windchill:Wind:
Aussen-T/F 551 18-12-2008 14:13:58 3.1 C 4.55 g/m*3 3.1 C 0 km/h
552 18-12-2008 14:25:58 3.1 C 4.55 g/m*3 3.1 C 0 km/h
553 18-12-2008 14:37:58 3.1 C 4.61 g/m*3 3.1 C 0 km/h
554 18-12-2008 14:49:58 3.1 C 4.61 g/m*3 3.1 C 0 km/h
555 18-12-2008 15:01:58 3 C 4.52 g/m*3 3 C 0 km/h
556 18-12-2008 15:13:58 2.9 C 4.55 g/m*3 2.9 C 0 km/h
557 18-12-2008 15:25:57 2.9 C 4.61 g/m*3 2.9 C 0 km/h
558 18-12-2008 15:37:58 3 C 4.64 g/m*3 3 C 0 km/h
559 18-12-2008 15:49:57 3 C 4.64 g/m*3 3 C 0 km/h
560 18-12-2008 16:01:57 2.9 C 4.72 g/m*3 2.9 C 0 km/h
561 18-12-2008 16:13:57 2.9 C 4.72 g/m*3 2.9 C 0 km/h
562 18-12-2008 16:25:57 2.8 C 4.69 g/m*3 2.8 C 0 km/h
563 18-12-2008 16:37:57 2.7 C 4.72 g/m*3 2.7 C 0 km/h
564 18-12-2008 16:49:57 2.7 C 4.78 g/m*3 2.7 C 0 km/h
565 18-12-2008 17:01:56 2.6 C 4.75 g/m*3 2.6 C 0 km/h
566 18-12-2008 17:13:56 2.5 C 4.77 g/m*3 2.5 C 0 km/h
567 18-12-2008 17:25:57 2.4 C 4.85 g/m*3 2.4 C 0 km/h
568 18-12-2008 17:37:56 2.3 C 4.88 g/m*3 2.3 C 0 km/h
569 18-12-2008 17:49:57 2.3 C 4.93 g/m*3 2.3 C 0 km/h
570 18-12-2008 18:01:56 2.3 C 4.93 g/m*3 2.3 C 0 km/h
571 18-12-2008 18:13:56 2.3 C 4.99 g/m*3 2.3 C 0 km/h
572 18-12-2008 18:25:56 2.3 C 4.99 g/m*3 2.3 C 0 km/h
573 18-12-2008 18:37:55 2.3 C 4.99 g/m*3 2.3 C 0 km/h
574 18-12-2008 18:49:56 2.4 C 5.02 g/m*3 2.4 C 0 km/h
575 18-12-2008 19:01:55 2.5 C 5.06 g/m*3 2.5 C 0 km/h
Sensor: Nr:Datum:Temp:Abs-Feuchte:Windchill:Wind:
Aussen-T/F 576 18-12-2008 19:13:55 2.5 C 5.06 g/m*3 2.5 C 0 km/h
577 18-12-2008 19:25:55 2.5 C 5.06 g/m*3 2.5 C 0 km/h
578 18-12-2008 19:37:56 2.6 C 5.09 g/m*3 2.6 C 0 km/h
579 18-12-2008 19:49:55 2.7 C 5.13 g/m*3 2.7 C 0 km/h
580 18-12-2008 20:01:55 2.6 C 5.09 g/m*3 2.6 C 0 km/h
581 18-12-2008 20:13:55 2.6 C 5.09 g/m*3 2.6 C 0 km/h
582 18-12-2008 20:25:55 2.5 C 5.12 g/m*3 2.5 C 0 km/h
583 18-12-2008 20:37:55 2.5 C 5.12 g/m*3 2.5 C 0 km/h
584 18-12-2008 20:49:54 2.5 C 5.12 g/m*3 2.5 C 0 km/h
585 18-12-2008 21:01:54 2.6 C 5.15 g/m*3 2.6 C 0 km/h
586 18-12-2008 21:13:54 2.6 C 5.15 g/m*3 2.6 C 0 km/h
587 18-12-2008 21:25:55 2.6 C 5.15 g/m*3 2.6 C 0 km/h
588 18-12-2008 21:37:54 2.7 C 5.13 g/m*3 2.7 C 0 km/h
589 18-12-2008 21:49:54 2.8 C 5.1 g/m*3 2.8 C 0 km/h
590 18-12-2008 22:01:54 2.8 C 5.04 g/m*3 2.8 C 0 km/h
591 18-12-2008 22:13:54 2.9 C 5.02 g/m*3 2.9 C 0 km/h
592 18-12-2008 22:26:55 2.8 C 4.99 g/m*3 2.8 C 0 km/h
593 18-12-2008 22:38:55 2.8 C 4.99 g/m*3 2.8 C 0 km/h
594 18-12-2008 22:50:55 2.7 C 5.01 g/m*3 2.7 C 0 km/h
595 18-12-2008 23:02:55 2.7 C 5.07 g/m*3 2.7 C 0 km/h
596 18-12-2008 23:14:55 2.5 C 5.12 g/m*3 2.5 C 0 km/h
597 18-12-2008 23:26:55 2.6 C 5.21 g/m*3 2.6 C 0 km/h
598 18-12-2008 23:38:55 2.6 C 5.21 g/m*3 2.6 C 0 km/h
599 18-12-2008 23:50:55 2.6 C 5.21 g/m*3 2.6 C 0 km/h
600 19-12-2008 00:02:55 2.7 C 5.24 g/m*3 2.7 C 0 km/h
Sensor: Nr:Datum:Temp:Abs-Feuchte:Windchill:Wind:
Aussen-T/F 601 19-12-2008 00:14:55 2.8 C 5.28 g/m*3 2.8 C 0 km/h
602 19-12-2008 00:26:55 2.9 C 5.26 g/m*3 2.9 C 0 km/h
603 19-12-2008 00:38:55 2.9 C 5.26 g/m*3 2.9 C 0 km/h
604 19-12-2008 00:50:55 2.8 C 5.22 g/m*3 2.8 C 0 km/h
605 19-12-2008 01:02:55 2.8 C 5.22 g/m*3 2.8 C 0 km/h
606 19-12-2008 01:14:55 2.9 C 5.26 g/m*3 2.9 C 0 km/h
607 19-12-2008 01:26:55 3 C 5.23 g/m*3 3 C 0 km/h
608 19-12-2008 01:38:55 3.1 C 5.27 g/m*3 3.1 C 0 km/h
609 19-12-2008 01:50:56 3.2 C 5.3 g/m*3 3.2 C 0 km/h
610 19-12-2008 02:02:56 3.3 C 5.34 g/m*3 3.3 C 0 km/h
611 19-12-2008 02:14:56 3.3 C 5.28 g/m*3 3.3 C 0 km/h
612 19-12-2008 02:26:56 3.5 C 5.35 g/m*3 3.5 C 0 km/h
613 19-12-2008 02:38:56 3.5 C 5.35 g/m*3 3.5 C 0 km/h
614 19-12-2008 02:50:56 3.6 C 5.39 g/m*3 3.6 C 0 km/h
615 19-12-2008 03:02:56 3.5 C 5.35 g/m*3 3.5 C 0 km/h
616 19-12-2008 03:14:56 3.6 C 5.32 g/m*3 3.6 C 0 km/h
617 19-12-2008 03:26:56 3.6 C 5.32 g/m*3 3.6 C 0 km/h
618 19-12-2008 03:38:56 3.5 C 5.29 g/m*3 3.5 C 0 km/h
619 19-12-2008 03:50:56 3.4 C 5.25 g/m*3 3.4 C 0 km/h
620 19-12-2008 04:02:56 3.4 C 5.31 g/m*3 3.4 C 0 km/h
621 19-12-2008 04:14:56 3.4 C 5.31 g/m*3 3.4 C 0 km/h
622 19-12-2008 04:26:56 3.5 C 5.35 g/m*3 3.5 C 0 km/h
623 19-12-2008 04:38:56 3.4 C 5.37 g/m*3 3.4 C 0 km/h
624 19-12-2008 04:50:56 3.2 C 5.36 g/m*3 3.2 C 0 km/h
625 19-12-2008 05:02:56 3.2 C 5.42 g/m*3 3.2 C 0 km/h
Sensor: Nr:Datum:Temp:Abs-Feuchte:Windchill:Wind:
Aussen-T/F 626 19-12-2008 05:14:56 3.3 C 5.52 g/m*3 3.3 C 0 km/h
627 19-12-2008 05:26:56 3.3 C 5.58 g/m*3 3.3 C 0 km/h
628 19-12-2008 05:38:57 3.3 C 5.64 g/m*3 3.3 C 0 km/h
629 19-12-2008 05:50:57 3.4 C 5.68 g/m*3 3.4 C 0 km/h
630 19-12-2008 06:02:57 3.4 C 5.68 g/m*3 3.4 C 0 km/h
631 19-12-2008 06:14:57 3.4 C 5.68 g/m*3 3.4 C 0 km/h
632 19-12-2008 06:26:57 3.4 C 5.68 g/m*3 3.4 C 0 km/h
633 19-12-2008 06:38:57 3.5 C 5.78 g/m*3 3.5 C 0 km/h
634 19-12-2008 06:50:55 3.5 C 5.78 g/m*3 3.5 C 0 km/h
635 19-12-2008 07:02:55 3.6 C 5.82 g/m*3 3.6 C 0 km/h
636 19-12-2008 07:14:54 3.6 C 5.88 g/m*3 3.6 C 0 km/h
637 19-12-2008 07:26:54 3.7 C 5.92 g/m*3 3.7 C 0 km/h
638 19-12-2008 07:38:54 3.8 C 5.96 g/m*3 3.8 C 0 km/h
639 19-12-2008 07:50:54 3.9 C 6 g/m*3 3.9 C 0 km/h
640 19-12-2008 08:02:53 3.8 C 5.96 g/m*3 3.8 C 0 km/h
641 19-12-2008 08:14:54 4 C 6.04 g/m*3 4 C 0 km/h
642 19-12-2008 08:26:54 4.2 C 6.06 g/m*3 4.2 C 0 km/h
643 19-12-2008 08:38:54 4.3 C 6.1 g/m*3 4.3 C 0 km/h
644 19-12-2008 08:50:53 4.3 C 6.1 g/m*3 4.3 C 0 km/h
645 19-12-2008 09:02:54 4.3 C 6.1 g/m*3 4.3 C 0 km/h
646 19-12-2008 09:14:53 4.4 C 6.14 g/m*3 4.4 C 0 km/h
647 19-12-2008 09:26:53 4.5 C 6.18 g/m*3 4.5 C 0 km/h
648 19-12-2008 09:38:53 4.6 C 6.22 g/m*3 4.6 C 0 km/h
649 19-12-2008 09:50:53 4.7 C 6.19 g/m*3 4.7 C 0 km/h
650 19-12-2008 10:02:53 4.8 C 6.24 g/m*3 4.8 C 0 km/h
Sensor: Nr:Datum:Temp:Abs-Feuchte:Windchill:Wind:
Aussen-T/F 651 19-12-2008 10:14:52 5 C 6.25 g/m*3 5 C 0 km/h
652 19-12-2008 10:26:52 5 C 6.18 g/m*3 5 C 0 km/h
653 19-12-2008 10:38:52 5.2 C 6.27 g/m*3 5.2 C 0 km/h
654 19-12-2008 10:50:52 5.4 C 6.28 g/m*3 5.4 C 0 km/h
655 19-12-2008 11:02:52 5.3 C 6.17 g/m*3 5.3 C 0 km/h
656 19-12-2008 11:14:53 5.4 C 6.21 g/m*3 5.4 C 0 km/h
657 19-12-2008 11:26:53 5.6 C 6.29 g/m*3 5.6 C 0 km/h
658 19-12-2008 11:38:52 5.8 C 6.02 g/m*3 5.8 C 0 km/h
659 19-12-2008 11:50:52 5.9 C 5.91 g/m*3 5.9 C 0 km/h
660 19-12-2008 12:02:52 6.1 C 5.7 g/m*3 6.1 C 0 km/h
661 19-12-2008 12:14:52 6.5 C 5.77 g/m*3 6.5 C 0 km/h
662 19-12-2008 12:26:52 6.7 C 5.24 g/m*3 6.7 C 0 km/h
663 19-12-2008 12:38:51 6.8 C 5.05 g/m*3 6.8 C 0 km/h
664 19-12-2008 12:50:51 6.8 C 5.2 g/m*3 6.8 C 0 km/h
665 19-12-2008 13:02:51 6.5 C 5.1 g/m*3 6.5 C 0 km/h
666 19-12-2008 13:14:51 6.6 C 5.21 g/m*3 6.6 C 0 km/h
667 19-12-2008 13:26:51 6.9 C 5.16 g/m*3 6.9 C 0 km/h
668 19-12-2008 13:38:51 7 C 5.11 g/m*3 7 C 0 km/h
669 19-12-2008 13:50:51 6.5 C 5.02 g/m*3 6.5 C 0 km/h
670 19-12-2008 14:02:51 6.1 C 4.89 g/m*3 6.1 C 0 km/h
671 19-12-2008 14:14:50 5.8 C 4.87 g/m*3 5.8 C 0 km/h
672 19-12-2008 14:26:50 6.3 C 4.96 g/m*3 6.3 C 0 km/h
673 19-12-2008 14:38:51 6.1 C 4.82 g/m*3 6.1 C 0 km/h
674 19-12-2008 14:50:50 6.2 C 4.78 g/m*3 6.2 C 0 km/h
675 19-12-2008 15:02:50 6.6 C 4.76 g/m*3 6.6 C 0 km/h
Sensor: Nr:Datum:Temp:Abs-Feuchte:Windchill:Wind:
Aussen-T/F 676 19-12-2008 15:14:50 6.6 C 4.6 g/m*3 6.6 C 0 km/h
677 19-12-2008 15:26:50 6.5 C 4.72 g/m*3 6.5 C 0 km/h
678 19-12-2008 15:38:50 6.4 C 4.77 g/m*3 6.4 C 0 km/h
679 19-12-2008 15:50:49 6.5 C 4.8 g/m*3 6.5 C 0 km/h
680 19-12-2008 16:02:49 6.4 C 4.62 g/m*3 6.4 C 0 km/h
681 19-12-2008 16:14:50 6.2 C 4.41 g/m*3 6.2 C 0 km/h
682 19-12-2008 16:26:50 6 C 4.43 g/m*3 6 C 0 km/h
683 19-12-2008 16:38:49 6 C 4.35 g/m*3 6 C 0 km/h
684 19-12-2008 16:50:49 5.8 C 4.37 g/m*3 5.8 C 0 km/h
685 19-12-2008 17:02:49 5.6 C 4.45 g/m*3 5.6 C 0 km/h
686 19-12-2008 17:14:49 5.5 C 4.49 g/m*3 5.5 C 0 km/h
687 19-12-2008 17:26:49 5.2 C 4.54 g/m*3 5.2 C 0 km/h
688 19-12-2008 17:38:48 5.1 C 4.45 g/m*3 5.1 C 0 km/h
689 19-12-2008 17:50:49 4.9 C 4.52 g/m*3 4.9 C 0 km/h
690 19-12-2008 18:02:48 4.5 C 4.47 g/m*3 4.5 C 0 km/h
691 19-12-2008 18:14:48 4.1 C 4.42 g/m*3 4.1 C 0 km/h
692 19-12-2008 18:26:48 3.8 C 4.52 g/m*3 3.8 C 0 km/h
693 19-12-2008 18:38:49 3.5 C 4.49 g/m*3 3.5 C 0 km/h
694 19-12-2008 18:50:48 3.4 C 4.52 g/m*3 3.4 C 0 km/h
695 19-12-2008 19:02:48 3.4 C 4.58 g/m*3 3.4 C 0 km/h
696 19-12-2008 19:14:48 3.1 C 4.49 g/m*3 3.1 C 0 km/h
697 19-12-2008 19:26:48 3.1 C 4.55 g/m*3 3.1 C 0 km/h
698 19-12-2008 19:38:48 2.8 C 4.52 g/m*3 2.8 C 0 km/h
699 19-12-2008 19:50:47 2.7 C 4.54 g/m*3 2.7 C 0 km/h
700 19-12-2008 20:02:48 2.7 C 4.6 g/m*3 2.7 C 0 km/h
Sensor: Nr:Datum:Temp:Abs-Feuchte:Windchill:Wind:
Aussen-T/F 701 19-12-2008 20:14:47 2.6 C 4.57 g/m*3 2.6 C 0 km/h
702 19-12-2008 20:26:47 2.4 C 4.51 g/m*3 2.4 C 0 km/h
703 19-12-2008 20:38:47 2.4 C 4.51 g/m*3 2.4 C 0 km/h
704 19-12-2008 20:50:47 2.3 C 4.48 g/m*3 2.3 C 0 km/h
705 19-12-2008 21:02:47 2.1 C 4.48 g/m*3 2.1 C 0 km/h
706 19-12-2008 21:14:47 2.2 C 4.56 g/m*3 2.2 C 0 km/h
707 19-12-2008 21:26:47 2.3 C 4.59 g/m*3 2.3 C 0 km/h
708 19-12-2008 21:38:47 2.5 C 4.66 g/m*3 2.5 C 0 km/h
709 19-12-2008 21:50:46 2.8 C 4.75 g/m*3 2.8 C 0 km/h
710 19-12-2008 22:02:47 2.8 C 4.69 g/m*3 2.8 C 0 km/h
711 19-12-2008 22:14:46 3.2 C 4.76 g/m*3 3.2 C 0 km/h
712 19-12-2008 22:26:46 3.1 C 4.67 g/m*3 3.1 C 0 km/h
713 19-12-2008 22:38:46 3 C 4.7 g/m*3 3 C 0 km/h
714 19-12-2008 22:51:46 3.1 C 4.73 g/m*3 3.1 C 0 km/h
715 19-12-2008 23:03:46 3.2 C 4.76 g/m*3 3.2 C 0 km/h
716 19-12-2008 23:15:46 3.2 C 4.76 g/m*3 3.2 C 0 km/h
717 19-12-2008 23:27:46 3.3 C 4.79 g/m*3 3.3 C 0 km/h
718 19-12-2008 23:39:46 3.7 C 4.86 g/m*3 3.7 C 0 km/h
719 19-12-2008 23:51:46 3.7 C 4.8 g/m*3 3.7 C 0 km/h
720 20-12-2008 00:03:46 3.7 C 4.8 g/m*3 3.7 C 0 km/h
721 20-12-2008 00:15:46 3.8 C 4.77 g/m*3 3.8 C 0 km/h
722 20-12-2008 00:27:46 3.7 C 4.86 g/m*3 3.7 C 0 km/h
723 20-12-2008 00:39:46 3.4 C 4.95 g/m*3 3.4 C 0 km/h
724 20-12-2008 00:51:47 3.2 C 5.12 g/m*3 3.2 C 0 km/h
725 20-12-2008 01:03:47 3.1 C 5.21 g/m*3 3.1 C 0 km/h
Sensor: Nr:Datum:Temp:Abs-Feuchte:Windchill:Wind:
Aussen-T/F 726 20-12-2008 01:15:47 3.1 C 5.27 g/m*3 3.1 C 0 km/h
727 20-12-2008 01:27:47 3 C 5.29 g/m*3 3 C 0 km/h
728 20-12-2008 01:39:47 3 C 5.29 g/m*3 3 C 0 km/h
729 20-12-2008 01:51:47 3 C 5.35 g/m*3 3 C 0 km/h
730 20-12-2008 02:03:47 3.1 C 5.45 g/m*3 3.1 C 0 km/h
731 20-12-2008 02:15:47 3.4 C 5.62 g/m*3 3.4 C 0 km/h
732 20-12-2008 02:27:47 3.7 C 5.73 g/m*3 3.7 C 0 km/h
733 20-12-2008 02:39:47 3.8 C 5.71 g/m*3 3.8 C 0 km/h
734 20-12-2008 02:51:47 3.8 C 5.65 g/m*3 3.8 C 0 km/h
735 20-12-2008 03:03:47 3.9 C 5.68 g/m*3 3.9 C 0 km/h
736 20-12-2008 03:15:47 3.9 C 5.68 g/m*3 3.9 C 0 km/h
737 20-12-2008 03:27:47 4.1 C 5.7 g/m*3 4.1 C 0 km/h
738 20-12-2008 03:39:47 4.2 C 5.73 g/m*3 4.2 C 0 km/h
739 20-12-2008 03:51:47 4.3 C 5.77 g/m*3 4.3 C 0 km/h
740 20-12-2008 04:03:47 4.3 C 5.77 g/m*3 4.3 C 0 km/h
741 20-12-2008 04:15:47 4.4 C 5.81 g/m*3 4.4 C 0 km/h
742 20-12-2008 04:27:47 4.4 C 5.81 g/m*3 4.4 C 0 km/h
743 20-12-2008 04:39:48 4.4 C 5.88 g/m*3 4.4 C 0 km/h
744 20-12-2008 04:51:48 4.4 C 5.88 g/m*3 4.4 C 0 km/h
745 20-12-2008 05:03:48 4.5 C 5.98 g/m*3 4.5 C 0 km/h
746 20-12-2008 05:15:48 4.5 C 5.98 g/m*3 4.5 C 0 km/h
747 20-12-2008 05:27:48 4.5 C 5.98 g/m*3 4.5 C 0 km/h
748 20-12-2008 05:39:48 4.6 C 6.02 g/m*3 4.6 C 0 km/h
749 20-12-2008 05:51:48 4.7 C 6.06 g/m*3 4.7 C 0 km/h
750 20-12-2008 06:03:48 4.8 C 6.1 g/m*3 4.8 C 0 km/h
Sensor: Nr:Datum:Temp:Abs-Feuchte:Windchill:Wind:
Aussen-T/F 751 20-12-2008 06:15:48 4.9 C 6.14 g/m*3 4.9 C 0 km/h
752 20-12-2008 06:27:48 5 C 6.12 g/m*3 5 C 0 km/h
753 20-12-2008 06:39:48 5.2 C 6.13 g/m*3 5.2 C 0 km/h
754 20-12-2008 06:51:48 5.3 C 6.1 g/m*3 5.3 C 0 km/h
755 20-12-2008 07:03:48 5.3 C 6.1 g/m*3 5.3 C 0 km/h
756 20-12-2008 07:15:48 5.4 C 6.14 g/m*3 5.4 C 0 km/h
757 20-12-2008 07:27:48 5.4 C 6.07 g/m*3 5.4 C 0 km/h
758 20-12-2008 07:39:48 5.6 C 6.15 g/m*3 5.6 C 0 km/h
759 20-12-2008 07:51:48 5.6 C 6.15 g/m*3 5.6 C 0 km/h
760 20-12-2008 08:03:48 5.9 C 6.2 g/m*3 5.9 C 0 km/h
761 20-12-2008 08:15:48 6 C 6.1 g/m*3 6 C 0 km/h
762 20-12-2008 08:27:49 6 C 6.1 g/m*3 6 C 0 km/h
763 20-12-2008 08:39:49 6 C 6.1 g/m*3 6 C 0 km/h
764 20-12-2008 08:51:49 6 C 6.17 g/m*3 6 C 0 km/h
765 20-12-2008 09:03:47 6 C 6.17 g/m*3 6 C 0 km/h
766 20-12-2008 09:15:46 5.9 C 6.27 g/m*3 5.9 C 0 km/h
767 20-12-2008 09:27:46 6 C 6.24 g/m*3 6 C 0 km/h
768 20-12-2008 09:39:46 6 C 6.31 g/m*3 6 C 0 km/h
769 20-12-2008 09:51:46 6.2 C 6.4 g/m*3 6.2 C 0 km/h
770 20-12-2008 10:03:46 6.3 C 6.44 g/m*3 6.3 C 0 km/h
771 20-12-2008 10:15:45 6.5 C 6.52 g/m*3 6.5 C 0 km/h
772 20-12-2008 10:27:45 6.7 C 6.53 g/m*3 6.7 C 0 km/h
773 20-12-2008 10:39:46 6.8 C 6.5 g/m*3 6.8 C 0 km/h
774 20-12-2008 10:51:45 6.9 C 6.54 g/m*3 6.9 C 0 km/h
775 20-12-2008 11:03:45 7 C 6.43 g/m*3 7 C 0 km/h
Sensor: Nr:Datum:Temp:Abs-Feuchte:Windchill:Wind:
Aussen-T/F 776 20-12-2008 11:15:46 7 C 6.51 g/m*3 7 C 0 km/h
777 20-12-2008 11:27:46 7.2 C 6.59 g/m*3 7.2 C 0 km/h
778 20-12-2008 11:39:45 7.4 C 6.68 g/m*3 7.4 C 0 km/h
779 20-12-2008 11:51:45 7.5 C 6.72 g/m*3 7.5 C 0 km/h
780 20-12-2008 12:03:45 7.7 C 6.81 g/m*3 7.7 C 0 km/h
781 20-12-2008 12:15:45 7.8 C 6.69 g/m*3 7.8 C 0 km/h
782 20-12-2008 12:27:45 8.1 C 6.66 g/m*3 8.1 C 0 km/h
783 20-12-2008 12:39:44 8.5 C 6.66 g/m*3 8.5 C 0 km/h
784 20-12-2008 12:51:45 8.7 C 6.66 g/m*3 8.7 C 0 km/h
785 20-12-2008 13:03:44 8.8 C 6.7 g/m*3 8.8 C 0 km/h
786 20-12-2008 13:15:44 8.9 C 6.75 g/m*3 8.9 C 0 km/h
787 20-12-2008 13:27:44 9.1 C 6.65 g/m*3 9.1 C 0 km/h
788 20-12-2008 13:39:44 9 C 6.7 g/m*3 9 C 0 km/h
789 20-12-2008 13:51:44 9 C 6.7 g/m*3 9 C 0 km/h
790 20-12-2008 14:03:44 8.9 C 6.83 g/m*3 8.9 C 0 km/h
791 20-12-2008 14:15:43 8.8 C 6.88 g/m*3 8.8 C 0 km/h
792 20-12-2008 14:27:43 8.7 C 7.01 g/m*3 8.7 C 0 km/h
793 20-12-2008 14:39:44 8.4 C 7.13 g/m*3 8.4 C 0 km/h
794 20-12-2008 14:51:43 8.3 C 7.25 g/m*3 8.3 C 0 km/h
795 20-12-2008 15:03:43 8.4 C 7.3 g/m*3 8.4 C 0 km/h
796 20-12-2008 15:15:43 8.5 C 7.17 g/m*3 8.5 C 0 km/h
797 20-12-2008 15:27:43 8.7 C 7.18 g/m*3 8.7 C 0 km/h
798 20-12-2008 15:39:43 9 C 7.14 g/m*3 9 C 0 km/h
799 20-12-2008 15:51:42 8.9 C 7.1 g/m*3 8.9 C 0 km/h
800 20-12-2008 16:03:43 8.9 C 7.1 g/m*3 8.9 C 0 km/h
Sensor: Nr:Datum:Temp:Abs-Feuchte:Windchill:Wind:
Aussen-T/F 801 20-12-2008 16:15:43 8.8 C 6.96 g/m*3 8.8 C 0 km/h
802 20-12-2008 16:27:43 8.8 C 6.96 g/m*3 8.8 C 0 km/h
803 20-12-2008 16:39:42 8.8 C 6.96 g/m*3 8.8 C 0 km/h
804 20-12-2008 16:51:42 8.8 C 6.96 g/m*3 8.8 C 0 km/h
805 20-12-2008 17:03:43 8.8 C 6.96 g/m*3 8.8 C 0 km/h
806 20-12-2008 17:15:42 8.8 C 7.05 g/m*3 8.8 C 0 km/h
807 20-12-2008 17:27:42 8.9 C 7.1 g/m*3 8.9 C 0 km/h
808 20-12-2008 17:39:42 8.9 C 7.1 g/m*3 8.9 C 0 km/h
809 20-12-2008 17:51:42 8.8 C 7.14 g/m*3 8.8 C 0 km/h
810 20-12-2008 18:03:41 8.7 C 7.18 g/m*3 8.7 C 0 km/h
811 20-12-2008 18:15:42 8.5 C 7.34 g/m*3 8.5 C 0 km/h
812 20-12-2008 18:27:42 8.5 C 7.43 g/m*3 8.5 C 0 km/h
813 20-12-2008 18:39:41 8.4 C 7.47 g/m*3 8.4 C 0 km/h
814 20-12-2008 18:51:41 8.4 C 7.55 g/m*3 8.4 C 0 km/h
815 20-12-2008 19:03:42 8.3 C 7.59 g/m*3 8.3 C 0 km/h
816 20-12-2008 19:15:41 8.5 C 7.85 g/m*3 8.5 C 0 km/h
817 20-12-2008 19:27:41 8.4 C 7.8 g/m*3 8.4 C 0 km/h
818 20-12-2008 19:39:41 8.4 C 7.8 g/m*3 8.4 C 0 km/h
819 20-12-2008 19:51:41 8.3 C 7.75 g/m*3 8.3 C 0 km/h
820 20-12-2008 20:03:41 8 C 7.61 g/m*3 8 C 0 km/h
821 20-12-2008 20:15:40 7.8 C 7.59 g/m*3 7.8 C 0 km/h
822 20-12-2008 20:27:40 7.8 C 7.59 g/m*3 7.8 C 0 km/h
823 20-12-2008 20:39:40 7.5 C 7.44 g/m*3 7.5 C 0 km/h
824 20-12-2008 20:51:40 7.2 C 7.3 g/m*3 7.2 C 0 km/h
825 20-12-2008 21:03:40 7 C 7.21 g/m*3 7 C 0 km/h
Sensor: Nr:Datum:Temp:Abs-Feuchte:Windchill:Wind:
Aussen-T/F 826 20-12-2008 21:15:40 7 C 7.21 g/m*3 7 C 0 km/h
827 20-12-2008 21:27:40 6.7 C 7.07 g/m*3 6.7 C 0 km/h
828 20-12-2008 21:39:40 6.5 C 6.97 g/m*3 6.5 C 0 km/h
829 20-12-2008 21:51:40 6.4 C 6.93 g/m*3 6.4 C 0 km/h
830 20-12-2008 22:03:40 6.2 C 6.84 g/m*3 6.2 C 0 km/h
831 20-12-2008 22:15:39 6 C 6.75 g/m*3 6 C 0 km/h
832 20-12-2008 22:27:39 6 C 6.75 g/m*3 6 C 0 km/h
833 20-12-2008 22:39:39 6.1 C 6.79 g/m*3 6.1 C 0 km/h
834 20-12-2008 22:51:39 6.1 C 6.79 g/m*3 6.1 C 0 km/h
835 20-12-2008 23:03:39 6.1 C 6.79 g/m*3 6.1 C 0 km/h
836 20-12-2008 23:15:38 6 C 6.75 g/m*3 6 C 0 km/h
837 20-12-2008 23:27:38 6 C 6.82 g/m*3 6 C 0 km/h
838 20-12-2008 23:39:39 5.9 C 6.78 g/m*3 5.9 C 0 km/h
839 20-12-2008 23:51:38 5.9 C 6.78 g/m*3 5.9 C 0 km/h
840 21-12-2008 00:03:38 5.9 C 6.78 g/m*3 5.9 C 0 km/h
841 21-12-2008 00:15:38 5.9 C 6.71 g/m*3 5.9 C 0 km/h
842 21-12-2008 00:27:38 5.9 C 6.71 g/m*3 5.9 C 0 km/h
843 21-12-2008 00:39:38 5.9 C 6.71 g/m*3 5.9 C 0 km/h
844 21-12-2008 00:51:38 5.9 C 6.71 g/m*3 5.9 C 0 km/h
845 21-12-2008 01:03:38 5.9 C 6.71 g/m*3 5.9 C 0 km/h
846 21-12-2008 01:15:37 5.9 C 6.71 g/m*3 5.9 C 0 km/h
847 21-12-2008 01:27:37 5.9 C 6.63 g/m*3 5.9 C 0 km/h
848 21-12-2008 01:39:38 5.9 C 6.63 g/m*3 5.9 C 0 km/h
849 21-12-2008 01:51:37 5.9 C 6.63 g/m*3 5.9 C 0 km/h
850 21-12-2008 02:03:37 5.9 C 6.63 g/m*3 5.9 C 0 km/h
Sensor: Nr:Datum:Temp:Abs-Feuchte:Windchill:Wind:
Aussen-T/F 851 21-12-2008 02:15:37 6 C 6.6 g/m*3 6 C 0 km/h
852 21-12-2008 02:27:37 6.1 C 6.65 g/m*3 6.1 C 0 km/h
853 21-12-2008 02:39:37 6.1 C 6.65 g/m*3 6.1 C 0 km/h
854 21-12-2008 02:52:01 6.1 C 6.65 g/m*3 6.1 C 0 km/h
855 21-12-2008 03:04:01 6.1 C 6.65 g/m*3 6.1 C 0 km/h
856 21-12-2008 03:16:01 6.2 C 6.69 g/m*3 6.2 C 0 km/h
857 21-12-2008 03:28:01 6.2 C 6.69 g/m*3 6.2 C 0 km/h
858 21-12-2008 03:40:01 6.2 C 6.69 g/m*3 6.2 C 0 km/h
859 21-12-2008 03:52:02 6.1 C 6.65 g/m*3 6.1 C 0 km/h
860 21-12-2008 04:04:01 6.1 C 6.65 g/m*3 6.1 C 0 km/h
861 21-12-2008 04:16:01 6.1 C 6.65 g/m*3 6.1 C 0 km/h
862 21-12-2008 04:28:01 6.1 C 6.65 g/m*3 6.1 C 0 km/h
863 21-12-2008 04:40:02 6.1 C 6.65 g/m*3 6.1 C 0 km/h
864 21-12-2008 04:52:01 6.1 C 6.65 g/m*3 6.1 C 0 km/h
865 21-12-2008 05:04:01 6.1 C 6.65 g/m*3 6.1 C 0 km/h
866 21-12-2008 05:16:02 6.1 C 6.72 g/m*3 6.1 C 0 km/h
867 21-12-2008 05:28:02 6.1 C 6.72 g/m*3 6.1 C 0 km/h
868 21-12-2008 05:40:01 6.1 C 6.72 g/m*3 6.1 C 0 km/h
869 21-12-2008 05:52:01 6.1 C 6.72 g/m*3 6.1 C 0 km/h
870 21-12-2008 06:04:01 6.2 C 6.77 g/m*3 6.2 C 0 km/h
871 21-12-2008 06:16:01 6.2 C 6.77 g/m*3 6.2 C 0 km/h
872 21-12-2008 06:28:01 6.2 C 6.77 g/m*3 6.2 C 0 km/h
873 21-12-2008 06:40:01 6.2 C 6.84 g/m*3 6.2 C 0 km/h
874 21-12-2008 06:52:01 6.4 C 6.93 g/m*3 6.4 C 0 km/h
875 21-12-2008 07:04:01 6.9 C 7.24 g/m*3 6.9 C 0 km/h
Sensor: Nr:Datum:Temp:Abs-Feuchte:Windchill:Wind:
Aussen-T/F 876 21-12-2008 07:16:02 7.3 C 7.51 g/m*3 7.3 C 0 km/h
877 21-12-2008 07:28:02 7.5 C 7.6 g/m*3 7.5 C 0 km/h
878 21-12-2008 07:40:01 7.1 C 7.41 g/m*3 7.1 C 0 km/h
879 21-12-2008 07:52:02 6.7 C 7.22 g/m*3 6.7 C 0 km/h
880 21-12-2008 08:04:01 6.6 C 7.17 g/m*3 6.6 C 0 km/h
881 21-12-2008 08:16:02 6.6 C 7.17 g/m*3 6.6 C 0 km/h
882 21-12-2008 08:28:02 7.1 C 7.41 g/m*3 7.1 C 0 km/h
883 21-12-2008 08:40:01 7.7 C 7.7 g/m*3 7.7 C 0 km/h
884 21-12-2008 08:52:02 7.8 C 7.75 g/m*3 7.8 C 0 km/h
885 21-12-2008 09:04:01 7.9 C 7.8 g/m*3 7.9 C 0 km/h
886 21-12-2008 09:16:01 7.8 C 7.75 g/m*3 7.8 C 0 km/h
887 21-12-2008 09:28:01 7.7 C 7.7 g/m*3 7.7 C 0 km/h
888 21-12-2008 09:40:02 7.4 C 7.55 g/m*3 7.4 C 0 km/h
889 21-12-2008 09:52:01 7.1 C 7.41 g/m*3 7.1 C 0 km/h
890 21-12-2008 10:04:02 7.2 C 7.46 g/m*3 7.2 C 0 km/h
891 21-12-2008 10:16:01 7.3 C 7.51 g/m*3 7.3 C 0 km/h
892 21-12-2008 10:28:01 7.4 C 7.55 g/m*3 7.4 C 0 km/h
893 21-12-2008 10:40:02 7.5 C 7.6 g/m*3 7.5 C 0 km/h
894 21-12-2008 10:52:01 7.5 C 7.6 g/m*3 7.5 C 0 km/h
895 21-12-2008 11:04:02 7.6 C 7.65 g/m*3 7.6 C 0 km/h
896 21-12-2008 11:16:01 7.9 C 7.8 g/m*3 7.9 C 0 km/h
897 21-12-2008 11:28:01 7.9 C 7.8 g/m*3 7.9 C 0 km/h
898 21-12-2008 11:40:01 8.1 C 7.9 g/m*3 8.1 C 0 km/h
899 21-12-2008 11:52:01 8.7 C 8.22 g/m*3 8.7 C 0 km/h
900 21-12-2008 12:04:01 9.1 C 8.43 g/m*3 9.1 C 0 km/h
Sensor: Nr:Datum:Temp:Abs-Feuchte:Windchill:Wind:
Aussen-T/F 901 21-12-2008 12:16:01 9.4 C 8.41 g/m*3 9.4 C 0 km/h
902 21-12-2008 12:28:01 9.7 C 8.11 g/m*3 9.7 C 0 km/h
903 21-12-2008 12:40:01 9.8 C 7.61 g/m*3 9.8 C 0 km/h
904 21-12-2008 12:52:01 9.8 C 7.42 g/m*3 9.8 C 0 km/h
905 21-12-2008 13:04:01 10 C 7.14 g/m*3 10 C 0 km/h
906 21-12-2008 13:16:02 10.2 C 7.23 g/m*3 10.2 C 0 km/h
907 21-12-2008 13:28:02 10.7 C 7.07 g/m*3 10.7 C 0 km/h
908 21-12-2008 13:40:01 10.7 C 6.97 g/m*3 10.7 C 0 km/h
909 21-12-2008 13:52:02 10.7 C 6.68 g/m*3 10.7 C 0 km/h
910 21-12-2008 14:04:01 10.5 C 6.6 g/m*3 10.5 C 0 km/h
911 21-12-2008 14:16:01 10.4 C 6.65 g/m*3 10.4 C 0 km/h
912 21-12-2008 14:28:02 10.2 C 6.66 g/m*3 10.2 C 0 km/h
913 21-12-2008 14:40:01 10.1 C 6.71 g/m*3 10.1 C 0 km/h
914 21-12-2008 14:52:01 10.1 C 6.52 g/m*3 10.1 C 0 km/h
915 21-12-2008 15:04:01 10 C 6.48 g/m*3 10 C 0 km/h
916 21-12-2008 15:16:01 9.9 C 6.54 g/m*3 9.9 C 0 km/h
917 21-12-2008 15:28:01 9.8 C 6.59 g/m*3 9.8 C 0 km/h
918 21-12-2008 15:40:02 9.7 C 6.64 g/m*3 9.7 C 0 km/h
919 21-12-2008 15:52:01 9.6 C 6.6 g/m*3 9.6 C 0 km/h
920 21-12-2008 16:04:02 9.6 C 6.5 g/m*3 9.6 C 0 km/h
921 21-12-2008 16:16:01 9.5 C 6.28 g/m*3 9.5 C 0 km/h
922 21-12-2008 16:28:01 9.5 C 6.28 g/m*3 9.5 C 0 km/h
923 21-12-2008 16:40:02 9.4 C 6.24 g/m*3 9.4 C 0 km/h
924 21-12-2008 16:52:01 9.2 C 6.25 g/m*3 9.2 C 0 km/h
925 21-12-2008 17:04:02 9.2 C 6.16 g/m*3 9.2 C 0 km/h
Sensor: Nr:Datum:Temp:Abs-Feuchte:Windchill:Wind:
Aussen-T/F 926 21-12-2008 17:16:01 9.1 C 6.12 g/m*3 9.1 C 0 km/h
927 21-12-2008 17:28:01 9.1 C 6.12 g/m*3 9.1 C 0 km/h
928 21-12-2008 17:40:01 9 C 6.08 g/m*3 9 C 0 km/h
929 21-12-2008 17:52:01 9 C 6.08 g/m*3 9 C 0 km/h
930 21-12-2008 18:04:01 9 C 6.08 g/m*3 9 C 0 km/h
931 21-12-2008 18:16:02 9.1 C 6.03 g/m*3 9.1 C 0 km/h
932 21-12-2008 18:28:02 9.1 C 6.03 g/m*3 9.1 C 0 km/h
933 21-12-2008 18:40:01 9 C 5.99 g/m*3 9 C 0 km/h
934 21-12-2008 18:52:02 8.9 C 6.04 g/m*3 8.9 C 0 km/h
935 21-12-2008 19:04:01 8.9 C 6.04 g/m*3 8.9 C 0 km/h
936 21-12-2008 19:16:02 8.8 C 6.09 g/m*3 8.8 C 0 km/h
937 21-12-2008 19:28:02 8.7 C 6.14 g/m*3 8.7 C 0 km/h
938 21-12-2008 19:40:01 8.7 C 6.31 g/m*3 8.7 C 0 km/h
939 21-12-2008 19:52:02 8.7 C 6.31 g/m*3 8.7 C 0 km/h
940 21-12-2008 20:04:01 8.7 C 6.31 g/m*3 8.7 C 0 km/h
941 21-12-2008 20:16:01 8.7 C 6.23 g/m*3 8.7 C 0 km/h
942 21-12-2008 20:28:01 8.7 C 6.23 g/m*3 8.7 C 0 km/h
943 21-12-2008 20:40:02 8.8 C 6.18 g/m*3 8.8 C 0 km/h
944 21-12-2008 20:52:01 8.9 C 6.13 g/m*3 8.9 C 0 km/h
945 21-12-2008 21:04:01 8.9 C 6.13 g/m*3 8.9 C 0 km/h
946 21-12-2008 21:16:01 8.9 C 6.04 g/m*3 8.9 C 0 km/h
947 21-12-2008 21:28:01 8.9 C 6.13 g/m*3 8.9 C 0 km/h
948 21-12-2008 21:40:02 8.8 C 6.18 g/m*3 8.8 C 0 km/h
949 21-12-2008 21:52:01 8.7 C 6.14 g/m*3 8.7 C 0 km/h
950 21-12-2008 22:04:02 8.7 C 6.23 g/m*3 8.7 C 0 km/h
Sensor: Nr:Datum:Temp:Abs-Feuchte:Windchill:Wind:
Aussen-T/F 951 21-12-2008 22:16:01 8.6 C 6.19 g/m*3 8.6 C 0 km/h
952 21-12-2008 22:28:01 8.6 C 6.19 g/m*3 8.6 C 0 km/h
953 21-12-2008 22:40:02 8.6 C 6.19 g/m*3 8.6 C 0 km/h
954 21-12-2008 22:52:01 8.5 C 6.23 g/m*3 8.5 C 0 km/h
955 21-12-2008 23:04:01 8.5 C 6.23 g/m*3 8.5 C 0 km/h
956 21-12-2008 23:16:01 8.5 C 6.23 g/m*3 8.5 C 0 km/h
957 21-12-2008 23:28:01 8.5 C 6.23 g/m*3 8.5 C 0 km/h
958 21-12-2008 23:40:01 8.5 C 6.32 g/m*3 8.5 C 0 km/h
959 21-12-2008 23:52:01 8.5 C 6.32 g/m*3 8.5 C 0 km/h
960 22-12-2008 00:04:01 8.6 C 6.36 g/m*3 8.6 C 0 km/h
961 22-12-2008 00:16:02 8.6 C 6.36 g/m*3 8.6 C 0 km/h
962 22-12-2008 00:28:02 8.6 C 6.36 g/m*3 8.6 C 0 km/h
963 22-12-2008 00:40:01 8.6 C 6.44 g/m*3 8.6 C 0 km/h
964 22-12-2008 00:52:02 8.6 C 6.44 g/m*3 8.6 C 0 km/h
965 22-12-2008 01:04:01 8.8 C 6.44 g/m*3 8.8 C 0 km/h
966 22-12-2008 01:16:02 8.8 C 6.44 g/m*3 8.8 C 0 km/h
967 22-12-2008 01:28:02 8.8 C 6.44 g/m*3 8.8 C 0 km/h
968 22-12-2008 01:40:01 8.9 C 6.39 g/m*3 8.9 C 0 km/h
969 22-12-2008 01:52:02 8.9 C 6.39 g/m*3 8.9 C 0 km/h
970 22-12-2008 02:04:01 8.9 C 6.48 g/m*3 8.9 C 0 km/h
971 22-12-2008 02:16:01 8.7 C 6.49 g/m*3 8.7 C 0 km/h
972 22-12-2008 02:28:01 8.7 C 6.57 g/m*3 8.7 C 0 km/h
973 22-12-2008 02:40:01 8.8 C 6.61 g/m*3 8.8 C 0 km/h
974 22-12-2008 02:52:27 8.9 C 6.57 g/m*3 8.9 C 0 km/h
975 22-12-2008 03:04:27 8.9 C 6.57 g/m*3 8.9 C 0 km/h
Sensor: Nr:Datum:Temp:Abs-Feuchte:Windchill:Wind:
Aussen-T/F 976 22-12-2008 03:16:27 8.9 C 6.57 g/m*3 8.9 C 0 km/h
977 22-12-2008 03:28:27 8.7 C 6.57 g/m*3 8.7 C 0 km/h
978 22-12-2008 03:40:27 8.6 C 6.7 g/m*3 8.6 C 0 km/h
979 22-12-2008 03:52:27 8.2 C 6.95 g/m*3 8.2 C 0 km/h
980 22-12-2008 04:04:26 8.1 C 7.16 g/m*3 8.1 C 0 km/h
981 22-12-2008 04:16:27 8.1 C 7.24 g/m*3 8.1 C 0 km/h
982 22-12-2008 04:28:27 8.1 C 7.32 g/m*3 8.1 C 0 km/h
983 22-12-2008 04:40:26 8.1 C 7.32 g/m*3 8.1 C 0 km/h
984 22-12-2008 04:52:26 8.3 C 7.25 g/m*3 8.3 C 0 km/h
985 22-12-2008 05:04:26 8.3 C 7.16 g/m*3 8.3 C 0 km/h
986 22-12-2008 05:16:26 8.3 C 7.16 g/m*3 8.3 C 0 km/h
987 22-12-2008 05:28:26 8.2 C 7.2 g/m*3 8.2 C 0 km/h
988 22-12-2008 05:40:26 8.1 C 7.16 g/m*3 8.1 C 0 km/h
989 22-12-2008 05:52:25 8.1 C 7.24 g/m*3 8.1 C 0 km/h
990 22-12-2008 06:04:26 8.1 C 7.24 g/m*3 8.1 C 0 km/h
991 22-12-2008 06:16:26 8.1 C 7.24 g/m*3 8.1 C 0 km/h
992 22-12-2008 06:28:26 8.1 C 7.16 g/m*3 8.1 C 0 km/h
993 22-12-2008 06:40:25 8.3 C 7.16 g/m*3 8.3 C 0 km/h
994 22-12-2008 06:52:26 8.6 C 7.05 g/m*3 8.6 C 0 km/h
995 22-12-2008 07:04:25 8.6 C 6.96 g/m*3 8.6 C 0 km/h
996 22-12-2008 07:16:25 8.8 C 6.88 g/m*3 8.8 C 0 km/h
997 22-12-2008 07:28:25 8.9 C 6.83 g/m*3 8.9 C 0 km/h
998 22-12-2008 07:40:24 8.9 C 6.83 g/m*3 8.9 C 0 km/h
999 22-12-2008 07:52:25 8.9 C 6.83 g/m*3 8.9 C 0 km/h
1000 22-12-2008 08:04:24 8.9 C 6.83 g/m*3 8.9 C 0 km/h
Sensor: Nr:Datum:Temp:Abs-Feuchte:Windchill:Wind:
Aussen-T/F 1001 22-12-2008 08:16:24 9 C 6.7 g/m*3 9 C 0 km/h
1002 22-12-2008 08:28:24 9 C 6.61 g/m*3 9 C 0 km/h
1003 22-12-2008 08:40:25 9.1 C 6.65 g/m*3 9.1 C 0 km/h
1004 22-12-2008 08:52:24 9 C 6.61 g/m*3 9 C 0 km/h
1005 22-12-2008 09:04:24 9.1 C 6.65 g/m*3 9.1 C 0 km/h
1006 22-12-2008 09:16:24 9 C 6.61 g/m*3 9 C 0 km/h
1007 22-12-2008 09:28:24 9.1 C 6.65 g/m*3 9.1 C 0 km/h
1008 22-12-2008 09:40:24 9 C 6.7 g/m*3 9 C 0 km/h
1009 22-12-2008 09:52:23 9.1 C 6.74 g/m*3 9.1 C 0 km/h
1010 22-12-2008 10:04:24 9.2 C 6.79 g/m*3 9.2 C 0 km/h
1011 22-12-2008 10:16:23 9.3 C 6.74 g/m*3 9.3 C 0 km/h
1012 22-12-2008 10:28:23 9.2 C 6.79 g/m*3 9.2 C 0 km/h
1013 22-12-2008 10:40:23 9.2 C 6.97 g/m*3 9.2 C 0 km/h
1014 22-12-2008 10:52:23 9.3 C 7.01 g/m*3 9.3 C 0 km/h
1015 22-12-2008 11:04:23 9.3 C 7.1 g/m*3 9.3 C 0 km/h
1016 22-12-2008 11:16:23 9.4 C 7.24 g/m*3 9.4 C 0 km/h
1017 22-12-2008 11:28:23 9.5 C 7.19 g/m*3 9.5 C 0 km/h
1018 22-12-2008 11:40:23 9.6 C 7.24 g/m*3 9.6 C 0 km/h
1019 22-12-2008 11:52:23 9.6 C 7.24 g/m*3 9.6 C 0 km/h
1020 22-12-2008 12:04:22 9.9 C 7.28 g/m*3 9.9 C 0 km/h
1021 22-12-2008 12:16:22 10 C 7.14 g/m*3 10 C 0 km/h
1022 22-12-2008 12:28:22 10 C 7.14 g/m*3 10 C 0 km/h
1023 22-12-2008 12:40:22 9.9 C 7.38 g/m*3 9.9 C 0 km/h
1024 22-12-2008 12:52:22 9.9 C 7.66 g/m*3 9.9 C 0 km/h
1025 22-12-2008 13:04:22 9.9 C 7.56 g/m*3 9.9 C 0 km/h
Sensor: Nr:Datum:Temp:Abs-Feuchte:Windchill:Wind:
Aussen-T/F 1026 22-12-2008 13:16:22 10 C 7.42 g/m*3 10 C 0 km/h
1027 22-12-2008 13:28:22 10 C 7.42 g/m*3 10 C 0 km/h
1028 22-12-2008 13:40:22 9.9 C 7.47 g/m*3 9.9 C 0 km/h
1029 22-12-2008 13:52:21 10 C 7.33 g/m*3 10 C 0 km/h
1030 22-12-2008 14:04:21 10.1 C 7.19 g/m*3 10.1 C 0 km/h
1031 22-12-2008 14:16:21 10.3 C 6.99 g/m*3 10.3 C 0 km/h
1032 22-12-2008 14:28:21 10.3 C 6.9 g/m*3 10.3 C 0 km/h
1033 22-12-2008 14:40:22 9.7 C 7.01 g/m*3 9.7 C 0 km/h
1034 22-12-2008 14:52:21 9.6 C 7.05 g/m*3 9.6 C 0 km/h
1035 22-12-2008 15:04:21 9.6 C 7.05 g/m*3 9.6 C 0 km/h
1036 22-12-2008 15:16:21 9.7 C 6.91 g/m*3 9.7 C 0 km/h
1037 22-12-2008 15:28:21 9.7 C 6.82 g/m*3 9.7 C 0 km/h
1038 22-12-2008 15:40:21 9.7 C 6.45 g/m*3 9.7 C 0 km/h
1039 22-12-2008 15:52:20 9.6 C 6.32 g/m*3 9.6 C 0 km/h
1040 22-12-2008 16:04:21 9.6 C 6.23 g/m*3 9.6 C 0 km/h
1041 22-12-2008 16:16:20 9.5 C 6.19 g/m*3 9.5 C 0 km/h
1042 22-12-2008 16:28:20 9.6 C 6.05 g/m*3 9.6 C 0 km/h
1043 22-12-2008 16:40:20 9.5 C 6.01 g/m*3 9.5 C 0 km/h
1044 22-12-2008 16:52:02 9.5 C 5.92 g/m*3 9.5 C 0 km/h
1045 22-12-2008 17:04:02 9.5 C 6.01 g/m*3 9.5 C 0 km/h
1046 22-12-2008 17:16:02 9.3 C 5.93 g/m*3 9.3 C 0 km/h
1047 22-12-2008 17:28:02 9.1 C 6.03 g/m*3 9.1 C 0 km/h
1048 22-12-2008 17:40:02 8.8 C 6.18 g/m*3 8.8 C 0 km/h
1049 22-12-2008 17:52:02 8.5 C 6.15 g/m*3 8.5 C 0 km/h
1050 22-12-2008 18:04:01 8 C 6.12 g/m*3 8 C 0 km/h
Sensor: Nr:Datum:Temp:Abs-Feuchte:Windchill:Wind:
Aussen-T/F 1051 22-12-2008 18:16:02 7.6 C 6.28 g/m*3 7.6 C 0 km/h
1052 22-12-2008 18:28:02 7.3 C 6.32 g/m*3 7.3 C 0 km/h
1053 22-12-2008 18:40:02 7.1 C 6.32 g/m*3 7.1 C 0 km/h
1054 22-12-2008 18:52:02 6.9 C 6.39 g/m*3 6.9 C 0 km/h
1055 22-12-2008 19:04:02 6.9 C 6.47 g/m*3 6.9 C 0 km/h
1056 22-12-2008 19:16:02 6.7 C 6.38 g/m*3 6.7 C 0 km/h
1057 22-12-2008 19:28:02 6.3 C 6.22 g/m*3 6.3 C 0 km/h
1058 22-12-2008 19:40:01 6.2 C 6.25 g/m*3 6.2 C 0 km/h
1059 22-12-2008 19:52:02 5.9 C 6.2 g/m*3 5.9 C 0 km/h
1060 22-12-2008 20:04:01 5.8 C 6.16 g/m*3 5.8 C 0 km/h
1061 22-12-2008 20:16:01 6.1 C 6.28 g/m*3 6.1 C 0 km/h
1062 22-12-2008 20:28:01 6.1 C 6.28 g/m*3 6.1 C 0 km/h
1063 22-12-2008 20:40:00 6.2 C 6.25 g/m*3 6.2 C 0 km/h
1064 22-12-2008 20:52:01 6.3 C 6.29 g/m*3 6.3 C 0 km/h
1065 22-12-2008 21:04:01 6.3 C 6.22 g/m*3 6.3 C 0 km/h
1066 22-12-2008 21:16:00 6.5 C 6.3 g/m*3 6.5 C 0 km/h
1067 22-12-2008 21:28:00 6.4 C 6.18 g/m*3 6.4 C 0 km/h
1068 22-12-2008 21:40:00 6.4 C 6.18 g/m*3 6.4 C 0 km/h
1069 22-12-2008 21:52:00 6.5 C 6.3 g/m*3 6.5 C 0 km/h
1070 22-12-2008 22:05:02 6.5 C 6.22 g/m*3 6.5 C 0 km/h
1071 22-12-2008 22:17:02 6.5 C 6.3 g/m*3 6.5 C 0 km/h
1072 22-12-2008 22:29:02 7 C 6.51 g/m*3 7 C 0 km/h
1073 22-12-2008 22:41:03 7.2 C 6.52 g/m*3 7.2 C 0 km/h
1074 22-12-2008 22:53:03 7.1 C 6.47 g/m*3 7.1 C 0 km/h
1075 22-12-2008 23:05:03 7.1 C 6.47 g/m*3 7.1 C 0 km/h
Sensor: Nr:Datum:Temp:Abs-Feuchte:Windchill:Wind:
Aussen-T/F 1076 22-12-2008 23:17:03 7 C 6.43 g/m*3 7 C 0 km/h
1077 22-12-2008 23:29:03 6.8 C 6.42 g/m*3 6.8 C 0 km/h
1078 22-12-2008 23:41:03 6.9 C 6.54 g/m*3 6.9 C 0 km/h
1079 22-12-2008 23:53:03 6.9 C 6.54 g/m*3 6.9 C 0 km/h
1080 23-12-2008 00:05:03 6.8 C 6.5 g/m*3 6.8 C 0 km/h
1081 23-12-2008 00:17:03 6.4 C 6.26 g/m*3 6.4 C 0 km/h
1082 23-12-2008 00:29:03 6.8 C 6.5 g/m*3 6.8 C 0 km/h
1083 23-12-2008 00:41:03 7.1 C 6.4 g/m*3 7.1 C 0 km/h
1084 23-12-2008 00:53:03 7.2 C 6.36 g/m*3 7.2 C 0 km/h
1085 23-12-2008 01:05:03 7.2 C 6.28 g/m*3 7.2 C 0 km/h
1086 23-12-2008 01:17:03 7.2 C 6.2 g/m*3 7.2 C 0 km/h
1087 23-12-2008 01:29:03 7.2 C 6.2 g/m*3 7.2 C 0 km/h
1088 23-12-2008 01:41:03 7.1 C 6.16 g/m*3 7.1 C 0 km/h
1089 23-12-2008 01:53:03 6.9 C 6.24 g/m*3 6.9 C 0 km/h
1090 23-12-2008 02:05:03 6.9 C 6.24 g/m*3 6.9 C 0 km/h
1091 23-12-2008 02:17:03 6.7 C 6.23 g/m*3 6.7 C 0 km/h
1092 23-12-2008 02:29:03 6.7 C 6.31 g/m*3 6.7 C 0 km/h
1093 23-12-2008 02:41:04 6.7 C 6.31 g/m*3 6.7 C 0 km/h
1094 23-12-2008 02:53:04 6.4 C 6.18 g/m*3 6.4 C 0 km/h
1095 23-12-2008 03:05:04 6.3 C 6.22 g/m*3 6.3 C 0 km/h
1096 23-12-2008 03:17:04 6.3 C 6.29 g/m*3 6.3 C 0 km/h
1097 23-12-2008 03:29:04 6.2 C 6.25 g/m*3 6.2 C 0 km/h
1098 23-12-2008 03:41:04 6.1 C 6.21 g/m*3 6.1 C 0 km/h
1099 23-12-2008 03:53:04 6.1 C 6.21 g/m*3 6.1 C 0 km/h
1100 23-12-2008 04:05:04 6 C 6.17 g/m*3 6 C 0 km/h
Sensor: Nr:Datum:Temp:Abs-Feuchte:Windchill:Wind:
Aussen-T/F 1101 23-12-2008 04:17:04 5.7 C 6.12 g/m*3 5.7 C 0 km/h
1102 23-12-2008 04:29:04 5.6 C 6.15 g/m*3 5.6 C 0 km/h
1103 23-12-2008 04:41:04 5.6 C 6.15 g/m*3 5.6 C 0 km/h
1104 23-12-2008 04:53:04 5.4 C 6.14 g/m*3 5.4 C 0 km/h
1105 23-12-2008 05:05:04 5.3 C 6.1 g/m*3 5.3 C 0 km/h
1106 23-12-2008 05:17:04 5.2 C 6.06 g/m*3 5.2 C 0 km/h
1107 23-12-2008 05:29:04 5.1 C 6.02 g/m*3 5.1 C 0 km/h
1108 23-12-2008 05:41:04 4.7 C 5.86 g/m*3 4.7 C 0 km/h
1109 23-12-2008 05:53:04 4.4 C 5.81 g/m*3 4.4 C 0 km/h
1110 23-12-2008 06:05:04 4.2 C 5.73 g/m*3 4.2 C 0 km/h
1111 23-12-2008 06:17:04 4.6 C 5.96 g/m*3 4.6 C 0 km/h
1112 23-12-2008 06:29:04 4.9 C 6.14 g/m*3 4.9 C 0 km/h
1113 23-12-2008 06:41:04 4.8 C 6.04 g/m*3 4.8 C 0 km/h
1114 23-12-2008 06:53:05 4.7 C 6 g/m*3 4.7 C 0 km/h
1115 23-12-2008 07:05:05 5 C 6.12 g/m*3 5 C 0 km/h
1116 23-12-2008 07:17:02 5 C 6.12 g/m*3 5 C 0 km/h
1117 23-12-2008 07:29:02 4.9 C 6.08 g/m*3 4.9 C 0 km/h
1118 23-12-2008 07:41:01 5.4 C 6.28 g/m*3 5.4 C 0 km/h
1119 23-12-2008 07:53:01 5.3 C 6.17 g/m*3 5.3 C 0 km/h
1120 23-12-2008 08:05:01 5.3 C 6.1 g/m*3 5.3 C 0 km/h
1121 23-12-2008 08:17:01 5.1 C 5.95 g/m*3 5.1 C 0 km/h
1122 23-12-2008 08:29:01 4.9 C 5.94 g/m*3 4.9 C 0 km/h
1123 23-12-2008 08:41:01 5 C 5.91 g/m*3 5 C 0 km/h
1124 23-12-2008 08:53:01 5 C 5.91 g/m*3 5 C 0 km/h
1125 23-12-2008 09:05:01 5 C 5.91 g/m*3 5 C 0 km/h
Sensor: Nr:Datum:Temp:Abs-Feuchte:Windchill:Wind:
Aussen-T/F 1126 23-12-2008 09:17:00 4.9 C 5.94 g/m*3 4.9 C 0 km/h
1127 23-12-2008 09:29:00 4.9 C 5.94 g/m*3 4.9 C 0 km/h
1128 23-12-2008 09:41:01 4.9 C 5.94 g/m*3 4.9 C 0 km/h
1129 23-12-2008 09:53:00 4.7 C 5.8 g/m*3 4.7 C 0 km/h
1130 23-12-2008 10:05:00 4.9 C 5.94 g/m*3 4.9 C 0 km/h
1131 23-12-2008 10:16:59 4.9 C 5.94 g/m*3 4.9 C 0 km/h
1132 23-12-2008 10:28:59 5 C 5.84 g/m*3 5 C 0 km/h
1133 23-12-2008 10:41:00 5.2 C 5.92 g/m*3 5.2 C 0 km/h
1134 23-12-2008 10:53:59 5.5 C 5.97 g/m*3 5.5 C 0 km/h
1135 23-12-2008 11:05:59 5.6 C 5.94 g/m*3 5.6 C 0 km/h
1136 23-12-2008 11:17:00 5.7 C 5.91 g/m*3 5.7 C 0 km/h
1137 23-12-2008 11:29:00 5.9 C 5.98 g/m*3 5.9 C 0 km/h
1138 23-12-2008 11:41:59 6.1 C 5.92 g/m*3 6.1 C 0 km/h
1139 23-12-2008 11:53:59 6.2 C 5.88 g/m*3 6.2 C 0 km/h
1140 23-12-2008 12:05:59 6.3 C 5.85 g/m*3 6.3 C 0 km/h
1141 23-12-2008 12:17:59 6.5 C 5.85 g/m*3 6.5 C 0 km/h
1142 23-12-2008 12:29:59 6.7 C 5.85 g/m*3 6.7 C 0 km/h
1143 23-12-2008 12:41:59 6.9 C 5.85 g/m*3 6.9 C 0 km/h
1144 23-12-2008 12:53:59 7.1 C 5.85 g/m*3 7.1 C 0 km/h
1145 23-12-2008 13:05:59 7.4 C 5.88 g/m*3 7.4 C 0 km/h
1146 23-12-2008 13:17:58 7.4 C 5.88 g/m*3 7.4 C 0 km/h
1147 23-12-2008 13:29:58 7.4 C 5.81 g/m*3 7.4 C 0 km/h
1148 23-12-2008 13:41:58 7.5 C 5.84 g/m*3 7.5 C 0 km/h
1149 23-12-2008 13:53:58 7.6 C 5.88 g/m*3 7.6 C 0 km/h
1150 23-12-2008 14:05:58 7.7 C 5.84 g/m*3 7.7 C 0 km/h
Sensor: Nr:Datum:Temp:Abs-Feuchte:Windchill:Wind:
Aussen-T/F 1151 23-12-2008 14:17:57 7.6 C 5.72 g/m*3 7.6 C 0 km/h
1152 23-12-2008 14:29:57 7.6 C 5.64 g/m*3 7.6 C 0 km/h
1153 23-12-2008 14:41:58 7.4 C 5.49 g/m*3 7.4 C 0 km/h
1154 23-12-2008 14:53:57 7.3 C 5.45 g/m*3 7.3 C 0 km/h
1155 23-12-2008 15:05:57 7.4 C 5.49 g/m*3 7.4 C 0 km/h
1156 23-12-2008 15:17:58 7.5 C 5.44 g/m*3 7.5 C 0 km/h
1157 23-12-2008 15:29:58 7.5 C 5.44 g/m*3 7.5 C 0 km/h
1158 23-12-2008 15:41:57 7.5 C 5.28 g/m*3 7.5 C 0 km/h
1159 23-12-2008 15:53:57 7.3 C 5.21 g/m*3 7.3 C 0 km/h
1160 23-12-2008 16:05:57 7.1 C 5.3 g/m*3 7.1 C 0 km/h
1161 23-12-2008 16:17:57 7.1 C 5.38 g/m*3 7.1 C 0 km/h
1162 23-12-2008 16:29:57 7 C 5.42 g/m*3 7 C 0 km/h
1163 23-12-2008 16:41:57 6.9 C 5.47 g/m*3 6.9 C 0 km/h
1164 23-12-2008 16:53:56 6.9 C 5.39 g/m*3 6.9 C 0 km/h
1165 23-12-2008 17:05:56 6.8 C 5.43 g/m*3 6.8 C 0 km/h
1166 23-12-2008 17:17:56 6.8 C 5.43 g/m*3 6.8 C 0 km/h
1167 23-12-2008 17:29:56 6.7 C 5.47 g/m*3 6.7 C 0 km/h
1168 23-12-2008 17:41:56 6.6 C 5.44 g/m*3 6.6 C 0 km/h
1169 23-12-2008 17:53:55 6.5 C 5.47 g/m*3 6.5 C 0 km/h
1170 23-12-2008 18:05:56 6.5 C 5.47 g/m*3 6.5 C 0 km/h
1171 23-12-2008 18:17:56 6.6 C 5.51 g/m*3 6.6 C 0 km/h
1172 23-12-2008 18:29:56 6.6 C 5.59 g/m*3 6.6 C 0 km/h
1173 23-12-2008 18:41:55 6.5 C 5.55 g/m*3 6.5 C 0 km/h
1174 23-12-2008 18:53:56 6.6 C 5.59 g/m*3 6.6 C 0 km/h
1175 23-12-2008 19:05:55 6.5 C 5.55 g/m*3 6.5 C 0 km/h
Sensor: Nr:Datum:Temp:Abs-Feuchte:Windchill:Wind:
Aussen-T/F 1176 23-12-2008 19:17:55 6.5 C 5.55 g/m*3 6.5 C 0 km/h
1177 23-12-2008 19:29:55 6.5 C 5.62 g/m*3 6.5 C 0 km/h
1178 23-12-2008 19:41:54 6.5 C 5.62 g/m*3 6.5 C 0 km/h
1179 23-12-2008 19:53:55 6.5 C 5.62 g/m*3 6.5 C 0 km/h
1180 23-12-2008 20:05:55 6.5 C 5.7 g/m*3 6.5 C 0 km/h
1181 23-12-2008 20:17:54 6.5 C 5.7 g/m*3 6.5 C 0 km/h
1182 23-12-2008 20:29:54 6.5 C 5.7 g/m*3 6.5 C 0 km/h
1183 23-12-2008 20:41:55 6.4 C 5.74 g/m*3 6.4 C 0 km/h
1184 23-12-2008 20:53:54 6.5 C 5.77 g/m*3 6.5 C 0 km/h
1185 23-12-2008 21:05:54 6.4 C 5.74 g/m*3 6.4 C 0 km/h
1186 23-12-2008 21:17:54 6.4 C 5.74 g/m*3 6.4 C 0 km/h
1187 23-12-2008 21:29:54 6.3 C 5.77 g/m*3 6.3 C 0 km/h
1188 23-12-2008 21:41:54 6.3 C 5.77 g/m*3 6.3 C 0 km/h
1189 23-12-2008 21:53:53 6.1 C 5.7 g/m*3 6.1 C 0 km/h
1190 23-12-2008 22:05:54 6.1 C 5.7 g/m*3 6.1 C 0 km/h
1191 23-12-2008 22:17:54 6.2 C 5.66 g/m*3 6.2 C 0 km/h
1192 23-12-2008 22:29:54 6.2 C 5.59 g/m*3 6.2 C 0 km/h
1193 23-12-2008 22:41:53 6.2 C 5.59 g/m*3 6.2 C 0 km/h
1194 23-12-2008 22:53:53 6.2 C 5.59 g/m*3 6.2 C 0 km/h
1195 23-12-2008 23:05:53 6.1 C 5.55 g/m*3 6.1 C 0 km/h
1196 23-12-2008 23:17:53 6.2 C 5.44 g/m*3 6.2 C 0 km/h
1197 23-12-2008 23:29:53 6.2 C 5.44 g/m*3 6.2 C 0 km/h
1198 23-12-2008 23:41:52 6.2 C 5.44 g/m*3 6.2 C 0 km/h
1199 23-12-2008 23:53:53 6.1 C 5.41 g/m*3 6.1 C 0 km/h
1200 24-12-2008 00:05:53 6.1 C 5.41 g/m*3 6.1 C 0 km/h
Sensor: Nr:Datum:Temp:Abs-Feuchte:Windchill:Wind:
Aussen-T/F 1201 24-12-2008 00:17:53 6 C 5.37 g/m*3 6 C 0 km/h
1202 24-12-2008 00:29:53 6.1 C 5.41 g/m*3 6.1 C 0 km/h
1203 24-12-2008 00:41:52 6.1 C 5.33 g/m*3 6.1 C 0 km/h
1204 24-12-2008 00:53:53 6 C 5.37 g/m*3 6 C 0 km/h
1205 24-12-2008 01:05:52 6 C 5.37 g/m*3 6 C 0 km/h
1206 24-12-2008 01:17:52 5.8 C 5.37 g/m*3 5.8 C 0 km/h
1207 24-12-2008 01:29:53 5.5 C 5.34 g/m*3 5.5 C 0 km/h
1208 24-12-2008 01:41:51 5.3 C 5.34 g/m*3 5.3 C 0 km/h
1209 24-12-2008 01:53:52 5.2 C 5.3 g/m*3 5.2 C 0 km/h
1210 24-12-2008 02:05:51 5.3 C 5.41 g/m*3 5.3 C 0 km/h
1211 24-12-2008 02:17:51 5.2 C 5.44 g/m*3 5.2 C 0 km/h
1212 24-12-2008 02:29:51 5.3 C 5.48 g/m*3 5.3 C 0 km/h
1213 24-12-2008 02:41:52 5.1 C 5.4 g/m*3 5.1 C 0 km/h
1214 24-12-2008 02:54:52 4.9 C 5.47 g/m*3 4.9 C 0 km/h
1215 24-12-2008 03:06:52 4.7 C 5.4 g/m*3 4.7 C 0 km/h
1216 24-12-2008 03:18:53 4.5 C 5.39 g/m*3 4.5 C 0 km/h
1217 24-12-2008 03:30:52 4.1 C 5.18 g/m*3 4.1 C 0 km/h
1218 24-12-2008 03:42:52 3.7 C 5.17 g/m*3 3.7 C 0 km/h
1219 24-12-2008 03:54:52 3.5 C 5.1 g/m*3 3.5 C 0 km/h
1220 24-12-2008 04:06:52 3.3 C 5.1 g/m*3 3.3 C 0 km/h
1221 24-12-2008 04:18:52 3 C 4.99 g/m*3 3 C 0 km/h
1222 24-12-2008 04:30:52 2.9 C 5.08 g/m*3 2.9 C 0 km/h
1223 24-12-2008 04:42:52 2.7 C 5.01 g/m*3 2.7 C 0 km/h
1224 24-12-2008 04:54:52 2.5 C 4.94 g/m*3 2.5 C 0 km/h
1225 24-12-2008 05:06:51 2.3 C 4.93 g/m*3 2.3 C 0 km/h
Sensor: Nr:Datum:Temp:Abs-Feuchte:Windchill:Wind:
Aussen-T/F 1226 24-12-2008 05:18:51 2.3 C 4.93 g/m*3 2.3 C 0 km/h
1227 24-12-2008 05:30:51 2.1 C 4.92 g/m*3 2.1 C 0 km/h
1228 24-12-2008 05:42:51 2 C 4.89 g/m*3 2 C 0 km/h
1229 24-12-2008 05:54:50 2.3 C 5.05 g/m*3 2.3 C 0 km/h
1230 24-12-2008 06:06:51 2.8 C 5.34 g/m*3 2.8 C 0 km/h
1231 24-12-2008 06:18:51 2.9 C 5.37 g/m*3 2.9 C 0 km/h
1232 24-12-2008 06:30:50 2.8 C 5.28 g/m*3 2.8 C 0 km/h
1233 24-12-2008 06:42:50 2.7 C 5.24 g/m*3 2.7 C 0 km/h
1234 24-12-2008 06:54:51 2.8 C 5.22 g/m*3 2.8 C 0 km/h
1235 24-12-2008 07:06:50 2.9 C 5.26 g/m*3 2.9 C 0 km/h
1236 24-12-2008 07:18:50 3 C 5.29 g/m*3 3 C 0 km/h
1237 24-12-2008 07:30:50 3.3 C 5.4 g/m*3 3.3 C 0 km/h
1238 24-12-2008 07:42:50 3.3 C 5.4 g/m*3 3.3 C 0 km/h
1239 24-12-2008 07:54:50 3.2 C 5.36 g/m*3 3.2 C 0 km/h
1240 24-12-2008 08:06:50 3.2 C 5.36 g/m*3 3.2 C 0 km/h
1241 24-12-2008 08:18:49 3.3 C 5.4 g/m*3 3.3 C 0 km/h
1242 24-12-2008 08:30:50 3.5 C 5.47 g/m*3 3.5 C 0 km/h
1243 24-12-2008 08:42:50 3.6 C 5.51 g/m*3 3.6 C 0 km/h
1244 24-12-2008 08:54:49 3.5 C 5.47 g/m*3 3.5 C 0 km/h
1245 24-12-2008 09:06:49 3.5 C 5.47 g/m*3 3.5 C 0 km/h
1246 24-12-2008 09:18:49 3.4 C 5.44 g/m*3 3.4 C 0 km/h
1247 24-12-2008 09:30:49 3.4 C 5.44 g/m*3 3.4 C 0 km/h
1248 24-12-2008 09:42:49 3.5 C 5.53 g/m*3 3.5 C 0 km/h
1249 24-12-2008 09:54:48 3.6 C 5.51 g/m*3 3.6 C 0 km/h
1250 24-12-2008 10:06:49 3.6 C 5.51 g/m*3 3.6 C 0 km/h
Sensor: Nr:Datum:Temp:Abs-Feuchte:Windchill:Wind:
Aussen-T/F 1251 24-12-2008 10:18:49 3.7 C 5.55 g/m*3 3.7 C 0 km/h
1252 24-12-2008 10:30:48 3.9 C 5.68 g/m*3 3.9 C 0 km/h
1253 24-12-2008 10:42:48 4 C 5.66 g/m*3 4 C 0 km/h
1254 24-12-2008 10:54:49 4 C 5.66 g/m*3 4 C 0 km/h
1255 24-12-2008 11:06:48 4.1 C 5.76 g/m*3 4.1 C 0 km/h
1256 24-12-2008 11:18:48 4.1 C 5.76 g/m*3 4.1 C 0 km/h
1257 24-12-2008 11:30:47 4.2 C 5.8 g/m*3 4.2 C 0 km/h
1258 24-12-2008 11:42:47 4.3 C 5.77 g/m*3 4.3 C 0 km/h
1259 24-12-2008 11:54:48 4.3 C 5.77 g/m*3 4.3 C 0 km/h
1260 24-12-2008 12:06:47 4.4 C 5.75 g/m*3 4.4 C 0 km/h
1261 24-12-2008 12:18:47 4.5 C 5.72 g/m*3 4.5 C 0 km/h
1262 24-12-2008 12:30:48 4.8 C 5.77 g/m*3 4.8 C 0 km/h
1263 24-12-2008 12:42:48 5 C 5.71 g/m*3 5 C 0 km/h
1264 24-12-2008 12:54:47 5.3 C 5.68 g/m*3 5.3 C 0 km/h
1265 24-12-2008 13:06:47 5.6 C 5.66 g/m*3 5.6 C 0 km/h
1266 24-12-2008 13:18:47 5.5 C 5.55 g/m*3 5.5 C 0 km/h
1267 24-12-2008 13:30:47 5.3 C 5.48 g/m*3 5.3 C 0 km/h
1268 24-12-2008 13:42:47 5.3 C 5.48 g/m*3 5.3 C 0 km/h
1269 24-12-2008 13:54:46 5.2 C 5.44 g/m*3 5.2 C 0 km/h
1270 24-12-2008 14:06:47 5.2 C 5.44 g/m*3 5.2 C 0 km/h
1271 24-12-2008 14:18:47 5.2 C 5.44 g/m*3 5.2 C 0 km/h
1272 24-12-2008 14:30:46 5.3 C 5.48 g/m*3 5.3 C 0 km/h
1273 24-12-2008 14:42:46 5.3 C 5.48 g/m*3 5.3 C 0 km/h
1274 24-12-2008 14:54:46 5.2 C 5.44 g/m*3 5.2 C 0 km/h
1275 24-12-2008 15:06:46 5.2 C 5.44 g/m*3 5.2 C 0 km/h
Sensor: Nr:Datum:Temp:Abs-Feuchte:Windchill:Wind:
Aussen-T/F 1276 24-12-2008 15:18:46 5.1 C 5.47 g/m*3 5.1 C 0 km/h
1277 24-12-2008 15:30:45 4.9 C 5.6 g/m*3 4.9 C 0 km/h
1278 24-12-2008 15:42:45 4.9 C 5.74 g/m*3 4.9 C 0 km/h
1279 24-12-2008 15:54:46 5.1 C 5.88 g/m*3 5.1 C 0 km/h
1280 24-12-2008 16:06:45 5.3 C 6.1 g/m*3 5.3 C 0 km/h
1281 24-12-2008 16:18:45 5.3 C 6.17 g/m*3 5.3 C 0 km/h
1282 24-12-2008 16:30:45 5.4 C 6.21 g/m*3 5.4 C 0 km/h
1283 24-12-2008 16:42:45 5.4 C 6.21 g/m*3 5.4 C 0 km/h
1284 24-12-2008 16:54:45 5.3 C 6.17 g/m*3 5.3 C 0 km/h
1285 24-12-2008 17:06:45 5.2 C 6.13 g/m*3 5.2 C 0 km/h
1286 24-12-2008 17:18:44 5.2 C 6.13 g/m*3 5.2 C 0 km/h
1287 24-12-2008 17:30:45 5.1 C 6.02 g/m*3 5.1 C 0 km/h
1288 24-12-2008 17:42:45 5.2 C 5.99 g/m*3 5.2 C 0 km/h
1289 24-12-2008 17:54:44 5.2 C 5.85 g/m*3 5.2 C 0 km/h
1290 24-12-2008 18:06:44 5.3 C 5.82 g/m*3 5.3 C 0 km/h
1291 24-12-2008 18:18:45 5.3 C 5.82 g/m*3 5.3 C 0 km/h
1292 24-12-2008 18:30:44 5.3 C 5.82 g/m*3 5.3 C 0 km/h
1293 24-12-2008 18:42:44 5.3 C 5.82 g/m*3 5.3 C 0 km/h
1294 24-12-2008 18:54:44 5.3 C 5.82 g/m*3 5.3 C 0 km/h
1295 24-12-2008 19:06:44 5.2 C 5.85 g/m*3 5.2 C 0 km/h
1296 24-12-2008 19:18:44 5.2 C 5.92 g/m*3 5.2 C 0 km/h
1297 24-12-2008 19:30:43 5.2 C 5.92 g/m*3 5.2 C 0 km/h
1298 24-12-2008 19:42:43 5.2 C 5.92 g/m*3 5.2 C 0 km/h
1299 24-12-2008 19:54:44 5.2 C 5.92 g/m*3 5.2 C 0 km/h
1300 24-12-2008 20:06:43 5.3 C 5.96 g/m*3 5.3 C 0 km/h
Sensor: Nr:Datum:Temp:Abs-Feuchte:Windchill:Wind:
Aussen-T/F 1301 24-12-2008 20:18:43 5.2 C 5.92 g/m*3 5.2 C 0 km/h
1302 24-12-2008 20:30:43 5.2 C 5.99 g/m*3 5.2 C 0 km/h
1303 24-12-2008 20:42:43 5.2 C 6.06 g/m*3 5.2 C 0 km/h
1304 24-12-2008 20:54:43 5.2 C 6.06 g/m*3 5.2 C 0 km/h
1305 24-12-2008 21:06:43 5.2 C 6.13 g/m*3 5.2 C 0 km/h
1306 24-12-2008 21:18:42 5.2 C 6.13 g/m*3 5.2 C 0 km/h
1307 24-12-2008 21:30:42 5.2 C 6.13 g/m*3 5.2 C 0 km/h
1308 24-12-2008 21:42:42 5.2 C 6.13 g/m*3 5.2 C 0 km/h
1309 24-12-2008 21:54:43 5.3 C 6.17 g/m*3 5.3 C 0 km/h
1310 24-12-2008 22:06:42 5.3 C 6.17 g/m*3 5.3 C 0 km/h
1311 24-12-2008 22:18:42 5.3 C 6.17 g/m*3 5.3 C 0 km/h
1312 24-12-2008 22:30:42 5.3 C 6.17 g/m*3 5.3 C 0 km/h
1313 24-12-2008 22:42:42 5.3 C 6.17 g/m*3 5.3 C 0 km/h
1314 24-12-2008 22:54:42 5.3 C 6.17 g/m*3 5.3 C 0 km/h
1315 24-12-2008 23:06:41 5.3 C 6.1 g/m*3 5.3 C 0 km/h
1316 24-12-2008 23:18:42 5.3 C 6.1 g/m*3 5.3 C 0 km/h
1317 24-12-2008 23:30:42 5.3 C 6.1 g/m*3 5.3 C 0 km/h
1318 24-12-2008 23:42:42 5.4 C 6.07 g/m*3 5.4 C 0 km/h
1319 24-12-2008 23:54:41 5.4 C 6 g/m*3 5.4 C 0 km/h
1320 25-12-2008 00:06:42 5.4 C 5.86 g/m*3 5.4 C 0 km/h
1321 25-12-2008 00:18:41 5.3 C 5.82 g/m*3 5.3 C 0 km/h
1322 25-12-2008 00:30:41 5.2 C 5.78 g/m*3 5.2 C 0 km/h
1323 25-12-2008 00:42:41 5.2 C 5.78 g/m*3 5.2 C 0 km/h
1324 25-12-2008 00:54:41 5.2 C 5.78 g/m*3 5.2 C 0 km/h
1325 25-12-2008 01:06:40 5.1 C 5.75 g/m*3 5.1 C 0 km/h
Sensor: Nr:Datum:Temp:Abs-Feuchte:Windchill:Wind:
Aussen-T/F 1326 25-12-2008 01:18:41 5 C 5.71 g/m*3 5 C 0 km/h
1327 25-12-2008 01:30:40 5 C 5.64 g/m*3 5 C 0 km/h
1328 25-12-2008 01:42:40 5.1 C 5.47 g/m*3 5.1 C 0 km/h
1329 25-12-2008 01:54:40 5.2 C 5.37 g/m*3 5.2 C 0 km/h
1330 25-12-2008 02:06:40 5.3 C 5.41 g/m*3 5.3 C 0 km/h
1331 25-12-2008 02:18:40 4.7 C 5.26 g/m*3 4.7 C 0 km/h
1332 25-12-2008 02:30:40 4.8 C 5.43 g/m*3 4.8 C 0 km/h
1333 25-12-2008 02:42:40 4.9 C 5.54 g/m*3 4.9 C 0 km/h
1334 25-12-2008 02:55:41 5 C 5.5 g/m*3 5 C 0 km/h
1335 25-12-2008 03:07:41 5 C 5.57 g/m*3 5 C 0 km/h
1336 25-12-2008 03:19:41 4.8 C 5.5 g/m*3 4.8 C 0 km/h
1337 25-12-2008 03:31:41 4.5 C 5.46 g/m*3 4.5 C 0 km/h
1338 25-12-2008 03:43:41 4.3 C 5.38 g/m*3 4.3 C 0 km/h
1339 25-12-2008 03:55:41 4.2 C 5.41 g/m*3 4.2 C 0 km/h
1340 25-12-2008 04:07:40 4.4 C 5.55 g/m*3 4.4 C 0 km/h
1341 25-12-2008 04:19:40 4.5 C 5.59 g/m*3 4.5 C 0 km/h
1342 25-12-2008 04:31:41 4.6 C 5.62 g/m*3 4.6 C 0 km/h
1343 25-12-2008 04:43:41 4.6 C 5.62 g/m*3 4.6 C 0 km/h
1344 25-12-2008 04:55:40 4.6 C 5.56 g/m*3 4.6 C 0 km/h
1345 25-12-2008 05:07:40 4.6 C 5.56 g/m*3 4.6 C 0 km/h
1346 25-12-2008 05:19:40 4.6 C 5.56 g/m*3 4.6 C 0 km/h
1347 25-12-2008 05:31:40 4.6 C 5.56 g/m*3 4.6 C 0 km/h
1348 25-12-2008 05:43:40 4.7 C 5.6 g/m*3 4.7 C 0 km/h
1349 25-12-2008 05:55:40 4.7 C 5.53 g/m*3 4.7 C 0 km/h
1350 25-12-2008 06:07:40 4.7 C 5.53 g/m*3 4.7 C 0 km/h
Sensor: Nr:Datum:Temp:Abs-Feuchte:Windchill:Wind:
Aussen-T/F 1351 25-12-2008 06:19:39 4.7 C 5.53 g/m*3 4.7 C 0 km/h
1352 25-12-2008 06:31:39 4.7 C 5.53 g/m*3 4.7 C 0 km/h
1353 25-12-2008 06:43:39 4.7 C 5.46 g/m*3 4.7 C 0 km/h
1354 25-12-2008 06:55:39 4.7 C 5.46 g/m*3 4.7 C 0 km/h
1355 25-12-2008 07:07:39 4.8 C 5.5 g/m*3 4.8 C 0 km/h
1356 25-12-2008 07:19:38 4.8 C 5.43 g/m*3 4.8 C 0 km/h
1357 25-12-2008 07:31:39 4.8 C 5.43 g/m*3 4.8 C 0 km/h
1358 25-12-2008 07:43:39 4.8 C 5.43 g/m*3 4.8 C 0 km/h
1359 25-12-2008 07:55:38 4.8 C 5.43 g/m*3 4.8 C 0 km/h
1360 25-12-2008 08:07:38 4.7 C 5.4 g/m*3 4.7 C 0 km/h
1361 25-12-2008 08:19:39 4.7 C 5.4 g/m*3 4.7 C 0 km/h
1362 25-12-2008 08:31:38 4.7 C 5.4 g/m*3 4.7 C 0 km/h
1363 25-12-2008 08:43:38 4.8 C 5.43 g/m*3 4.8 C 0 km/h
1364 25-12-2008 08:55:38 4.8 C 5.43 g/m*3 4.8 C 0 km/h
1365 25-12-2008 09:07:38 4.8 C 5.43 g/m*3 4.8 C 0 km/h
1366 25-12-2008 09:24:38 5 C 5.44 g/m*3 5 C 0 km/h
1367 25-12-2008 09:36:37 5.1 C 5.47 g/m*3 5.1 C 0 km/h
1368 25-12-2008 09:48:38 5.3 C 5.48 g/m*3 5.3 C 0 km/h
1369 25-12-2008 10:00:37 5.4 C 5.58 g/m*3 5.4 C 0 km/h
1370 25-12-2008 10:12:37 5.7 C 5.62 g/m*3 5.7 C 0 km/h
1371 25-12-2008 10:24:37 5.8 C 5.59 g/m*3 5.8 C 0 km/h
1372 25-12-2008 10:36:37 6 C 5.52 g/m*3 6 C 0 km/h
1373 25-12-2008 10:48:37 6.2 C 5.44 g/m*3 6.2 C 0 km/h
1374 25-12-2008 11:00:36 6.3 C 5.4 g/m*3 6.3 C 0 km/h
1375 25-12-2008 11:12:36 6.3 C 5.33 g/m*3 6.3 C 0 km/h
Sensor: Nr:Datum:Temp:Abs-Feuchte:Windchill:Wind:
Aussen-T/F 1376 25-12-2008 11:25:37 6.3 C 5.26 g/m*3 6.3 C 0 km/h
1377 25-12-2008 11:37:36 6.4 C 5.07 g/m*3 6.4 C 0 km/h
1378 25-12-2008 11:49:37 6.9 C 4.93 g/m*3 6.9 C 0 km/h
1379 25-12-2008 12:01:36 7 C 4.8 g/m*3 7 C 0 km/h
1380 25-12-2008 12:13:36 7 C 4.8 g/m*3 7 C 0 km/h
1381 25-12-2008 12:25:36 6.9 C 4.85 g/m*3 6.9 C 0 km/h
1382 25-12-2008 12:37:36 7.1 C 4.76 g/m*3 7.1 C 0 km/h
1383 25-12-2008 12:49:36 7.1 C 4.6 g/m*3 7.1 C 0 km/h
1384 25-12-2008 13:01:35 7 C 4.65 g/m*3 7 C 0 km/h
1385 25-12-2008 13:13:35 7 C 4.65 g/m*3 7 C 0 km/h
1386 25-12-2008 13:25:36 6.9 C 4.7 g/m*3 6.9 C 0 km/h
1387 25-12-2008 13:37:35 7 C 4.57 g/m*3 7 C 0 km/h
1388 25-12-2008 13:49:35 7 C 4.49 g/m*3 7 C 0 km/h
1389 25-12-2008 14:01:35 7.1 C 4.37 g/m*3 7.1 C 0 km/h
1390 25-12-2008 14:13:35 7.1 C 4.52 g/m*3 7.1 C 0 km/h
1391 25-12-2008 14:25:35 7.1 C 4.37 g/m*3 7.1 C 0 km/h
1392 25-12-2008 14:37:35 7 C 4.26 g/m*3 7 C 0 km/h
1393 25-12-2008 14:49:35 7.1 C 4.21 g/m*3 7.1 C 0 km/h
1394 25-12-2008 15:01:35 7.2 C 4.24 g/m*3 7.2 C 0 km/h
1395 25-12-2008 15:13:35 7.1 C 4.29 g/m*3 7.1 C 0 km/h
1396 25-12-2008 15:25:35 7 C 4.26 g/m*3 7 C 0 km/h
1397 25-12-2008 15:37:34 6.9 C 4.39 g/m*3 6.9 C 0 km/h
1398 25-12-2008 15:49:34 6.6 C 4.45 g/m*3 6.6 C 0 km/h
1399 25-12-2008 16:01:34 6.1 C 4.24 g/m*3 6.1 C 0 km/h
1400 25-12-2008 16:13:34 5.9 C 4.33 g/m*3 5.9 C 0 km/h
Sensor: Nr:Datum:Temp:Abs-Feuchte:Windchill:Wind:
Aussen-T/F 1401 25-12-2008 16:25:34 5.6 C 4.31 g/m*3 5.6 C 0 km/h
1402 25-12-2008 16:37:34 5.1 C 4.24 g/m*3 5.1 C 0 km/h
1403 25-12-2008 16:49:33 4.8 C 4.29 g/m*3 4.8 C 0 km/h
1404 25-12-2008 17:01:34 4.7 C 4.26 g/m*3 4.7 C 0 km/h
1405 25-12-2008 17:13:34 4.5 C 4.14 g/m*3 4.5 C 0 km/h
1406 25-12-2008 17:25:33 4.2 C 4.12 g/m*3 4.2 C 0 km/h
1407 25-12-2008 17:37:34 4 C 4.07 g/m*3 4 C 0 km/h
1408 25-12-2008 17:49:34 3.7 C 3.99 g/m*3 3.7 C 0 km/h
1409 25-12-2008 18:01:33 3.5 C 3.87 g/m*3 3.5 C 0 km/h
1410 25-12-2008 18:13:34 3.3 C 3.76 g/m*3 3.3 C 0 km/h
1411 25-12-2008 18:25:33 3.1 C 3.47 g/m*3 3.1 C 0 km/h
1412 25-12-2008 18:37:33 3 C 3.33 g/m*3 3 C 0 km/h
1413 25-12-2008 18:49:33 2.7 C 3.38 g/m*3 2.7 C 0 km/h
1414 25-12-2008 19:01:32 2.4 C 3.31 g/m*3 2.4 C 0 km/h
1415 25-12-2008 19:13:32 2.2 C 3.27 g/m*3 2.2 C 0 km/h
1416 25-12-2008 19:25:33 1.8 C 3.18 g/m*3 1.8 C 0 km/h
1417 25-12-2008 19:37:32 1.5 C 3.12 g/m*3 1.5 C 0 km/h
1418 25-12-2008 19:49:32 1.3 C 3.07 g/m*3 1.3 C 0 km/h
1419 25-12-2008 20:01:32 1.1 C 3.08 g/m*3 1.1 C 0 km/h
1420 25-12-2008 20:13:32 1 C 3.11 g/m*3 1 C 0 km/h
1421 25-12-2008 20:25:31 1 C 3.06 g/m*3 1 C 0 km/h
1422 25-12-2008 20:37:32 1 C 3.06 g/m*3 1 C 0 km/h
1423 25-12-2008 20:49:32 1.1 C 3.08 g/m*3 1.1 C 0 km/h
1424 25-12-2008 21:01:32 1 C 3.01 g/m*3 1 C 0 km/h
1425 25-12-2008 21:13:32 1 C 3.01 g/m*3 1 C 0 km/h
Sensor: Nr:Datum:Temp:Abs-Feuchte:Windchill:Wind:
Aussen-T/F 1426 25-12-2008 21:25:31 0.9 C 2.99 g/m*3 0.9 C 0 km/h
1427 25-12-2008 21:37:31 0.8 C 2.97 g/m*3 0.8 C 0 km/h
1428 25-12-2008 21:49:31 0.7 C 2.9 g/m*3 0.7 C 0 km/h
1429 25-12-2008 22:01:31 0.6 C 2.88 g/m*3 0.6 C 0 km/h
1430 25-12-2008 22:13:31 0.6 C 2.88 g/m*3 0.6 C 0 km/h
1431 25-12-2008 22:25:31 0.5 C 2.86 g/m*3 0.5 C 0 km/h
1432 25-12-2008 22:37:31 0.6 C 2.93 g/m*3 0.6 C 0 km/h
1433 25-12-2008 22:49:30 0.7 C 2.9 g/m*3 0.7 C 0 km/h
1434 25-12-2008 23:01:30 0.5 C 2.86 g/m*3 0.5 C 0 km/h
1435 25-12-2008 23:13:30 0.3 C 2.82 g/m*3 0.3 C 0 km/h
1436 25-12-2008 23:25:30 0 C 2.81 g/m*3 0 C 0 km/h
1437 25-12-2008 23:37:30 -0.4 C 2.83 g/m*3 -0.4 C 0 km/h
1438 25-12-2008 23:49:29 -0.5 C 2.81 g/m*3 -0.5 C 0 km/h
1439 26-12-2008 00:01:30 -0.6 C 2.79 g/m*3 -0.6 C 0 km/h
1440 26-12-2008 00:13:30 -0.6 C 2.79 g/m*3 -0.6 C 0 km/h
1441 26-12-2008 00:25:30 -0.7 C 2.82 g/m*3 -0.7 C 0 km/h
1442 26-12-2008 00:37:29 -0.7 C 2.82 g/m*3 -0.7 C 0 km/h
1443 26-12-2008 00:49:30 -0.5 C 2.86 g/m*3 -0.5 C 0 km/h
1444 26-12-2008 01:01:29 -0.2 C 2.91 g/m*3 -0.2 C 0 km/h
1445 26-12-2008 01:13:29 0.2 C 2.95 g/m*3 0.2 C 0 km/h
1446 26-12-2008 01:25:29 0.4 C 2.94 g/m*3 0.4 C 0 km/h
1447 26-12-2008 01:37:29 0.5 C 2.91 g/m*3 0.5 C 0 km/h
1448 26-12-2008 01:49:29 0.5 C 2.86 g/m*3 0.5 C 0 km/h
1449 26-12-2008 02:01:28 0.5 C 2.81 g/m*3 0.5 C 0 km/h
1450 26-12-2008 02:13:28 0.4 C 2.84 g/m*3 0.4 C 0 km/h
Sensor: Nr:Datum:Temp:Abs-Feuchte:Windchill:Wind:
Aussen-T/F 1451 26-12-2008 02:25:29 0.2 C 2.8 g/m*3 0.2 C 0 km/h
1452 26-12-2008 02:37:29 0.2 C 2.75 g/m*3 0.2 C 0 km/h
1453 26-12-2008 02:50:01 0.2 C 2.7 g/m*3 0.2 C 0 km/h
1454 26-12-2008 03:02:01 0.1 C 2.68 g/m*3 0.1 C 0 km/h
1455 26-12-2008 03:14:01 -0.2 C 2.58 g/m*3 -0.2 C 0 km/h
1456 26-12-2008 03:26:01 -0.5 C 2.48 g/m*3 -0.5 C 0 km/h
1457 26-12-2008 03:38:02 -0.6 C 2.46 g/m*3 -0.6 C 0 km/h
1458 26-12-2008 03:50:02 -0.8 C 2.48 g/m*3 -0.8 C 0 km/h
1459 26-12-2008 04:02:01 -0.8 C 2.52 g/m*3 -0.8 C 0 km/h
1460 26-12-2008 04:14:01 -0.9 C 2.5 g/m*3 -0.9 C 0 km/h
1461 26-12-2008 04:26:01 -1 C 2.49 g/m*3 -1 C 0 km/h
1462 26-12-2008 04:38:02 -1 C 2.49 g/m*3 -1 C 0 km/h
1463 26-12-2008 04:50:01 -1.1 C 2.47 g/m*3 -1.1 C 0 km/h
1464 26-12-2008 05:02:01 -1.1 C 2.47 g/m*3 -1.1 C 0 km/h
1465 26-12-2008 05:14:01 -1.2 C 2.5 g/m*3 -1.2 C 0 km/h
1466 26-12-2008 05:26:01 -1.3 C 2.48 g/m*3 -1.3 C 0 km/h
1467 26-12-2008 05:38:01 -1.3 C 2.48 g/m*3 -1.3 C 0 km/h
1468 26-12-2008 05:50:01 -1.4 C 2.51 g/m*3 -1.4 C 0 km/h
1469 26-12-2008 06:02:01 -1.4 C 2.51 g/m*3 -1.4 C 0 km/h
1470 26-12-2008 06:14:01 -1.6 C 2.47 g/m*3 -1.6 C 0 km/h
1471 26-12-2008 06:26:01 -1.6 C 2.47 g/m*3 -1.6 C 0 km/h
1472 26-12-2008 06:38:01 -1.6 C 2.47 g/m*3 -1.6 C 0 km/h
1473 26-12-2008 06:50:01 -1.7 C 2.45 g/m*3 -1.7 C 0 km/h
1474 26-12-2008 07:02:01 -1.7 C 2.45 g/m*3 -1.7 C 0 km/h
1475 26-12-2008 07:14:01 -1.7 C 2.5 g/m*3 -1.7 C 0 km/h
Sensor: Nr:Datum:Temp:Abs-Feuchte:Windchill:Wind:
Aussen-T/F 1476 26-12-2008 07:26:02 -1.8 C 2.48 g/m*3 -1.8 C 0 km/h
1477 26-12-2008 07:38:01 -1.7 C 2.5 g/m*3 -1.7 C 0 km/h
1478 26-12-2008 07:50:02 -1.8 C 2.44 g/m*3 -1.8 C 0 km/h
1479 26-12-2008 08:02:01 -1.9 C 2.46 g/m*3 -1.9 C 0 km/h
1480 26-12-2008 08:14:01 -1.9 C 2.46 g/m*3 -1.9 C 0 km/h
1481 26-12-2008 08:26:01 -2 C 2.49 g/m*3 -2 C 0 km/h
1482 26-12-2008 08:38:01 -2 C 2.49 g/m*3 -2 C 0 km/h
1483 26-12-2008 08:50:01 -2 C 2.53 g/m*3 -2 C 0 km/h
1484 26-12-2008 09:02:02 -2 C 2.53 g/m*3 -2 C 0 km/h
1485 26-12-2008 09:14:02 -1.9 C 2.55 g/m*3 -1.9 C 0 km/h
1486 26-12-2008 09:26:01 -1.9 C 2.55 g/m*3 -1.9 C 0 km/h
1487 26-12-2008 09:38:02 -1.8 C 2.56 g/m*3 -1.8 C 0 km/h
1488 26-12-2008 09:50:01 -1.7 C 2.58 g/m*3 -1.7 C 0 km/h
1489 26-12-2008 10:02:02 -1.6 C 2.6 g/m*3 -1.6 C 0 km/h
1490 26-12-2008 10:14:02 -1.5 C 2.58 g/m*3 -1.5 C 0 km/h
1491 26-12-2008 10:26:01 -1.5 C 2.58 g/m*3 -1.5 C 0 km/h
1492 26-12-2008 10:38:02 -1.4 C 2.55 g/m*3 -1.4 C 0 km/h
1493 26-12-2008 10:50:01 -1.3 C 2.57 g/m*3 -1.3 C 0 km/h
1494 26-12-2008 11:02:02 -1.2 C 2.54 g/m*3 -1.2 C 0 km/h
1495 26-12-2008 11:14:02 -1 C 2.58 g/m*3 -1 C 0 km/h
1496 26-12-2008 11:26:01 -0.8 C 2.52 g/m*3 -0.8 C 0 km/h
1497 26-12-2008 11:38:01 -0.9 C 2.5 g/m*3 -0.9 C 0 km/h
1498 26-12-2008 11:50:01 -0.8 C 2.52 g/m*3 -0.8 C 0 km/h
1499 26-12-2008 12:02:01 -0.6 C 2.51 g/m*3 -0.6 C 0 km/h
1500 26-12-2008 12:14:01 -0.6 C 2.51 g/m*3 -0.6 C 0 km/h
Sensor: Nr:Datum:Temp:Abs-Feuchte:Windchill:Wind:
Aussen-T/F 1501 26-12-2008 12:26:01 -0.5 C 2.53 g/m*3 -0.5 C 0 km/h
1502 26-12-2008 12:38:01 -0.3 C 2.56 g/m*3 -0.3 C 0 km/h
1503 26-12-2008 12:50:01 -0.2 C 2.48 g/m*3 -0.2 C 0 km/h
1504 26-12-2008 13:02:01 0 C 2.52 g/m*3 0 C 0 km/h
1505 26-12-2008 13:14:01 0.1 C 2.54 g/m*3 0.1 C 0 km/h
1506 26-12-2008 13:26:02 0.2 C 2.55 g/m*3 0.2 C 0 km/h
1507 26-12-2008 13:38:01 0.4 C 2.54 g/m*3 0.4 C 0 km/h
1508 26-12-2008 13:50:02 0.3 C 2.57 g/m*3 0.3 C 0 km/h
1509 26-12-2008 14:02:01 0.4 C 2.54 g/m*3 0.4 C 0 km/h
1510 26-12-2008 14:14:01 0.4 C 2.54 g/m*3 0.4 C 0 km/h
1511 26-12-2008 14:26:02 0.5 C 2.56 g/m*3 0.5 C 0 km/h
1512 26-12-2008 14:38:01 0.5 C 2.56 g/m*3 0.5 C 0 km/h
1513 26-12-2008 14:50:01 0.5 C 2.56 g/m*3 0.5 C 0 km/h
1514 26-12-2008 15:02:01 0.6 C 2.52 g/m*3 0.6 C 0 km/h
1515 26-12-2008 15:14:01 0.6 C 2.52 g/m*3 0.6 C 0 km/h
1516 26-12-2008 15:26:01 0.5 C 2.56 g/m*3 0.5 C 0 km/h
1517 26-12-2008 15:38:02 0.6 C 2.58 g/m*3 0.6 C 0 km/h
1518 26-12-2008 15:50:01 0.3 C 2.57 g/m*3 0.3 C 0 km/h
1519 26-12-2008 16:02:02 0.2 C 2.6 g/m*3 0.2 C 0 km/h
1520 26-12-2008 16:14:02 -0.3 C 2.66 g/m*3 -0.3 C 0 km/h
1521 26-12-2008 16:26:01 -0.5 C 2.67 g/m*3 -0.5 C 0 km/h
1522 26-12-2008 16:38:01 -0.5 C 2.67 g/m*3 -0.5 C 0 km/h
1523 26-12-2008 16:50:01 -0.5 C 2.62 g/m*3 -0.5 C 0 km/h
1524 26-12-2008 17:02:01 -0.7 C 2.58 g/m*3 -0.7 C 0 km/h
1525 26-12-2008 17:14:01 -1 C 2.62 g/m*3 -1 C 0 km/h
Sensor: Nr:Datum:Temp:Abs-Feuchte:Windchill:Wind:
Aussen-T/F 1526 26-12-2008 17:26:01 -1.3 C 2.61 g/m*3 -1.3 C 0 km/h
1527 26-12-2008 17:38:01 -1.3 C 2.66 g/m*3 -1.3 C 0 km/h
1528 26-12-2008 17:50:01 -1.3 C 2.61 g/m*3 -1.3 C 0 km/h
1529 26-12-2008 18:02:01 -1.4 C 2.59 g/m*3 -1.4 C 0 km/h
1530 26-12-2008 18:14:01 -1.6 C 2.64 g/m*3 -1.6 C 0 km/h
1531 26-12-2008 18:26:02 -1.9 C 2.63 g/m*3 -1.9 C 0 km/h
1532 26-12-2008 18:38:01 -2 C 2.66 g/m*3 -2 C 0 km/h
1533 26-12-2008 18:50:02 -2.1 C 2.64 g/m*3 -2.1 C 0 km/h
1534 26-12-2008 19:02:01 -2.1 C 2.68 g/m*3 -2.1 C 0 km/h
1535 26-12-2008 19:14:01 -2 C 2.7 g/m*3 -2 C 0 km/h
1536 26-12-2008 19:26:01 -1.9 C 2.63 g/m*3 -1.9 C 0 km/h
1537 26-12-2008 19:38:01 -2.3 C 2.64 g/m*3 -2.3 C 0 km/h
1538 26-12-2008 19:50:01 -2.4 C 2.66 g/m*3 -2.4 C 0 km/h
1539 26-12-2008 20:02:02 -2.5 C 2.69 g/m*3 -2.5 C 0 km/h
1540 26-12-2008 20:14:02 -2.4 C 2.66 g/m*3 -2.4 C 0 km/h
1541 26-12-2008 20:26:01 -2.3 C 2.64 g/m*3 -2.3 C 0 km/h
1542 26-12-2008 20:38:02 -2.5 C 2.6 g/m*3 -2.5 C 0 km/h
1543 26-12-2008 20:50:01 -2.5 C 2.6 g/m*3 -2.5 C 0 km/h
1544 26-12-2008 21:02:02 -2.6 C 2.59 g/m*3 -2.6 C 0 km/h
1545 26-12-2008 21:14:02 -2.6 C 2.59 g/m*3 -2.6 C 0 km/h
1546 26-12-2008 21:26:01 -2.7 C 2.57 g/m*3 -2.7 C 0 km/h
1547 26-12-2008 21:38:02 -2.8 C 2.59 g/m*3 -2.8 C 0 km/h
1548 26-12-2008 21:50:01 -3 C 2.55 g/m*3 -3 C 0 km/h
1549 26-12-2008 22:02:02 -3 C 2.59 g/m*3 -3 C 0 km/h
1550 26-12-2008 22:14:02 -3.1 C 2.57 g/m*3 -3.1 C 0 km/h
Sensor: Nr:Datum:Temp:Abs-Feuchte:Windchill:Wind:
Aussen-T/F 1551 26-12-2008 22:26:01 -3.1 C 2.61 g/m*3 -3.1 C 0 km/h
1552 26-12-2008 22:38:01 -3.1 C 2.57 g/m*3 -3.1 C 0 km/h
1553 26-12-2008 22:50:01 -3.1 C 2.57 g/m*3 -3.1 C 0 km/h
1554 26-12-2008 23:02:01 -3.2 C 2.59 g/m*3 -3.2 C 0 km/h
1555 26-12-2008 23:14:01 -3.3 C 2.58 g/m*3 -3.3 C 0 km/h
1556 26-12-2008 23:26:02 -3.6 C 2.56 g/m*3 -3.6 C 0 km/h
1557 26-12-2008 23:38:01 -3.5 C 2.65 g/m*3 -3.5 C 0 km/h
1558 26-12-2008 23:50:02 -3.4 C 2.67 g/m*3 -3.4 C 0 km/h
1559 27-12-2008 00:02:01 -3.4 C 2.63 g/m*3 -3.4 C 0 km/h
1560 27-12-2008 00:14:01 -3.3 C 2.65 g/m*3 -3.3 C 0 km/h
1561 27-12-2008 00:26:02 -3.2 C 2.71 g/m*3 -3.2 C 0 km/h
1562 27-12-2008 00:38:01 -3.1 C 2.69 g/m*3 -3.1 C 0 km/h
1563 27-12-2008 00:50:02 -3.1 C 2.69 g/m*3 -3.1 C 0 km/h
1564 27-12-2008 01:02:01 -3.1 C 2.69 g/m*3 -3.1 C 0 km/h
1565 27-12-2008 01:14:01 -3 C 2.67 g/m*3 -3 C 0 km/h
1566 27-12-2008 01:26:02 -3.1 C 2.65 g/m*3 -3.1 C 0 km/h
1567 27-12-2008 01:38:01 -3 C 2.71 g/m*3 -3 C 0 km/h
1568 27-12-2008 01:50:02 -2.9 C 2.73 g/m*3 -2.9 C 0 km/h
1569 27-12-2008 02:02:01 -2.8 C 2.71 g/m*3 -2.8 C 0 km/h
1570 27-12-2008 02:14:01 -2.8 C 2.67 g/m*3 -2.8 C 0 km/h
1571 27-12-2008 02:26:01 -2.8 C 2.67 g/m*3 -2.8 C 0 km/h
1572 27-12-2008 02:38:02 -2.9 C 2.65 g/m*3 -2.9 C 0 km/h
1573 27-12-2008 02:50:19 -2.7 C 2.69 g/m*3 -2.7 C 0 km/h
1574 27-12-2008 03:02:19 -2.7 C 2.69 g/m*3 -2.7 C 0 km/h
1575 27-12-2008 03:14:18 -2.7 C 2.69 g/m*3 -2.7 C 0 km/h
Sensor: Nr:Datum:Temp:Abs-Feuchte:Windchill:Wind:
Aussen-T/F 1576 27-12-2008 03:26:18 -2.7 C 2.65 g/m*3 -2.7 C 0 km/h
1577 27-12-2008 03:38:18 -2.7 C 2.65 g/m*3 -2.7 C 0 km/h
1578 27-12-2008 03:50:19 -2.8 C 2.67 g/m*3 -2.8 C 0 km/h
1579 27-12-2008 04:02:18 -2.7 C 2.65 g/m*3 -2.7 C 0 km/h
1580 27-12-2008 04:14:18 -2.5 C 2.69 g/m*3 -2.5 C 0 km/h
1581 27-12-2008 04:26:18 -2.5 C 2.65 g/m*3 -2.5 C 0 km/h
1582 27-12-2008 04:38:18 -2.5 C 2.65 g/m*3 -2.5 C 0 km/h
1583 27-12-2008 04:50:18 -2.5 C 2.65 g/m*3 -2.5 C 0 km/h
1584 27-12-2008 05:02:18 -2.5 C 2.65 g/m*3 -2.5 C 0 km/h
1585 27-12-2008 05:14:17 -2.4 C 2.62 g/m*3 -2.4 C 0 km/h
1586 27-12-2008 05:26:17 -2.3 C 2.64 g/m*3 -2.3 C 0 km/h
1587 27-12-2008 05:38:18 -2.3 C 2.6 g/m*3 -2.3 C 0 km/h
1588 27-12-2008 05:50:17 -2.3 C 2.56 g/m*3 -2.3 C 0 km/h
1589 27-12-2008 06:02:18 -2.3 C 2.6 g/m*3 -2.3 C 0 km/h
1590 27-12-2008 06:14:17 -2.3 C 2.6 g/m*3 -2.3 C 0 km/h
1591 27-12-2008 06:26:17 -2.3 C 2.6 g/m*3 -2.3 C 0 km/h
1592 27-12-2008 06:38:17 -2.3 C 2.56 g/m*3 -2.3 C 0 km/h
1593 27-12-2008 06:50:16 -2.3 C 2.56 g/m*3 -2.3 C 0 km/h
1594 27-12-2008 07:02:17 -2.4 C 2.54 g/m*3 -2.4 C 0 km/h
1595 27-12-2008 07:14:16 -2.3 C 2.52 g/m*3 -2.3 C 0 km/h
1596 27-12-2008 07:26:16 -2.3 C 2.52 g/m*3 -2.3 C 0 km/h
1597 27-12-2008 07:38:16 -2.1 C 2.6 g/m*3 -2.1 C 0 km/h
1598 27-12-2008 07:50:16 -2.3 C 2.56 g/m*3 -2.3 C 0 km/h
1599 27-12-2008 08:02:16 -2.4 C 2.54 g/m*3 -2.4 C 0 km/h
1600 27-12-2008 08:14:16 -2.4 C 2.54 g/m*3 -2.4 C 0 km/h
Sensor: Nr:Datum:Temp:Abs-Feuchte:Windchill:Wind:
Aussen-T/F 1601 27-12-2008 08:26:16 -2.4 C 2.54 g/m*3 -2.4 C 0 km/h
1602 27-12-2008 08:38:16 -2.3 C 2.56 g/m*3 -2.3 C 0 km/h
1603 27-12-2008 08:50:16 -2.1 C 2.55 g/m*3 -2.1 C 0 km/h
1604 27-12-2008 09:02:15 -2.1 C 2.55 g/m*3 -2.1 C 0 km/h
1605 27-12-2008 09:14:15 -2 C 2.53 g/m*3 -2 C 0 km/h
1606 27-12-2008 09:26:16 -2 C 2.49 g/m*3 -2 C 0 km/h
1607 27-12-2008 09:38:15 -1.9 C 2.46 g/m*3 -1.9 C 0 km/h
1608 27-12-2008 09:50:16 -1.7 C 2.5 g/m*3 -1.7 C 0 km/h
1609 27-12-2008 10:02:16 -1.7 C 2.45 g/m*3 -1.7 C 0 km/h
1610 27-12-2008 10:14:14 -1.6 C 2.47 g/m*3 -1.6 C 0 km/h
1611 27-12-2008 10:26:14 -1.4 C 2.46 g/m*3 -1.4 C 0 km/h
1612 27-12-2008 10:38:15 -1.3 C 2.43 g/m*3 -1.3 C 0 km/h
1613 27-12-2008 10:50:14 -1.2 C 2.45 g/m*3 -1.2 C 0 km/h
1614 27-12-2008 11:02:15 -1 C 2.49 g/m*3 -1 C 0 km/h
1615 27-12-2008 11:14:14 -1 C 2.49 g/m*3 -1 C 0 km/h
1616 27-12-2008 11:26:14 -0.8 C 2.48 g/m*3 -0.8 C 0 km/h
1617 27-12-2008 11:38:15 -0.6 C 2.51 g/m*3 -0.6 C 0 km/h
1618 27-12-2008 11:50:14 -0.6 C 2.46 g/m*3 -0.6 C 0 km/h
1619 27-12-2008 12:02:14 -0.6 C 2.42 g/m*3 -0.6 C 0 km/h
1620 27-12-2008 12:14:14 -0.4 C 2.45 g/m*3 -0.4 C 0 km/h
1621 27-12-2008 12:26:14 -0.2 C 2.48 g/m*3 -0.2 C 0 km/h
1622 27-12-2008 12:38:13 0 C 2.47 g/m*3 0 C 0 km/h
1623 27-12-2008 12:50:14 0 C 2.47 g/m*3 0 C 0 km/h
1624 27-12-2008 13:02:13 -0.1 C 2.41 g/m*3 -0.1 C 0 km/h
1625 27-12-2008 13:14:13 -0.2 C 2.44 g/m*3 -0.2 C 0 km/h
Sensor: Nr:Datum:Temp:Abs-Feuchte:Windchill:Wind:
Aussen-T/F 1626 27-12-2008 13:26:13 -0.3 C 2.42 g/m*3 -0.3 C 0 km/h
1627 27-12-2008 13:38:13 -0.4 C 2.4 g/m*3 -0.4 C 0 km/h
1628 27-12-2008 13:50:13 -0.5 C 2.39 g/m*3 -0.5 C 0 km/h
1629 27-12-2008 14:02:13 -0.6 C 2.37 g/m*3 -0.6 C 0 km/h
1630 27-12-2008 14:14:12 -0.7 C 2.35 g/m*3 -0.7 C 0 km/h
1631 27-12-2008 14:26:12 -0.7 C 2.4 g/m*3 -0.7 C 0 km/h
1632 27-12-2008 14:38:13 -0.7 C 2.4 g/m*3 -0.7 C 0 km/h
1633 27-12-2008 14:50:12 -0.8 C 2.38 g/m*3 -0.8 C 0 km/h
1634 27-12-2008 15:02:12 -0.7 C 2.45 g/m*3 -0.7 C 0 km/h
1635 27-12-2008 15:14:12 -0.6 C 2.46 g/m*3 -0.6 C 0 km/h
1636 27-12-2008 15:26:12 -0.6 C 2.46 g/m*3 -0.6 C 0 km/h
1637 27-12-2008 15:38:12 -0.8 C 2.43 g/m*3 -0.8 C 0 km/h
1638 27-12-2008 15:50:11 -0.9 C 2.46 g/m*3 -0.9 C 0 km/h
1639 27-12-2008 16:02:12 -1 C 2.49 g/m*3 -1 C 0 km/h
1640 27-12-2008 16:14:12 -1.1 C 2.47 g/m*3 -1.1 C 0 km/h
1641 27-12-2008 16:26:12 -1.1 C 2.47 g/m*3 -1.1 C 0 km/h
1642 27-12-2008 16:38:11 -1.2 C 2.45 g/m*3 -1.2 C 0 km/h
1643 27-12-2008 16:50:12 -1.3 C 2.43 g/m*3 -1.3 C 0 km/h
1644 27-12-2008 17:02:11 -1.3 C 2.48 g/m*3 -1.3 C 0 km/h
1645 27-12-2008 17:14:11 -1.2 C 2.5 g/m*3 -1.2 C 0 km/h
1646 27-12-2008 17:26:11 -1.2 C 2.5 g/m*3 -1.2 C 0 km/h
1647 27-12-2008 17:38:11 -1.3 C 2.48 g/m*3 -1.3 C 0 km/h
1648 27-12-2008 17:50:37 -1.4 C 2.51 g/m*3 -1.4 C 0 km/h
1649 27-12-2008 18:02:37 -1.4 C 2.51 g/m*3 -1.4 C 0 km/h
1650 27-12-2008 18:14:38 -1.4 C 2.51 g/m*3 -1.4 C 0 km/h
Sensor: Nr:Datum:Temp:Abs-Feuchte:Windchill:Wind:
Aussen-T/F 1651 27-12-2008 18:26:38 -1.4 C 2.51 g/m*3 -1.4 C 0 km/h
1652 27-12-2008 18:38:38 -1.4 C 2.51 g/m*3 -1.4 C 0 km/h
1653 27-12-2008 18:50:38 -1.4 C 2.51 g/m*3 -1.4 C 0 km/h
1654 27-12-2008 19:02:38 -1.4 C 2.55 g/m*3 -1.4 C 0 km/h
1655 27-12-2008 19:14:38 -1.5 C 2.53 g/m*3 -1.5 C 0 km/h
1656 27-12-2008 19:26:02 -1.6 C 2.51 g/m*3 -1.6 C 0 km/h
1657 27-12-2008 19:38:01 -1.6 C 2.56 g/m*3 -1.6 C 0 km/h
1658 27-12-2008 19:50:01 -1.6 C 2.56 g/m*3 -1.6 C 0 km/h
1659 27-12-2008 20:02:01 -1.6 C 2.6 g/m*3 -1.6 C 0 km/h
1660 27-12-2008 20:14:01 -1.6 C 2.6 g/m*3 -1.6 C 0 km/h
1661 27-12-2008 20:26:00 -1.8 C 2.56 g/m*3 -1.8 C 0 km/h
1662 27-12-2008 20:38:00 -1.9 C 2.59 g/m*3 -1.9 C 0 km/h
1663 27-12-2008 20:50:00 -2 C 2.57 g/m*3 -2 C 0 km/h
1664 27-12-2008 21:02:00 -1.9 C 2.59 g/m*3 -1.9 C 0 km/h
1665 27-12-2008 21:14:00 -2 C 2.57 g/m*3 -2 C 0 km/h
1666 27-12-2008 21:26:00 -2.1 C 2.6 g/m*3 -2.1 C 0 km/h
1667 27-12-2008 21:38:00 -2.2 C 2.62 g/m*3 -2.2 C 0 km/h
1668 27-12-2008 21:50:00 -2.2 C 2.58 g/m*3 -2.2 C 0 km/h
1669 27-12-2008 22:02:59 -2.3 C 2.6 g/m*3 -2.3 C 0 km/h
1670 27-12-2008 22:14:00 -2.4 C 2.58 g/m*3 -2.4 C 0 km/h
1671 27-12-2008 22:26:00 -2.5 C 2.56 g/m*3 -2.5 C 0 km/h
1672 27-12-2008 22:38:59 -2.7 C 2.57 g/m*3 -2.7 C 0 km/h
1673 27-12-2008 22:50:59 -2.8 C 2.59 g/m*3 -2.8 C 0 km/h
1674 27-12-2008 23:02:00 -2.9 C 2.57 g/m*3 -2.9 C 0 km/h
1675 27-12-2008 23:14:00 -3 C 2.55 g/m*3 -3 C 0 km/h
Sensor: Nr:Datum:Temp:Abs-Feuchte:Windchill:Wind:
Aussen-T/F 1676 27-12-2008 23:26:59 -3.1 C 2.57 g/m*3 -3.1 C 0 km/h
1677 27-12-2008 23:38:59 -3.2 C 2.56 g/m*3 -3.2 C 0 km/h
1678 27-12-2008 23:50:59 -3.3 C 2.58 g/m*3 -3.3 C 0 km/h
1679 28-12-2008 00:02:59 -3.2 C 2.59 g/m*3 -3.2 C 0 km/h
1680 28-12-2008 00:14:59 -3.2 C 2.59 g/m*3 -3.2 C 0 km/h
1681 28-12-2008 00:26:59 -3.1 C 2.57 g/m*3 -3.1 C 0 km/h
1682 28-12-2008 00:38:58 -3.1 C 2.57 g/m*3 -3.1 C 0 km/h
1683 28-12-2008 00:50:59 -3 C 2.55 g/m*3 -3 C 0 km/h
1684 28-12-2008 01:02:58 -3 C 2.55 g/m*3 -3 C 0 km/h
1685 28-12-2008 01:14:58 -3.1 C 2.54 g/m*3 -3.1 C 0 km/h
1686 28-12-2008 01:26:58 -3.1 C 2.54 g/m*3 -3.1 C 0 km/h
1687 28-12-2008 01:38:57 -3.1 C 2.54 g/m*3 -3.1 C 0 km/h
1688 28-12-2008 01:50:58 -3.4 C 2.48 g/m*3 -3.4 C 0 km/h
1689 28-12-2008 02:02:57 -3.5 C 2.5 g/m*3 -3.5 C 0 km/h
1690 28-12-2008 02:14:57 -3.7 C 2.47 g/m*3 -3.7 C 0 km/h
1691 28-12-2008 02:26:57 -3.7 C 2.5 g/m*3 -3.7 C 0 km/h
1692 28-12-2008 02:38:57 -3.5 C 2.54 g/m*3 -3.5 C 0 km/h
1693 28-12-2008 02:51:58 -3.4 C 2.56 g/m*3 -3.4 C 0 km/h
1694 28-12-2008 03:03:58 -3.7 C 2.5 g/m*3 -3.7 C 0 km/h
1695 28-12-2008 03:15:58 -3.6 C 2.56 g/m*3 -3.6 C 0 km/h
1696 28-12-2008 03:27:58 -3.5 C 2.58 g/m*3 -3.5 C 0 km/h
1697 28-12-2008 03:39:58 -3.3 C 2.61 g/m*3 -3.3 C 0 km/h
1698 28-12-2008 03:51:58 -3.3 C 2.58 g/m*3 -3.3 C 0 km/h
1699 28-12-2008 04:03:58 -3.1 C 2.57 g/m*3 -3.1 C 0 km/h
1700 28-12-2008 04:15:58 -3.1 C 2.54 g/m*3 -3.1 C 0 km/h
Sensor: Nr:Datum:Temp:Abs-Feuchte:Windchill:Wind:
Aussen-T/F 1701 28-12-2008 04:27:58 -3 C 2.55 g/m*3 -3 C 0 km/h
1702 28-12-2008 04:39:58 -2.8 C 2.55 g/m*3 -2.8 C 0 km/h
1703 28-12-2008 04:51:58 -2.6 C 2.55 g/m*3 -2.6 C 0 km/h
1704 28-12-2008 05:03:57 -2.6 C 2.51 g/m*3 -2.6 C 0 km/h
1705 28-12-2008 05:15:57 -2.5 C 2.52 g/m*3 -2.5 C 0 km/h
1706 28-12-2008 05:27:57 -2.4 C 2.5 g/m*3 -2.4 C 0 km/h
1707 28-12-2008 05:39:57 -2.4 C 2.5 g/m*3 -2.4 C 0 km/h
1708 28-12-2008 05:51:56 -2.5 C 2.48 g/m*3 -2.5 C 0 km/h
1709 28-12-2008 06:03:57 -2.5 C 2.48 g/m*3 -2.5 C 0 km/h
1710 28-12-2008 06:15:57 -2.7 C 2.45 g/m*3 -2.7 C 0 km/h
1711 28-12-2008 06:27:57 -2.7 C 2.45 g/m*3 -2.7 C 0 km/h
1712 28-12-2008 06:39:56 -2.8 C 2.47 g/m*3 -2.8 C 0 km/h
1713 28-12-2008 06:51:57 -2.7 C 2.45 g/m*3 -2.7 C 0 km/h
1714 28-12-2008 07:03:56 -2.5 C 2.48 g/m*3 -2.5 C 0 km/h
1715 28-12-2008 07:15:56 -2.7 C 2.45 g/m*3 -2.7 C 0 km/h
1716 28-12-2008 07:27:56 -2.8 C 2.43 g/m*3 -2.8 C 0 km/h
1717 28-12-2008 07:39:56 -3.1 C 2.38 g/m*3 -3.1 C 0 km/h
1718 28-12-2008 07:51:56 -3.5 C 2.35 g/m*3 -3.5 C 0 km/h
1719 28-12-2008 08:03:55 -3.7 C 2.43 g/m*3 -3.7 C 0 km/h
1720 28-12-2008 08:15:55 -4 C 2.38 g/m*3 -4 C 0 km/h
1721 28-12-2008 08:27:55 -4.1 C 2.43 g/m*3 -4.1 C 0 km/h
1722 28-12-2008 08:39:55 -4.2 C 2.45 g/m*3 -4.2 C 0 km/h
1723 28-12-2008 08:51:55 -4.3 C 2.43 g/m*3 -4.3 C 0 km/h
1724 28-12-2008 09:03:55 -4.2 C 2.49 g/m*3 -4.2 C 0 km/h
1725 28-12-2008 09:15:55 -4.2 C 2.49 g/m*3 -4.2 C 0 km/h
Sensor: Nr:Datum:Temp:Abs-Feuchte:Windchill:Wind:
Aussen-T/F 1726 28-12-2008 09:27:55 -4.1 C 2.51 g/m*3 -4.1 C 0 km/h
1727 28-12-2008 09:39:55 -4.1 C 2.51 g/m*3 -4.1 C 0 km/h
1728 28-12-2008 09:51:54 -3.9 C 2.54 g/m*3 -3.9 C 0 km/h
1729 28-12-2008 10:03:55 -3.5 C 2.58 g/m*3 -3.5 C 0 km/h
1730 28-12-2008 10:15:54 -3.2 C 2.56 g/m*3 -3.2 C 0 km/h
1731 28-12-2008 10:27:54 -2.9 C 2.53 g/m*3 -2.9 C 0 km/h
1732 28-12-2008 10:39:54 -2.8 C 2.51 g/m*3 -2.8 C 0 km/h
1733 28-12-2008 10:51:54 -2.7 C 2.49 g/m*3 -2.7 C 0 km/h
1734 28-12-2008 11:03:54 -2.7 C 2.49 g/m*3 -2.7 C 0 km/h
1735 28-12-2008 11:15:54 -2.5 C 2.48 g/m*3 -2.5 C 0 km/h
1736 28-12-2008 11:27:54 -2.4 C 2.5 g/m*3 -2.4 C 0 km/h
1737 28-12-2008 11:39:53 -2.4 C 2.5 g/m*3 -2.4 C 0 km/h
1738 28-12-2008 11:51:54 -2 C 2.53 g/m*3 -2 C 0 km/h
1739 28-12-2008 12:03:53 -2 C 2.53 g/m*3 -2 C 0 km/h
1740 28-12-2008 12:15:53 -1.9 C 2.5 g/m*3 -1.9 C 0 km/h
1741 28-12-2008 12:27:53 -1.8 C 2.48 g/m*3 -1.8 C 0 km/h
1742 28-12-2008 12:39:53 -1.7 C 2.5 g/m*3 -1.7 C 0 km/h
1743 28-12-2008 12:51:53 -1.4 C 2.51 g/m*3 -1.4 C 0 km/h
1744 28-12-2008 13:03:52 -1.4 C 2.51 g/m*3 -1.4 C 0 km/h
1745 28-12-2008 13:15:53 -1.3 C 2.48 g/m*3 -1.3 C 0 km/h
1746 28-12-2008 13:27:53 -1.3 C 2.48 g/m*3 -1.3 C 0 km/h
1747 28-12-2008 13:39:53 -1.2 C 2.5 g/m*3 -1.2 C 0 km/h
1748 28-12-2008 13:51:52 -1.1 C 2.51 g/m*3 -1.1 C 0 km/h
1749 28-12-2008 14:03:53 -1.1 C 2.47 g/m*3 -1.1 C 0 km/h
1750 28-12-2008 14:15:52 -1.1 C 2.47 g/m*3 -1.1 C 0 km/h
Sensor: Nr:Datum:Temp:Abs-Feuchte:Windchill:Wind:
Aussen-T/F 1751 28-12-2008 14:27:52 -1.1 C 2.51 g/m*3 -1.1 C 0 km/h
1752 28-12-2008 14:39:52 -1.2 C 2.5 g/m*3 -1.2 C 0 km/h
1753 28-12-2008 14:51:52 -1.5 C 2.53 g/m*3 -1.5 C 0 km/h
1754 28-12-2008 15:03:52 -1.4 C 2.55 g/m*3 -1.4 C 0 km/h
1755 28-12-2008 15:15:51 -1.4 C 2.51 g/m*3 -1.4 C 0 km/h
1756 28-12-2008 15:27:51 -1.3 C 2.52 g/m*3 -1.3 C 0 km/h
1757 28-12-2008 15:39:51 -1.2 C 2.54 g/m*3 -1.2 C 0 km/h
1758 28-12-2008 15:51:51 -1.3 C 2.52 g/m*3 -1.3 C 0 km/h
1759 28-12-2008 16:03:51 -1.6 C 2.51 g/m*3 -1.6 C 0 km/h
1760 28-12-2008 16:15:51 -1.6 C 2.47 g/m*3 -1.6 C 0 km/h
1761 28-12-2008 16:27:51 -1.9 C 2.46 g/m*3 -1.9 C 0 km/h
1762 28-12-2008 16:39:51 -2.4 C 2.42 g/m*3 -2.4 C 0 km/h
1763 28-12-2008 16:51:51 -2.2 C 2.49 g/m*3 -2.2 C 0 km/h
1764 28-12-2008 17:03:50 -2.5 C 2.48 g/m*3 -2.5 C 0 km/h
1765 28-12-2008 17:15:51 -2.7 C 2.49 g/m*3 -2.7 C 0 km/h
1766 28-12-2008 17:27:51 -2.8 C 2.51 g/m*3 -2.8 C 0 km/h
1767 28-12-2008 17:39:50 -2.9 C 2.53 g/m*3 -2.9 C 0 km/h
1768 28-12-2008 17:51:50 -3.1 C 2.54 g/m*3 -3.1 C 0 km/h
1769 28-12-2008 18:03:50 -3.2 C 2.52 g/m*3 -3.2 C 0 km/h
1770 28-12-2008 18:15:50 -3.3 C 2.54 g/m*3 -3.3 C 0 km/h
1771 28-12-2008 18:27:50 -3.3 C 2.58 g/m*3 -3.3 C 0 km/h
1772 28-12-2008 18:39:50 -3.3 C 2.58 g/m*3 -3.3 C 0 km/h
1773 28-12-2008 18:51:49 -3.3 C 2.58 g/m*3 -3.3 C 0 km/h
1774 28-12-2008 19:03:50 -3.5 C 2.54 g/m*3 -3.5 C 0 km/h
1775 28-12-2008 19:15:50 -3.5 C 2.58 g/m*3 -3.5 C 0 km/h
Sensor: Nr:Datum:Temp:Abs-Feuchte:Windchill:Wind:
Aussen-T/F 1776 28-12-2008 19:27:50 -3.4 C 2.6 g/m*3 -3.4 C 0 km/h
1777 28-12-2008 19:39:49 -3.6 C 2.56 g/m*3 -3.6 C 0 km/h
1778 28-12-2008 19:51:49 -3.4 C 2.6 g/m*3 -3.4 C 0 km/h
1779 28-12-2008 20:03:49 -3.5 C 2.58 g/m*3 -3.5 C 0 km/h
1780 28-12-2008 20:15:49 -3.7 C 2.58 g/m*3 -3.7 C 0 km/h
1781 28-12-2008 20:27:49 -3.9 C 2.54 g/m*3 -3.9 C 0 km/h
1782 28-12-2008 20:39:48 -4 C 2.56 g/m*3 -4 C 0 km/h
1783 28-12-2008 20:51:49 -3.9 C 2.62 g/m*3 -3.9 C 0 km/h
1784 28-12-2008 21:03:48 -4 C 2.6 g/m*3 -4 C 0 km/h
1785 28-12-2008 21:15:48 -4.1 C 2.58 g/m*3 -4.1 C 0 km/h
1786 28-12-2008 21:27:48 -4.3 C 2.54 g/m*3 -4.3 C 0 km/h
1787 28-12-2008 21:39:48 -4.4 C 2.56 g/m*3 -4.4 C 0 km/h
1788 28-12-2008 21:51:48 -4.5 C 2.58 g/m*3 -4.5 C 0 km/h
1789 28-12-2008 22:03:47 -4.5 C 2.61 g/m*3 -4.5 C 0 km/h
1790 28-12-2008 22:15:47 -4.6 C 2.59 g/m*3 -4.6 C 0 km/h
1791 28-12-2008 22:27:47 -4.6 C 2.59 g/m*3 -4.6 C 0 km/h
1792 28-12-2008 22:39:48 -4.8 C 2.59 g/m*3 -4.8 C 0 km/h
1793 28-12-2008 22:51:47 -4.8 C 2.59 g/m*3 -4.8 C 0 km/h
1794 28-12-2008 23:03:47 -4.8 C 2.59 g/m*3 -4.8 C 0 km/h
1795 28-12-2008 23:15:47 -5.1 C 2.54 g/m*3 -5.1 C 0 km/h
1796 28-12-2008 23:27:47 -5.2 C 2.55 g/m*3 -5.2 C 0 km/h
1797 28-12-2008 23:39:47 -5 C 2.59 g/m*3 -5 C 0 km/h
1798 28-12-2008 23:51:46 -5.2 C 2.58 g/m*3 -5.2 C 0 km/h
1799 29-12-2008 00:03:47 -5.2 C 2.58 g/m*3 -5.2 C 0 km/h
1800 29-12-2008 00:15:46 -5.3 C 2.57 g/m*3 -5.3 C 0 km/h
Sensor: Nr:Datum:Temp:Abs-Feuchte:Windchill:Wind:
Aussen-T/F 1801 29-12-2008 00:27:46 -5.2 C 2.58 g/m*3 -5.2 C 0 km/h
1802 29-12-2008 00:39:46 -5.3 C 2.57 g/m*3 -5.3 C 0 km/h
1803 29-12-2008 00:51:46 -5.3 C 2.57 g/m*3 -5.3 C 0 km/h
1804 29-12-2008 01:03:46 -5.5 C 2.53 g/m*3 -5.5 C 0 km/h
1805 29-12-2008 01:15:45 -5.5 C 2.53 g/m*3 -5.5 C 0 km/h
1806 29-12-2008 01:27:45 -5.6 C 2.54 g/m*3 -5.6 C 0 km/h
1807 29-12-2008 01:39:46 -5.7 C 2.52 g/m*3 -5.7 C 0 km/h
1808 29-12-2008 01:51:45 -5.8 C 2.51 g/m*3 -5.8 C 0 km/h
1809 29-12-2008 02:03:45 -5.7 C 2.56 g/m*3 -5.7 C 0 km/h
1810 29-12-2008 02:15:46 -5.7 C 2.56 g/m*3 -5.7 C 0 km/h
1811 29-12-2008 02:27:46 -6 C 2.5 g/m*3 -6 C 0 km/h
1812 29-12-2008 02:39:45 -6.1 C 2.48 g/m*3 -6.1 C 0 km/h
1813 29-12-2008 02:52:47 -6.2 C 2.47 g/m*3 -6.2 C 0 km/h
1814 29-12-2008 03:04:47 -6.2 C 2.5 g/m*3 -6.2 C 0 km/h
1815 29-12-2008 03:16:47 -6.2 C 2.5 g/m*3 -6.2 C 0 km/h
1816 29-12-2008 03:28:47 -6.1 C 2.55 g/m*3 -6.1 C 0 km/h
1817 29-12-2008 03:40:46 -6.2 C 2.53 g/m*3 -6.2 C 0 km/h
1818 29-12-2008 03:52:46 -6.2 C 2.53 g/m*3 -6.2 C 0 km/h
1819 29-12-2008 04:04:46 -6.2 C 2.53 g/m*3 -6.2 C 0 km/h
1820 29-12-2008 04:16:47 -6.4 C 2.49 g/m*3 -6.4 C 0 km/h
1821 29-12-2008 04:28:47 -6.4 C 2.49 g/m*3 -6.4 C 0 km/h
1822 29-12-2008 04:40:46 -6.4 C 2.52 g/m*3 -6.4 C 0 km/h
1823 29-12-2008 04:52:46 -6.5 C 2.5 g/m*3 -6.5 C 0 km/h
1824 29-12-2008 05:04:46 -6.5 C 2.5 g/m*3 -6.5 C 0 km/h
1825 29-12-2008 05:16:45 -6.7 C 2.47 g/m*3 -6.7 C 0 km/h
Sensor: Nr:Datum:Temp:Abs-Feuchte:Windchill:Wind:
Aussen-T/F 1826 29-12-2008 05:28:45 -6.8 C 2.45 g/m*3 -6.8 C 0 km/h
1827 29-12-2008 05:40:46 -6.9 C 2.43 g/m*3 -6.9 C 0 km/h
1828 29-12-2008 05:52:46 -6.9 C 2.43 g/m*3 -6.9 C 0 km/h
1829 29-12-2008 06:04:45 -7.1 C 2.4 g/m*3 -7.1 C 0 km/h
1830 29-12-2008 06:16:45 -7.1 C 2.4 g/m*3 -7.1 C 0 km/h
1831 29-12-2008 06:28:46 -6.9 C 2.46 g/m*3 -6.9 C 0 km/h
1832 29-12-2008 06:40:44 -7 C 2.44 g/m*3 -7 C 0 km/h
1833 29-12-2008 06:52:45 -7.1 C 2.43 g/m*3 -7.1 C 0 km/h
1834 29-12-2008 07:04:44 -7.2 C 2.41 g/m*3 -7.2 C 0 km/h
1835 29-12-2008 07:16:44 -7.3 C 2.39 g/m*3 -7.3 C 0 km/h
1836 29-12-2008 07:28:44 -7.4 C 2.37 g/m*3 -7.4 C 0 km/h
1837 29-12-2008 07:40:45 -7.7 C 2.32 g/m*3 -7.7 C 0 km/h
1838 29-12-2008 07:52:44 -7.8 C 2.3 g/m*3 -7.8 C 0 km/h
1839 29-12-2008 08:04:44 -7.7 C 2.32 g/m*3 -7.7 C 0 km/h
1840 29-12-2008 08:16:44 -7.6 C 2.37 g/m*3 -7.6 C 0 km/h
1841 29-12-2008 08:28:44 -7.7 C 2.35 g/m*3 -7.7 C 0 km/h
1842 29-12-2008 08:40:44 -7.7 C 2.35 g/m*3 -7.7 C 0 km/h
1843 29-12-2008 08:52:44 -7.8 C 2.33 g/m*3 -7.8 C 0 km/h
1844 29-12-2008 09:04:43 -7.9 C 2.31 g/m*3 -7.9 C 0 km/h
1845 29-12-2008 09:16:44 -7.7 C 2.35 g/m*3 -7.7 C 0 km/h
1846 29-12-2008 09:28:44 -7.6 C 2.39 g/m*3 -7.6 C 0 km/h
1847 29-12-2008 09:40:43 -7.5 C 2.41 g/m*3 -7.5 C 0 km/h
1848 29-12-2008 09:52:43 -7.4 C 2.43 g/m*3 -7.4 C 0 km/h
1849 29-12-2008 10:04:43 -7.2 C 2.47 g/m*3 -7.2 C 0 km/h
1850 29-12-2008 10:16:43 -7 C 2.5 g/m*3 -7 C 0 km/h
Sensor: Nr:Datum:Temp:Abs-Feuchte:Windchill:Wind:
Aussen-T/F 1851 29-12-2008 10:28:43 -6.9 C 2.52 g/m*3 -6.9 C 0 km/h
1852 29-12-2008 10:40:42 -6.6 C 2.61 g/m*3 -6.6 C 0 km/h
1853 29-12-2008 10:52:42 -6.3 C 2.66 g/m*3 -6.3 C 0 km/h
1854 29-12-2008 11:04:43 -6.2 C 2.68 g/m*3 -6.2 C 0 km/h
1855 29-12-2008 11:16:42 -6.1 C 2.7 g/m*3 -6.1 C 0 km/h
1856 29-12-2008 11:28:42 -5.7 C 2.78 g/m*3 -5.7 C 0 km/h
1857 29-12-2008 11:40:42 -5.5 C 2.82 g/m*3 -5.5 C 0 km/h
1858 29-12-2008 11:52:42 -5.3 C 2.87 g/m*3 -5.3 C 0 km/h
1859 29-12-2008 12:04:41 -5.1 C 2.87 g/m*3 -5.1 C 0 km/h
1860 29-12-2008 12:16:42 -4.9 C 2.92 g/m*3 -4.9 C 0 km/h
1861 29-12-2008 12:28:42 -4.7 C 2.92 g/m*3 -4.7 C 0 km/h
1862 29-12-2008 12:40:42 -4.5 C 2.93 g/m*3 -4.5 C 0 km/h
1863 29-12-2008 12:52:41 -4.3 C 2.9 g/m*3 -4.3 C 0 km/h
1864 29-12-2008 13:04:42 -4 C 2.89 g/m*3 -4 C 0 km/h
1865 29-12-2008 13:16:41 -3.8 C 2.89 g/m*3 -3.8 C 0 km/h
1866 29-12-2008 13:28:41 -3.6 C 2.86 g/m*3 -3.6 C 0 km/h
1867 29-12-2008 13:40:41 -3.4 C 2.83 g/m*3 -3.4 C 0 km/h
1868 29-12-2008 13:52:41 -3.1 C 2.85 g/m*3 -3.1 C 0 km/h
1869 29-12-2008 14:04:41 -3 C 2.79 g/m*3 -3 C 0 km/h
1870 29-12-2008 14:16:40 -2.9 C 2.81 g/m*3 -2.9 C 0 km/h
1871 29-12-2008 14:28:40 -2.7 C 2.81 g/m*3 -2.7 C 0 km/h
1872 29-12-2008 14:40:41 -2.7 C 2.77 g/m*3 -2.7 C 0 km/h
1873 29-12-2008 14:52:41 -2.8 C 2.75 g/m*3 -2.8 C 0 km/h
1874 29-12-2008 15:04:40 -2.7 C 2.77 g/m*3 -2.7 C 0 km/h
1875 29-12-2008 15:16:40 -2.6 C 2.79 g/m*3 -2.6 C 0 km/h
Sensor: Nr:Datum:Temp:Abs-Feuchte:Windchill:Wind:
Aussen-T/F 1876 29-12-2008 15:28:40 -2.8 C 2.75 g/m*3 -2.8 C 0 km/h
1877 29-12-2008 15:40:40 -2.8 C 2.79 g/m*3 -2.8 C 0 km/h
1878 29-12-2008 15:52:40 -3 C 2.75 g/m*3 -3 C 0 km/h
1879 29-12-2008 16:04:40 -3 C 2.79 g/m*3 -3 C 0 km/h
1880 29-12-2008 16:16:39 -3.1 C 2.81 g/m*3 -3.1 C 0 km/h
1881 29-12-2008 16:28:39 -3.3 C 2.77 g/m*3 -3.3 C 0 km/h
1882 29-12-2008 16:40:38 -3.4 C 2.79 g/m*3 -3.4 C 0 km/h
1883 29-12-2008 16:52:38 -3.5 C 2.77 g/m*3 -3.5 C 0 km/h
1884 29-12-2008 17:04:38 -3.5 C 2.77 g/m*3 -3.5 C 0 km/h
1885 29-12-2008 17:16:38 -3.7 C 2.73 g/m*3 -3.7 C 0 km/h
1886 29-12-2008 17:28:38 -3.9 C 2.69 g/m*3 -3.9 C 0 km/h
1887 29-12-2008 17:40:38 -4 C 2.71 g/m*3 -4 C 0 km/h
1888 29-12-2008 17:52:38 -4 C 2.74 g/m*3 -4 C 0 km/h
1889 29-12-2008 18:04:38 -4.1 C 2.76 g/m*3 -4.1 C 0 km/h
1890 29-12-2008 18:16:38 -4.3 C 2.72 g/m*3 -4.3 C 0 km/h
1891 29-12-2008 18:28:38 -4.2 C 2.74 g/m*3 -4.2 C 0 km/h
1892 29-12-2008 18:40:37 -4.2 C 2.74 g/m*3 -4.2 C 0 km/h
1893 29-12-2008 18:52:37 -4.4 C 2.7 g/m*3 -4.4 C 0 km/h
1894 29-12-2008 19:04:37 -4.5 C 2.68 g/m*3 -4.5 C 0 km/h
1895 29-12-2008 19:16:37 -4.6 C 2.7 g/m*3 -4.6 C 0 km/h
1896 29-12-2008 19:28:37 -4.7 C 2.68 g/m*3 -4.7 C 0 km/h
1897 29-12-2008 19:40:37 -4.9 C 2.64 g/m*3 -4.9 C 0 km/h
1898 29-12-2008 19:52:37 -4.9 C 2.68 g/m*3 -4.9 C 0 km/h
1899 29-12-2008 20:04:37 -4.9 C 2.68 g/m*3 -4.9 C 0 km/h
1900 29-12-2008 20:16:36 -5.2 C 2.62 g/m*3 -5.2 C 0 km/h
Sensor: Nr:Datum:Temp:Abs-Feuchte:Windchill:Wind:
Aussen-T/F 1901 29-12-2008 20:28:36 -5.2 C 2.65 g/m*3 -5.2 C 0 km/h
1902 29-12-2008 20:40:37 -5.3 C 2.63 g/m*3 -5.3 C 0 km/h
1903 29-12-2008 20:52:36 -5.4 C 2.61 g/m*3 -5.4 C 0 km/h
1904 29-12-2008 21:04:36 -5.5 C 2.59 g/m*3 -5.5 C 0 km/h
1905 29-12-2008 21:16:36 -5.6 C 2.61 g/m*3 -5.6 C 0 km/h
1906 29-12-2008 21:28:36 -5.8 C 2.57 g/m*3 -5.8 C 0 km/h
1907 29-12-2008 21:40:36 -5.9 C 2.55 g/m*3 -5.9 C 0 km/h
1908 29-12-2008 21:53:37 -6 C 2.53 g/m*3 -6 C 0 km/h
1909 29-12-2008 22:05:37 -6 C 2.53 g/m*3 -6 C 0 km/h
1910 29-12-2008 22:17:37 -6 C 2.57 g/m*3 -6 C 0 km/h
1911 29-12-2008 22:29:37 -6.1 C 2.55 g/m*3 -6.1 C 0 km/h
1912 29-12-2008 22:41:37 -6 C 2.6 g/m*3 -6 C 0 km/h
1913 29-12-2008 22:53:37 -6.1 C 2.58 g/m*3 -6.1 C 0 km/h
1914 29-12-2008 23:05:38 -6.3 C 2.54 g/m*3 -6.3 C 0 km/h
1915 29-12-2008 23:17:38 -6.4 C 2.52 g/m*3 -6.4 C 0 km/h
1916 29-12-2008 23:29:38 -6.4 C 2.52 g/m*3 -6.4 C 0 km/h
1917 29-12-2008 23:41:38 -6.6 C 2.49 g/m*3 -6.6 C 0 km/h
1918 29-12-2008 23:53:38 -6.8 C 2.45 g/m*3 -6.8 C 0 km/h
1919 30-12-2008 00:05:38 -6.9 C 2.43 g/m*3 -6.9 C 0 km/h
1920 30-12-2008 00:17:38 -6.9 C 2.46 g/m*3 -6.9 C 0 km/h
1921 30-12-2008 00:29:38 -7 C 2.44 g/m*3 -7 C 0 km/h
1922 30-12-2008 00:41:38 -6.8 C 2.51 g/m*3 -6.8 C 0 km/h
1923 30-12-2008 00:53:38 -6.9 C 2.49 g/m*3 -6.9 C 0 km/h
1924 30-12-2008 01:05:38 -7 C 2.47 g/m*3 -7 C 0 km/h
1925 30-12-2008 01:17:38 -7.2 C 2.44 g/m*3 -7.2 C 0 km/h
Sensor: Nr:Datum:Temp:Abs-Feuchte:Windchill:Wind:
Aussen-T/F 1926 30-12-2008 01:29:38 -7.1 C 2.45 g/m*3 -7.1 C 0 km/h
1927 30-12-2008 01:41:38 -7.2 C 2.44 g/m*3 -7.2 C 0 km/h
1928 30-12-2008 01:53:38 -7.2 C 2.44 g/m*3 -7.2 C 0 km/h
1929 30-12-2008 02:05:38 -7.3 C 2.42 g/m*3 -7.3 C 0 km/h
1930 30-12-2008 02:17:38 -7.2 C 2.47 g/m*3 -7.2 C 0 km/h
1931 30-12-2008 02:29:38 -7.3 C 2.45 g/m*3 -7.3 C 0 km/h
1932 30-12-2008 02:41:38 -7.5 C 2.41 g/m*3 -7.5 C 0 km/h
1933 30-12-2008 02:53:39 -7.7 C 2.38 g/m*3 -7.7 C 0 km/h
1934 30-12-2008 03:05:39 -7.7 C 2.38 g/m*3 -7.7 C 0 km/h
1935 30-12-2008 03:17:39 -7.5 C 2.41 g/m*3 -7.5 C 0 km/h
1936 30-12-2008 03:29:39 -7.7 C 2.38 g/m*3 -7.7 C 0 km/h
1937 30-12-2008 03:41:39 -7.8 C 2.36 g/m*3 -7.8 C 0 km/h
1938 30-12-2008 03:53:39 -7.9 C 2.34 g/m*3 -7.9 C 0 km/h
1939 30-12-2008 04:05:39 -8 C 2.32 g/m*3 -8 C 0 km/h
1940 30-12-2008 04:17:39 -8 C 2.32 g/m*3 -8 C 0 km/h
1941 30-12-2008 04:29:39 -8.1 C 2.31 g/m*3 -8.1 C 0 km/h
1942 30-12-2008 04:41:39 -8.2 C 2.29 g/m*3 -8.2 C 0 km/h
1943 30-12-2008 04:53:39 -8.1 C 2.31 g/m*3 -8.1 C 0 km/h
1944 30-12-2008 05:05:39 -8.2 C 2.29 g/m*3 -8.2 C 0 km/h
1945 30-12-2008 05:17:39 -8.2 C 2.26 g/m*3 -8.2 C 0 km/h
1946 30-12-2008 05:29:39 -8.3 C 2.25 g/m*3 -8.3 C 0 km/h
1947 30-12-2008 05:41:39 -8.3 C 2.22 g/m*3 -8.3 C 0 km/h
1948 30-12-2008 05:53:39 -8.3 C 2.22 g/m*3 -8.3 C 0 km/h
1949 30-12-2008 06:05:39 -8.3 C 2.22 g/m*3 -8.3 C 0 km/h
1950 30-12-2008 06:17:39 -8.4 C 2.2 g/m*3 -8.4 C 0 km/h
Sensor: Nr:Datum:Temp:Abs-Feuchte:Windchill:Wind:
Aussen-T/F 1951 30-12-2008 06:29:39 -8.4 C 2.18 g/m*3 -8.4 C 0 km/h
1952 30-12-2008 06:41:39 -8.4 C 2.18 g/m*3 -8.4 C 0 km/h
1953 30-12-2008 06:53:40 -8.3 C 2.19 g/m*3 -8.3 C 0 km/h
1954 30-12-2008 07:05:40 -8.4 C 2.15 g/m*3 -8.4 C 0 km/h
1955 30-12-2008 07:17:40 -8.2 C 2.21 g/m*3 -8.2 C 0 km/h
1956 30-12-2008 07:29:40 -8.3 C 2.17 g/m*3 -8.3 C 0 km/h
1957 30-12-2008 07:41:40 -8.2 C 2.18 g/m*3 -8.2 C 0 km/h
1958 30-12-2008 07:53:40 -8.3 C 2.17 g/m*3 -8.3 C 0 km/h
1959 30-12-2008 08:05:40 -8.5 C 2.13 g/m*3 -8.5 C 0 km/h
1960 30-12-2008 08:17:37 -8.4 C 2.15 g/m*3 -8.4 C 0 km/h
1961 30-12-2008 08:29:37 -8.3 C 2.17 g/m*3 -8.3 C 0 km/h
1962 30-12-2008 08:41:37 -8.3 C 2.17 g/m*3 -8.3 C 0 km/h
1963 30-12-2008 08:53:37 -8.5 C 2.13 g/m*3 -8.5 C 0 km/h
1964 30-12-2008 09:05:37 -8.2 C 2.18 g/m*3 -8.2 C 0 km/h
1965 30-12-2008 09:17:36 -8.3 C 2.17 g/m*3 -8.3 C 0 km/h
1966 30-12-2008 09:29:36 -8.2 C 2.18 g/m*3 -8.2 C 0 km/h
1967 30-12-2008 09:41:37 -8.2 C 2.18 g/m*3 -8.2 C 0 km/h
1968 30-12-2008 09:53:02 -8 C 2.22 g/m*3 -8 C 0 km/h
1969 30-12-2008 10:05:01 -7.9 C 2.23 g/m*3 -7.9 C 0 km/h
1970 30-12-2008 10:17:01 -7.7 C 2.26 g/m*3 -7.7 C 0 km/h
1971 30-12-2008 10:29:01 -7.6 C 2.28 g/m*3 -7.6 C 0 km/h
1972 30-12-2008 10:41:02 -7.5 C 2.3 g/m*3 -7.5 C 0 km/h
1973 30-12-2008 10:53:01 -7.4 C 2.32 g/m*3 -7.4 C 0 km/h
1974 30-12-2008 11:05:01 -7.1 C 2.4 g/m*3 -7.1 C 0 km/h
1975 30-12-2008 11:17:01 -6.9 C 2.43 g/m*3 -6.9 C 0 km/h
Sensor: Nr:Datum:Temp:Abs-Feuchte:Windchill:Wind:
Aussen-T/F 1976 30-12-2008 11:29:01 -6.6 C 2.52 g/m*3 -6.6 C 0 km/h
1977 30-12-2008 11:41:00 -6.5 C 2.5 g/m*3 -6.5 C 0 km/h
1978 30-12-2008 11:53:01 -6.2 C 2.59 g/m*3 -6.2 C 0 km/h
1979 30-12-2008 12:05:00 -5.9 C 2.65 g/m*3 -5.9 C 0 km/h
1980 30-12-2008 12:17:00 -5.7 C 2.69 g/m*3 -5.7 C 0 km/h
1981 30-12-2008 12:29:01 -5.5 C 2.73 g/m*3 -5.5 C 0 km/h
1982 30-12-2008 12:41:00 -5.2 C 2.82 g/m*3 -5.2 C 0 km/h
1983 30-12-2008 12:53:00 -5.1 C 2.81 g/m*3 -5.1 C 0 km/h
1984 30-12-2008 13:05:59 -4.9 C 2.85 g/m*3 -4.9 C 0 km/h
1985 30-12-2008 13:17:00 -4.6 C 2.94 g/m*3 -4.6 C 0 km/h
1986 30-12-2008 13:29:00 -4.1 C 3.01 g/m*3 -4.1 C 0 km/h
1987 30-12-2008 13:41:00 -3.7 C 3.06 g/m*3 -3.7 C 0 km/h
1988 30-12-2008 13:53:59 -3.6 C 3.01 g/m*3 -3.6 C 0 km/h
1989 30-12-2008 14:04:59 -3.5 C 3.03 g/m*3 -3.5 C 0 km/h
1990 30-12-2008 14:17:59 -3.4 C 3.02 g/m*3 -3.4 C 0 km/h
1991 30-12-2008 14:29:59 -3.3 C 3 g/m*3 -3.3 C 0 km/h
1992 30-12-2008 14:41:59 -3.2 C 2.98 g/m*3 -3.2 C 0 km/h
1993 30-12-2008 14:53:58 -3.1 C 2.96 g/m*3 -3.1 C 0 km/h
1994 30-12-2008 15:05:59 -3.1 C 2.96 g/m*3 -3.1 C 0 km/h
1995 30-12-2008 15:17:58 -3.1 C 2.96 g/m*3 -3.1 C 0 km/h
1996 30-12-2008 15:29:58 -3.1 C 2.93 g/m*3 -3.1 C 0 km/h
1997 30-12-2008 15:41:58 -3.1 C 2.96 g/m*3 -3.1 C 0 km/h
1998 30-12-2008 15:53:58 -3.3 C 2.92 g/m*3 -3.3 C 0 km/h
1999 30-12-2008 16:05:58 -3.4 C 2.9 g/m*3 -3.4 C 0 km/h
2000 30-12-2008 16:17:58 -3.4 C 2.94 g/m*3 -3.4 C 0 km/h
Sensor: Nr:Datum:Temp:Abs-Feuchte:Windchill:Wind:
Aussen-T/F 2001 30-12-2008 16:29:58 -3.5 C 2.92 g/m*3 -3.5 C 0 km/h
2002 30-12-2008 16:41:57 -3.7 C 2.88 g/m*3 -3.7 C 0 km/h
2003 30-12-2008 16:53:58 -3.8 C 2.82 g/m*3 -3.8 C 0 km/h
2004 30-12-2008 17:05:57 -3.9 C 2.8 g/m*3 -3.9 C 0 km/h
2005 30-12-2008 17:17:58 -3.9 C 2.84 g/m*3 -3.9 C 0 km/h
2006 30-12-2008 17:29:58 -4.1 C 2.76 g/m*3 -4.1 C 0 km/h
2007 30-12-2008 17:41:57 -4.2 C 2.78 g/m*3 -4.2 C 0 km/h
2008 30-12-2008 17:53:57 -4.3 C 2.72 g/m*3 -4.3 C 0 km/h
2009 30-12-2008 18:05:57 -4.4 C 2.74 g/m*3 -4.4 C 0 km/h
2010 30-12-2008 18:17:57 -4.5 C 2.72 g/m*3 -4.5 C 0 km/h
2011 30-12-2008 18:29:58 -4.5 C 2.75 g/m*3 -4.5 C 0 km/h
2012 30-12-2008 18:41:56 -4.5 C 2.75 g/m*3 -4.5 C 0 km/h
2013 30-12-2008 18:53:57 -4.6 C 2.73 g/m*3 -4.6 C 0 km/h
2014 30-12-2008 19:05:56 -4.5 C 2.75 g/m*3 -4.5 C 0 km/h
2015 30-12-2008 19:17:56 -4.6 C 2.73 g/m*3 -4.6 C 0 km/h
2016 30-12-2008 19:29:56 -4.8 C 2.69 g/m*3 -4.8 C 0 km/h
2017 30-12-2008 19:41:56 -5 C 2.66 g/m*3 -5 C 0 km/h
2018 30-12-2008 19:53:56 -5 C 2.66 g/m*3 -5 C 0 km/h
2019 30-12-2008 20:05:56 -5 C 2.69 g/m*3 -5 C 0 km/h
2020 30-12-2008 20:17:55 -5.1 C 2.67 g/m*3 -5.1 C 0 km/h
2021 30-12-2008 20:29:55 -5.1 C 2.67 g/m*3 -5.1 C 0 km/h
2022 30-12-2008 20:41:56 -5.3 C 2.63 g/m*3 -5.3 C 0 km/h
2023 30-12-2008 20:53:55 -5.4 C 2.61 g/m*3 -5.4 C 0 km/h
2024 30-12-2008 21:05:55 -5.6 C 2.58 g/m*3 -5.6 C 0 km/h
2025 30-12-2008 21:17:55 -5.5 C 2.63 g/m*3 -5.5 C 0 km/h
Sensor: Nr:Datum:Temp:Abs-Feuchte:Windchill:Wind:
Aussen-T/F 2026 30-12-2008 21:29:55 -5.6 C 2.64 g/m*3 -5.6 C 0 km/h
2027 30-12-2008 21:42:56 -5.7 C 2.62 g/m*3 -5.7 C 0 km/h
2028 30-12-2008 21:54:56 -5.8 C 2.6 g/m*3 -5.8 C 0 km/h
2029 30-12-2008 22:06:56 -5.8 C 2.6 g/m*3 -5.8 C 0 km/h
2030 30-12-2008 22:18:56 -5.8 C 2.64 g/m*3 -5.8 C 0 km/h
2031 30-12-2008 22:30:56 -6 C 2.6 g/m*3 -6 C 0 km/h
2032 30-12-2008 22:42:56 -6.2 C 2.56 g/m*3 -6.2 C 0 km/h
2033 30-12-2008 22:54:56 -6.3 C 2.54 g/m*3 -6.3 C 0 km/h
2034 30-12-2008 23:06:56 -6.3 C 2.54 g/m*3 -6.3 C 0 km/h
2035 30-12-2008 23:18:56 -6.3 C 2.57 g/m*3 -6.3 C 0 km/h
2036 30-12-2008 23:30:56 -6.5 C 2.53 g/m*3 -6.5 C 0 km/h
2037 30-12-2008 23:42:56 -6.4 C 2.55 g/m*3 -6.4 C 0 km/h
2038 30-12-2008 23:54:56 -6.4 C 2.55 g/m*3 -6.4 C 0 km/h
2039 31-12-2008 00:06:57 -6.4 C 2.55 g/m*3 -6.4 C 0 km/h
2040 31-12-2008 00:18:57 -6.4 C 2.55 g/m*3 -6.4 C 0 km/h
2041 31-12-2008 00:30:57 -6.2 C 2.62 g/m*3 -6.2 C 0 km/h
2042 31-12-2008 00:42:57 -6.2 C 2.62 g/m*3 -6.2 C 0 km/h
2043 31-12-2008 00:54:57 -6.4 C 2.58 g/m*3 -6.4 C 0 km/h
2044 31-12-2008 01:06:57 -6.4 C 2.58 g/m*3 -6.4 C 0 km/h
2045 31-12-2008 01:18:57 -6.6 C 2.55 g/m*3 -6.6 C 0 km/h
2046 31-12-2008 01:30:57 -6.8 C 2.48 g/m*3 -6.8 C 0 km/h
2047 31-12-2008 01:42:57 -6.7 C 2.5 g/m*3 -6.7 C 0 km/h
2048 31-12-2008 01:54:57 -6.7 C 2.5 g/m*3 -6.7 C 0 km/h
2049 31-12-2008 02:06:57 -6.9 C 2.46 g/m*3 -6.9 C 0 km/h
2050 31-12-2008 02:18:57 -7.1 C 2.43 g/m*3 -7.1 C 0 km/h
Sensor: Nr:Datum:Temp:Abs-Feuchte:Windchill:Wind:
Aussen-T/F 2051 31-12-2008 02:30:57 -7.1 C 2.43 g/m*3 -7.1 C 0 km/h
2052 31-12-2008 02:42:57 -7.2 C 2.41 g/m*3 -7.2 C 0 km/h
2053 31-12-2008 02:54:57 -7.3 C 2.39 g/m*3 -7.3 C 0 km/h
2054 31-12-2008 03:06:57 -7.2 C 2.41 g/m*3 -7.2 C 0 km/h
2055 31-12-2008 03:18:57 -7.3 C 2.39 g/m*3 -7.3 C 0 km/h
2056 31-12-2008 03:30:57 -7.3 C 2.39 g/m*3 -7.3 C 0 km/h
2057 31-12-2008 03:42:57 -7.2 C 2.41 g/m*3 -7.2 C 0 km/h
2058 31-12-2008 03:54:57 -7.1 C 2.45 g/m*3 -7.1 C 0 km/h
2059 31-12-2008 04:06:58 -7.1 C 2.45 g/m*3 -7.1 C 0 km/h
2060 31-12-2008 04:18:58 -7.3 C 2.39 g/m*3 -7.3 C 0 km/h
2061 31-12-2008 04:30:58 -7.3 C 2.39 g/m*3 -7.3 C 0 km/h
2062 31-12-2008 04:42:58 -7.4 C 2.37 g/m*3 -7.4 C 0 km/h
2063 31-12-2008 04:54:55 -7.4 C 2.37 g/m*3 -7.4 C 0 km/h
2064 31-12-2008 05:06:56 -7.4 C 2.37 g/m*3 -7.4 C 0 km/h
2065 31-12-2008 05:18:55 -7.4 C 2.37 g/m*3 -7.4 C 0 km/h
2066 31-12-2008 05:30:55 -7.5 C 2.36 g/m*3 -7.5 C 0 km/h
2067 31-12-2008 05:42:55 -7.4 C 2.37 g/m*3 -7.4 C 0 km/h
2068 31-12-2008 05:54:55 -7.5 C 2.36 g/m*3 -7.5 C 0 km/h
2069 31-12-2008 06:06:55 -7.5 C 2.36 g/m*3 -7.5 C 0 km/h
2070 31-12-2008 06:18:55 -7.7 C 2.32 g/m*3 -7.7 C 0 km/h
2071 31-12-2008 06:30:55 -7.7 C 2.29 g/m*3 -7.7 C 0 km/h
2072 31-12-2008 06:42:55 -7.8 C 2.28 g/m*3 -7.8 C 0 km/h
2073 31-12-2008 06:54:54 -7.8 C 2.28 g/m*3 -7.8 C 0 km/h
2074 31-12-2008 07:06:55 -7.8 C 2.28 g/m*3 -7.8 C 0 km/h
2075 31-12-2008 07:18:54 -7.8 C 2.28 g/m*3 -7.8 C 0 km/h
Sensor: Nr:Datum:Temp:Abs-Feuchte:Windchill:Wind:
Aussen-T/F 2076 31-12-2008 07:30:54 -7.8 C 2.28 g/m*3 -7.8 C 0 km/h
2077 31-12-2008 07:42:54 -7.8 C 2.28 g/m*3 -7.8 C 0 km/h
2078 31-12-2008 07:54:54 -7.8 C 2.28 g/m*3 -7.8 C 0 km/h
2079 31-12-2008 08:06:54 -7.8 C 2.28 g/m*3 -7.8 C 0 km/h
2080 31-12-2008 08:18:54 -7.8 C 2.28 g/m*3 -7.8 C 0 km/h
2081 31-12-2008 08:30:54 -7.5 C 2.33 g/m*3 -7.5 C 0 km/h
2082 31-12-2008 08:42:54 -7.1 C 2.43 g/m*3 -7.1 C 0 km/h
2083 31-12-2008 08:54:53 -6.7 C 2.53 g/m*3 -6.7 C 0 km/h
2084 31-12-2008 09:06:53 -6.4 C 2.58 g/m*3 -6.4 C 0 km/h
2085 31-12-2008 09:18:53 -6 C 2.66 g/m*3 -6 C 0 km/h
2086 31-12-2008 09:30:53 -5.9 C 2.68 g/m*3 -5.9 C 0 km/h
2087 31-12-2008 09:42:53 -5.7 C 2.72 g/m*3 -5.7 C 0 km/h
2088 31-12-2008 09:54:52 -5.6 C 2.74 g/m*3 -5.6 C 0 km/h
2089 31-12-2008 10:06:53 -5.4 C 2.75 g/m*3 -5.4 C 0 km/h
2090 31-12-2008 10:18:53 -5.2 C 2.79 g/m*3 -5.2 C 0 km/h
2091 31-12-2008 10:30:52 -4.9 C 2.85 g/m*3 -4.9 C 0 km/h
2092 31-12-2008 10:42:52 -4.5 C 2.89 g/m*3 -4.5 C 0 km/h
2093 31-12-2008 10:54:02 -3.8 C 3.04 g/m*3 -3.8 C 0 km/h
2094 31-12-2008 11:06:01 -3.7 C 3.06 g/m*3 -3.7 C 0 km/h
2095 31-12-2008 11:18:01 -3.8 C 3.01 g/m*3 -3.8 C 0 km/h
2096 31-12-2008 11:30:01 -3.9 C 2.98 g/m*3 -3.9 C 0 km/h
2097 31-12-2008 11:42:01 -3.6 C 3.05 g/m*3 -3.6 C 0 km/h
2098 31-12-2008 11:54:01 -3 C 3.22 g/m*3 -3 C 0 km/h
2099 31-12-2008 12:06:01 -2.6 C 3.27 g/m*3 -2.6 C 0 km/h
2100 31-12-2008 12:18:02 -2.6 C 3.23 g/m*3 -2.6 C 0 km/h
Sensor: Nr:Datum:Temp:Abs-Feuchte:Windchill:Wind:
Aussen-T/F 2101 31-12-2008 12:30:02 -2.9 C 3.09 g/m*3 -2.9 C 0 km/h
2102 31-12-2008 12:42:01 -2.9 C 3.09 g/m*3 -2.9 C 0 km/h
2103 31-12-2008 12:54:00 -2.9 C 3.05 g/m*3 -2.9 C 0 km/h
2104 31-12-2008 13:06:01 -2.9 C 3.05 g/m*3 -2.9 C 0 km/h
2105 31-12-2008 13:18:01 -2.8 C 3.03 g/m*3 -2.8 C 0 km/h
2106 31-12-2008 13:30:01 -2.7 C 3.05 g/m*3 -2.7 C 0 km/h
2107 31-12-2008 13:42:00 -2.4 C 3.11 g/m*3 -2.4 C 0 km/h
2108 31-12-2008 13:54:01 -2.1 C 3.22 g/m*3 -2.1 C 0 km/h
2109 31-12-2008 14:06:00 -1.7 C 3.31 g/m*3 -1.7 C 0 km/h
2110 31-12-2008 14:18:00 -1.5 C 3.32 g/m*3 -1.5 C 0 km/h
2111 31-12-2008 14:30:00 -1.5 C 3.27 g/m*3 -1.5 C 0 km/h
2112 31-12-2008 14:42:00 -1.4 C 3.3 g/m*3 -1.4 C 0 km/h
2113 31-12-2008 14:54:00 -1.5 C 3.27 g/m*3 -1.5 C 0 km/h
2114 31-12-2008 15:06:59 -1.6 C 3.25 g/m*3 -1.6 C 0 km/h
2115 31-12-2008 15:29:59 -1.6 C 3.25 g/m*3 -1.6 C 0 km/h
2116 31-12-2008 15:30:00 -1.6 C 3.25 g/m*3 -1.6 C 0 km/h
2117 31-12-2008 15:42:00 -1.6 C 3.25 g/m*3 -1.6 C 0 km/h
2118 31-12-2008 15:54:59 -1.6 C 3.25 g/m*3 -1.6 C 0 km/h
2119 31-12-2008 16:05:59 -1.6 C 3.25 g/m*3 -1.6 C 0 km/h
2120 31-12-2008 16:18:59 -1.7 C 3.23 g/m*3 -1.7 C 0 km/h
2121 31-12-2008 16:30:59 -1.7 C 3.23 g/m*3 -1.7 C 0 km/h
2122 31-12-2008 16:43:00 -1.7 C 3.23 g/m*3 -1.7 C 0 km/h
2123 31-12-2008 16:54:59 -1.7 C 3.27 g/m*3 -1.7 C 0 km/h
2124 31-12-2008 17:06:59 -1.4 C 3.39 g/m*3 -1.4 C 0 km/h
2125 31-12-2008 17:18:59 -1.2 C 3.48 g/m*3 -1.2 C 0 km/h
Sensor: Nr:Datum:Temp:Abs-Feuchte:Windchill:Wind:
Aussen-T/F 2126 31-12-2008 17:30:58 -1 C 3.53 g/m*3 -1 C 0 km/h
2127 31-12-2008 17:42:58 -1.1 C 3.5 g/m*3 -1.1 C 0 km/h
2128 31-12-2008 17:54:59 -1.3 C 3.45 g/m*3 -1.3 C 0 km/h
2129 31-12-2008 18:06:58 -1.1 C 3.55 g/m*3 -1.1 C 0 km/h
2130 31-12-2008 18:18:58 -1.2 C 3.52 g/m*3 -1.2 C 0 km/h
2131 31-12-2008 18:30:57 -1.4 C 3.52 g/m*3 -1.4 C 0 km/h
2132 31-12-2008 18:42:57 -1.5 C 3.54 g/m*3 -1.5 C 0 km/h
2133 31-12-2008 18:54:58 -1.5 C 3.54 g/m*3 -1.5 C 0 km/h
2134 31-12-2008 19:06:57 -1.5 C 3.54 g/m*3 -1.5 C 0 km/h
2135 31-12-2008 19:18:57 -1.6 C 3.55 g/m*3 -1.6 C 0 km/h
2136 31-12-2008 19:30:57 -1.6 C 3.6 g/m*3 -1.6 C 0 km/h
2137 31-12-2008 19:42:57 -1.7 C 3.62 g/m*3 -1.7 C 0 km/h
2138 31-12-2008 19:54:57 -1.8 C 3.59 g/m*3 -1.8 C 0 km/h
2139 31-12-2008 20:06:56 -1.8 C 3.59 g/m*3 -1.8 C 0 km/h
2140 31-12-2008 20:18:57 -1.9 C 3.61 g/m*3 -1.9 C 0 km/h
2141 31-12-2008 20:30:57 -2.3 C 3.51 g/m*3 -2.3 C 0 km/h
2142 31-12-2008 20:42:57 -2.4 C 3.48 g/m*3 -2.4 C 0 km/h
2143 31-12-2008 20:54:56 -2.5 C 3.5 g/m*3 -2.5 C 0 km/h
2144 31-12-2008 21:06:57 -2.6 C 3.48 g/m*3 -2.6 C 0 km/h
2145 31-12-2008 21:18:56 -2.7 C 3.45 g/m*3 -2.7 C 0 km/h
2146 31-12-2008 21:30:56 -2.5 C 3.54 g/m*3 -2.5 C 0 km/h
2147 31-12-2008 21:42:56 -2.6 C 3.52 g/m*3 -2.6 C 0 km/h
2148 31-12-2008 21:54:55 -2.4 C 3.57 g/m*3 -2.4 C 0 km/h
2149 31-12-2008 22:06:56 -2.5 C 3.54 g/m*3 -2.5 C 0 km/h
2150 31-12-2008 22:18:56 -2.7 C 3.49 g/m*3 -2.7 C 0 km/h
Sensor: Nr:Datum:Temp:Abs-Feuchte:Windchill:Wind:
Aussen-T/F 2151 31-12-2008 22:30:55 -2.8 C 3.47 g/m*3 -2.8 C 0 km/h
2152 31-12-2008 22:42:55 -3.1 C 3.39 g/m*3 -3.1 C 0 km/h
2153 31-12-2008 22:54:55 -3.2 C 3.37 g/m*3 -3.2 C 0 km/h
2154 31-12-2008 23:07:53 -3.2 C 3.37 g/m*3 -3.2 C 0 km/h
2155 31-12-2008 23:19:53 -3 C 3.46 g/m*3 -3 C 0 km/h
2156 31-12-2008 23:31:53 -2.6 C 3.6 g/m*3 -2.6 C 0 km/h
2157 31-12-2008 23:43:53 -2.4 C 3.65 g/m*3 -2.4 C 0 km/h
2158 31-12-2008 23:55:53 -2.2 C 3.74 g/m*3 -2.2 C 0 km/h
2159 01-01-2009 00:07:53 -2.1 C 3.77 g/m*3 -2.1 C 0 km/h
2160 01-01-2009 00:19:53 -2 C 3.79 g/m*3 -2 C 0 km/h
2161 01-01-2009 00:31:53 -1.9 C 3.82 g/m*3 -1.9 C 0 km/h
2162 01-01-2009 00:43:53 -1.8 C 3.85 g/m*3 -1.8 C 0 km/h
2163 01-01-2009 00:55:53 -1.7 C 3.87 g/m*3 -1.7 C 0 km/h
2164 01-01-2009 01:07:54 -1.3 C 4.03 g/m*3 -1.3 C 0 km/h
2165 01-01-2009 01:19:54 -1.1 C 4.04 g/m*3 -1.1 C 0 km/h
2166 01-01-2009 01:31:54 -0.9 C 4.05 g/m*3 -0.9 C 0 km/h
2167 01-01-2009 01:43:54 -0.9 C 3.91 g/m*3 -0.9 C 0 km/h
2168 01-01-2009 01:55:54 -0.8 C 3.9 g/m*3 -0.8 C 0 km/h
2169 01-01-2009 02:07:54 -0.9 C 3.82 g/m*3 -0.9 C 0 km/h
2170 01-01-2009 02:19:54 -0.8 C 3.8 g/m*3 -0.8 C 0 km/h
2171 01-01-2009 02:31:54 -0.9 C 3.78 g/m*3 -0.9 C 0 km/h
2172 01-01-2009 02:43:54 -0.9 C 3.78 g/m*3 -0.9 C 0 km/h
2173 01-01-2009 02:55:54 -1 C 3.75 g/m*3 -1 C 0 km/h
2174 01-01-2009 03:07:54 -1.1 C 3.73 g/m*3 -1.1 C 0 km/h
2175 01-01-2009 03:19:53 -1.1 C 3.77 g/m*3 -1.1 C 0 km/h
Sensor: Nr:Datum:Temp:Abs-Feuchte:Windchill:Wind:
Aussen-T/F 2176 01-01-2009 03:31:53 -1.5 C 3.62 g/m*3 -1.5 C 0 km/h
2177 01-01-2009 03:43:53 -1.8 C 3.55 g/m*3 -1.8 C 0 km/h
2178 01-01-2009 03:55:53 -2 C 3.5 g/m*3 -2 C 0 km/h
2179 01-01-2009 04:07:53 -2.1 C 3.52 g/m*3 -2.1 C 0 km/h
2180 01-01-2009 04:19:53 -2.1 C 3.52 g/m*3 -2.1 C 0 km/h
2181 01-01-2009 04:31:52 -2.1 C 3.52 g/m*3 -2.1 C 0 km/h
2182 01-01-2009 04:43:52 -2.1 C 3.52 g/m*3 -2.1 C 0 km/h
2183 01-01-2009 04:55:52 -2.1 C 3.52 g/m*3 -2.1 C 0 km/h
2184 01-01-2009 05:07:53 -2 C 3.54 g/m*3 -2 C 0 km/h
2185 01-01-2009 05:19:52 -2 C 3.54 g/m*3 -2 C 0 km/h
2186 01-01-2009 05:31:52 -2 C 3.54 g/m*3 -2 C 0 km/h
2187 01-01-2009 05:43:53 -2.2 C 3.41 g/m*3 -2.2 C 0 km/h
2188 01-01-2009 05:55:52 -2.3 C 3.38 g/m*3 -2.3 C 0 km/h
2189 01-01-2009 06:07:51 -2.4 C 3.32 g/m*3 -2.4 C 0 km/h
2190 01-01-2009 06:19:52 -2.6 C 3.27 g/m*3 -2.6 C 0 km/h
2191 01-01-2009 06:31:52 -2.8 C 3.23 g/m*3 -2.8 C 0 km/h
2192 01-01-2009 06:43:52 -3.3 C 3.11 g/m*3 -3.3 C 0 km/h
2193 01-01-2009 06:55:51 -3.6 C 3.05 g/m*3 -3.6 C 0 km/h
2194 01-01-2009 07:07:52 -3.8 C 3.01 g/m*3 -3.8 C 0 km/h
2195 01-01-2009 07:19:51 -3.8 C 3.01 g/m*3 -3.8 C 0 km/h
2196 01-01-2009 07:31:51 -3.9 C 2.98 g/m*3 -3.9 C 0 km/h
2197 01-01-2009 07:43:51 -3.9 C 2.98 g/m*3 -3.9 C 0 km/h
2198 01-01-2009 07:55:51 -3.9 C 2.98 g/m*3 -3.9 C 0 km/h
2199 01-01-2009 08:07:51 -4.2 C 2.89 g/m*3 -4.2 C 0 km/h
2200 01-01-2009 08:19:51 -4.4 C 2.84 g/m*3 -4.4 C 0 km/h
Sensor: Nr:Datum:Temp:Abs-Feuchte:Windchill:Wind:
Aussen-T/F 2201 01-01-2009 08:31:50 -4.5 C 2.82 g/m*3 -4.5 C 0 km/h
2202 01-01-2009 08:43:50 -4.6 C 2.77 g/m*3 -4.6 C 0 km/h
2203 01-01-2009 08:55:51 -4.7 C 2.75 g/m*3 -4.7 C 0 km/h
2204 01-01-2009 09:07:50 -4.6 C 2.8 g/m*3 -4.6 C 0 km/h
2205 01-01-2009 09:19:50 -4.6 C 2.8 g/m*3 -4.6 C 0 km/h
2206 01-01-2009 09:31:50 -4.5 C 2.82 g/m*3 -4.5 C 0 km/h
2207 01-01-2009 09:43:50 -4.5 C 2.79 g/m*3 -4.5 C 0 km/h
2208 01-01-2009 09:55:50 -4.2 C 2.85 g/m*3 -4.2 C 0 km/h
2209 01-01-2009 10:07:49 -4.2 C 2.85 g/m*3 -4.2 C 0 km/h
2210 01-01-2009 10:19:50 -4.2 C 2.81 g/m*3 -4.2 C 0 km/h
2211 01-01-2009 10:31:50 -4.1 C 2.83 g/m*3 -4.1 C 0 km/h
2212 01-01-2009 10:43:50 -4.1 C 2.8 g/m*3 -4.1 C 0 km/h
2213 01-01-2009 10:55:49 -4.3 C 2.69 g/m*3 -4.3 C 0 km/h
2214 01-01-2009 11:07:50 -4.3 C 2.69 g/m*3 -4.3 C 0 km/h
2215 01-01-2009 11:19:49 -4 C 2.74 g/m*3 -4 C 0 km/h
2216 01-01-2009 11:31:49 -4 C 2.71 g/m*3 -4 C 0 km/h
2217 01-01-2009 11:43:49 -4.1 C 2.65 g/m*3 -4.1 C 0 km/h
2218 01-01-2009 11:55:48 -4.1 C 2.69 g/m*3 -4.1 C 0 km/h
2219 01-01-2009 12:07:49 -4.1 C 2.69 g/m*3 -4.1 C 0 km/h
2220 01-01-2009 12:19:48 -4.1 C 2.69 g/m*3 -4.1 C 0 km/h
2221 01-01-2009 12:31:48 -4.1 C 2.65 g/m*3 -4.1 C 0 km/h
2222 01-01-2009 12:43:48 -4 C 2.67 g/m*3 -4 C 0 km/h
2223 01-01-2009 12:55:48 -4 C 2.63 g/m*3 -4 C 0 km/h
2224 01-01-2009 13:07:48 -3.9 C 2.65 g/m*3 -3.9 C 0 km/h
2225 01-01-2009 13:19:48 -3.8 C 2.67 g/m*3 -3.8 C 0 km/h
Sensor: Nr:Datum:Temp:Abs-Feuchte:Windchill:Wind:
Aussen-T/F 2226 01-01-2009 13:31:48 -3.8 C 2.67 g/m*3 -3.8 C 0 km/h
2227 01-01-2009 13:43:48 -3.7 C 2.69 g/m*3 -3.7 C 0 km/h
2228 01-01-2009 13:55:48 -3.7 C 2.65 g/m*3 -3.7 C 0 km/h
2229 01-01-2009 14:07:47 -3.6 C 2.63 g/m*3 -3.6 C 0 km/h
2230 01-01-2009 14:19:48 -3.7 C 2.58 g/m*3 -3.7 C 0 km/h
2231 01-01-2009 14:31:01 -3.8 C 2.56 g/m*3 -3.8 C 0 km/h
2232 01-01-2009 14:43:01 -3.9 C 2.54 g/m*3 -3.9 C 0 km/h
2233 01-01-2009 14:55:02 -3.9 C 2.58 g/m*3 -3.9 C 0 km/h
2234 01-01-2009 15:07:01 -3.8 C 2.6 g/m*3 -3.8 C 0 km/h
2235 01-01-2009 15:19:01 -3.7 C 2.62 g/m*3 -3.7 C 0 km/h
2236 01-01-2009 15:31:01 -3.6 C 2.63 g/m*3 -3.6 C 0 km/h
2237 01-01-2009 15:43:01 -3.6 C 2.63 g/m*3 -3.6 C 0 km/h
2238 01-01-2009 15:55:01 -3.9 C 2.58 g/m*3 -3.9 C 0 km/h
2239 01-01-2009 16:07:00 -4.2 C 2.56 g/m*3 -4.2 C 0 km/h
2240 01-01-2009 16:19:00 -4.4 C 2.56 g/m*3 -4.4 C 0 km/h
2241 01-01-2009 16:31:01 -4.6 C 2.56 g/m*3 -4.6 C 0 km/h
2242 01-01-2009 16:43:01 -4.8 C 2.56 g/m*3 -4.8 C 0 km/h
2243 01-01-2009 16:55:00 -4.9 C 2.54 g/m*3 -4.9 C 0 km/h
2244 01-01-2009 17:07:00 -5.1 C 2.54 g/m*3 -5.1 C 0 km/h
2245 01-01-2009 17:19:00 -5.3 C 2.5 g/m*3 -5.3 C 0 km/h
2246 01-01-2009 17:31:59 -5.3 C 2.53 g/m*3 -5.3 C 0 km/h
2247 01-01-2009 17:42:59 -5 C 2.62 g/m*3 -5 C 0 km/h
2248 01-01-2009 17:55:00 -4.9 C 2.64 g/m*3 -4.9 C 0 km/h
2249 01-01-2009 18:07:59 -4.8 C 2.66 g/m*3 -4.8 C 0 km/h
2250 01-01-2009 18:19:59 -4.6 C 2.7 g/m*3 -4.6 C 0 km/h
Sensor: Nr:Datum:Temp:Abs-Feuchte:Windchill:Wind:
Aussen-T/F 2251 01-01-2009 18:31:00 -4.6 C 2.73 g/m*3 -4.6 C 0 km/h
2252 01-01-2009 18:43:00 -4.4 C 2.77 g/m*3 -4.4 C 0 km/h
2253 01-01-2009 18:55:59 -4.3 C 2.79 g/m*3 -4.3 C 0 km/h
2254 01-01-2009 19:07:59 -4.2 C 2.78 g/m*3 -4.2 C 0 km/h
2255 01-01-2009 19:19:59 -4.2 C 2.78 g/m*3 -4.2 C 0 km/h
2256 01-01-2009 19:31:59 -4.2 C 2.7 g/m*3 -4.2 C 0 km/h
2257 01-01-2009 19:44:00 -4.2 C 2.67 g/m*3 -4.2 C 0 km/h
2258 01-01-2009 19:55:58 -4.1 C 2.69 g/m*3 -4.1 C 0 km/h
2259 01-01-2009 20:07:59 -4.1 C 2.69 g/m*3 -4.1 C 0 km/h
2260 01-01-2009 20:19:58 -4.1 C 2.69 g/m*3 -4.1 C 0 km/h
2261 01-01-2009 20:31:58 -4 C 2.71 g/m*3 -4 C 0 km/h
2262 01-01-2009 20:43:58 -4 C 2.71 g/m*3 -4 C 0 km/h
2263 01-01-2009 20:55:58 -4 C 2.71 g/m*3 -4 C 0 km/h
2264 01-01-2009 21:07:58 -3.9 C 2.73 g/m*3 -3.9 C 0 km/h
2265 01-01-2009 21:19:58 -3.9 C 2.73 g/m*3 -3.9 C 0 km/h
2266 01-01-2009 21:31:57 -3.9 C 2.73 g/m*3 -3.9 C 0 km/h
2267 01-01-2009 21:43:57 -3.9 C 2.73 g/m*3 -3.9 C 0 km/h
2268 01-01-2009 21:55:58 -3.9 C 2.73 g/m*3 -3.9 C 0 km/h
2269 01-01-2009 22:07:57 -3.9 C 2.73 g/m*3 -3.9 C 0 km/h
2270 01-01-2009 22:20:58 -3.9 C 2.76 g/m*3 -3.9 C 0 km/h
2271 01-01-2009 22:32:58 -3.9 C 2.76 g/m*3 -3.9 C 0 km/h
2272 01-01-2009 22:44:59 -3.9 C 2.76 g/m*3 -3.9 C 0 km/h
2273 01-01-2009 22:56:59 -4 C 2.78 g/m*3 -4 C 0 km/h
2274 01-01-2009 23:08:59 -4 C 2.78 g/m*3 -4 C 0 km/h
2275 01-01-2009 23:20:59 -3.9 C 2.8 g/m*3 -3.9 C 0 km/h
Sensor: Nr:Datum:Temp:Abs-Feuchte:Windchill:Wind:
Aussen-T/F 2276 01-01-2009 23:32:59 -3.9 C 2.8 g/m*3 -3.9 C 0 km/h
2277 01-01-2009 23:44:59 -4 C 2.78 g/m*3 -4 C 0 km/h
2278 01-01-2009 23:56:59 -4.1 C 2.76 g/m*3 -4.1 C 0 km/h
2279 02-01-2009 00:08:59 -4 C 2.78 g/m*3 -4 C 0 km/h
2280 02-01-2009 00:20:59 -4 C 2.78 g/m*3 -4 C 0 km/h
2281 02-01-2009 00:32:59 -4.1 C 2.76 g/m*3 -4.1 C 0 km/h
2282 02-01-2009 00:44:59 -4.1 C 2.76 g/m*3 -4.1 C 0 km/h
2283 02-01-2009 00:56:59 -4 C 2.78 g/m*3 -4 C 0 km/h
2284 02-01-2009 01:08:59 -4 C 2.78 g/m*3 -4 C 0 km/h
2285 02-01-2009 01:20:59 -4 C 2.78 g/m*3 -4 C 0 km/h
2286 02-01-2009 01:32:59 -4 C 2.78 g/m*3 -4 C 0 km/h
2287 02-01-2009 01:44:59 -4 C 2.78 g/m*3 -4 C 0 km/h
2288 02-01-2009 01:56:59 -4 C 2.82 g/m*3 -4 C 0 km/h
2289 02-01-2009 02:08:59 -3.9 C 2.84 g/m*3 -3.9 C 0 km/h
2290 02-01-2009 02:19:59 -3.9 C 2.8 g/m*3 -3.9 C 0 km/h
2291 02-01-2009 02:31:59 -3.9 C 2.8 g/m*3 -3.9 C 0 km/h
2292 02-01-2009 02:44:00 -3.9 C 2.8 g/m*3 -3.9 C 0 km/h
2293 02-01-2009 02:56:00 -3.9 C 2.8 g/m*3 -3.9 C 0 km/h
2294 02-01-2009 03:08:00 -4 C 2.78 g/m*3 -4 C 0 km/h
2295 02-01-2009 03:20:00 -4 C 2.78 g/m*3 -4 C 0 km/h
2296 02-01-2009 03:32:00 -3.9 C 2.84 g/m*3 -3.9 C 0 km/h
2297 02-01-2009 03:44:00 -3.9 C 2.84 g/m*3 -3.9 C 0 km/h
2298 02-01-2009 03:56:00 -3.9 C 2.84 g/m*3 -3.9 C 0 km/h
2299 02-01-2009 04:08:00 -3.8 C 2.86 g/m*3 -3.8 C 0 km/h
2300 02-01-2009 04:20:00 -3.8 C 2.86 g/m*3 -3.8 C 0 km/h
Sensor: Nr:Datum:Temp:Abs-Feuchte:Windchill:Wind:
Aussen-T/F 2301 02-01-2009 04:32:00 -3.7 C 2.84 g/m*3 -3.7 C 0 km/h
2302 02-01-2009 04:44:00 -3.7 C 2.84 g/m*3 -3.7 C 0 km/h
2303 02-01-2009 04:56:00 -3.7 C 2.88 g/m*3 -3.7 C 0 km/h
2304 02-01-2009 05:08:00 -3.6 C 2.9 g/m*3 -3.6 C 0 km/h
2305 02-01-2009 05:20:00 -3.6 C 2.9 g/m*3 -3.6 C 0 km/h
2306 02-01-2009 05:32:00 -3.5 C 2.92 g/m*3 -3.5 C 0 km/h
2307 02-01-2009 05:44:00 -3.5 C 2.88 g/m*3 -3.5 C 0 km/h
2308 02-01-2009 05:56:00 -3.5 C 2.92 g/m*3 -3.5 C 0 km/h
2309 02-01-2009 06:08:00 -3.4 C 2.94 g/m*3 -3.4 C 0 km/h
2310 02-01-2009 06:20:00 -3.4 C 2.94 g/m*3 -3.4 C 0 km/h
2311 02-01-2009 06:32:01 -3.4 C 2.94 g/m*3 -3.4 C 0 km/h
2312 02-01-2009 06:44:01 -3.3 C 2.96 g/m*3 -3.3 C 0 km/h
2313 02-01-2009 06:56:01 -3.3 C 2.96 g/m*3 -3.3 C 0 km/h
2314 02-01-2009 07:08:01 -3.2 C 2.98 g/m*3 -3.2 C 0 km/h
2315 02-01-2009 07:20:01 -3.2 C 2.94 g/m*3 -3.2 C 0 km/h
2316 02-01-2009 07:32:01 -3.2 C 2.98 g/m*3 -3.2 C 0 km/h
2317 02-01-2009 07:44:01 -3.2 C 2.98 g/m*3 -3.2 C 0 km/h
2318 02-01-2009 07:56:01 -3.2 C 2.98 g/m*3 -3.2 C 0 km/h
2319 02-01-2009 08:08:01 -3.3 C 3 g/m*3 -3.3 C 0 km/h
2320 02-01-2009 08:20:59 -3.3 C 3.04 g/m*3 -3.3 C 0 km/h
2321 02-01-2009 08:32:58 -3.3 C 3.11 g/m*3 -3.3 C 0 km/h
2322 02-01-2009 08:44:57 -3.3 C 3.15 g/m*3 -3.3 C 0 km/h
2323 02-01-2009 08:56:57 -3.3 C 3.15 g/m*3 -3.3 C 0 km/h
2324 02-01-2009 09:08:58 -3.2 C 3.18 g/m*3 -3.2 C 0 km/h
2325 02-01-2009 09:20:58 -3.1 C 3.2 g/m*3 -3.1 C 0 km/h
Sensor: Nr:Datum:Temp:Abs-Feuchte:Windchill:Wind:
Aussen-T/F 2326 02-01-2009 09:32:57 -3.1 C 3.2 g/m*3 -3.1 C 0 km/h
2327 02-01-2009 09:44:58 -3 C 3.22 g/m*3 -3 C 0 km/h
2328 02-01-2009 09:56:58 -3 C 3.22 g/m*3 -3 C 0 km/h
2329 02-01-2009 10:08:57 -2.8 C 3.27 g/m*3 -2.8 C 0 km/h
2330 02-01-2009 10:20:57 -2.8 C 3.27 g/m*3 -2.8 C 0 km/h
2331 02-01-2009 10:32:57 -2.7 C 3.25 g/m*3 -2.7 C 0 km/h
2332 02-01-2009 10:44:57 -2.7 C 3.25 g/m*3 -2.7 C 0 km/h
2333 02-01-2009 10:56:57 -2.5 C 3.3 g/m*3 -2.5 C 0 km/h
2334 02-01-2009 11:08:56 -2.3 C 3.34 g/m*3 -2.3 C 0 km/h
2335 02-01-2009 11:20:57 -2.1 C 3.39 g/m*3 -2.1 C 0 km/h
2336 02-01-2009 11:32:57 -2 C 3.37 g/m*3 -2 C 0 km/h
2337 02-01-2009 11:44:56 -1.8 C 3.42 g/m*3 -1.8 C 0 km/h
2338 02-01-2009 11:56:56 -1.7 C 3.44 g/m*3 -1.7 C 0 km/h
2339 02-01-2009 12:08:57 -1.7 C 3.44 g/m*3 -1.7 C 0 km/h
2340 02-01-2009 12:20:56 -1.7 C 3.49 g/m*3 -1.7 C 0 km/h
2341 02-01-2009 12:32:56 -1.6 C 3.51 g/m*3 -1.6 C 0 km/h
2342 02-01-2009 12:44:55 -1.5 C 3.54 g/m*3 -1.5 C 0 km/h
2343 02-01-2009 12:56:55 -1.3 C 3.59 g/m*3 -1.3 C 0 km/h
2344 02-01-2009 13:08:56 -1.1 C 3.64 g/m*3 -1.1 C 0 km/h
2345 02-01-2009 13:20:55 -1 C 3.66 g/m*3 -1 C 0 km/h
2346 02-01-2009 13:32:55 -0.8 C 3.71 g/m*3 -0.8 C 0 km/h
2347 02-01-2009 13:44:55 -0.8 C 3.71 g/m*3 -0.8 C 0 km/h
2348 02-01-2009 13:56:55 -0.8 C 3.71 g/m*3 -0.8 C 0 km/h
2349 02-01-2009 14:08:55 -0.6 C 3.76 g/m*3 -0.6 C 0 km/h
2350 02-01-2009 14:20:55 -0.6 C 3.76 g/m*3 -0.6 C 0 km/h
Sensor: Nr:Datum:Temp:Abs-Feuchte:Windchill:Wind:
Aussen-T/F 2351 02-01-2009 14:32:54 -0.5 C 3.79 g/m*3 -0.5 C 0 km/h
2352 02-01-2009 14:44:55 -0.5 C 3.79 g/m*3 -0.5 C 0 km/h
2353 02-01-2009 14:56:55 -0.5 C 3.79 g/m*3 -0.5 C 0 km/h
2354 02-01-2009 15:08:54 -0.5 C 3.79 g/m*3 -0.5 C 0 km/h
2355 02-01-2009 15:20:55 -0.5 C 3.79 g/m*3 -0.5 C 0 km/h
2356 02-01-2009 15:32:54 -0.5 C 3.79 g/m*3 -0.5 C 0 km/h
2357 02-01-2009 15:44:54 -0.5 C 3.79 g/m*3 -0.5 C 0 km/h
2358 02-01-2009 15:56:55 -0.5 C 3.84 g/m*3 -0.5 C 0 km/h
2359 02-01-2009 16:08:53 -0.5 C 3.84 g/m*3 -0.5 C 0 km/h
2360 02-01-2009 16:20:54 -0.6 C 3.81 g/m*3 -0.6 C 0 km/h
2361 02-01-2009 16:32:54 -0.6 C 3.86 g/m*3 -0.6 C 0 km/h
2362 02-01-2009 16:44:53 -0.6 C 3.86 g/m*3 -0.6 C 0 km/h
2363 02-01-2009 16:56:53 -0.6 C 3.9 g/m*3 -0.6 C 0 km/h
2364 02-01-2009 17:08:54 -0.6 C 3.9 g/m*3 -0.6 C 0 km/h
2365 02-01-2009 17:20:53 -0.4 C 3.96 g/m*3 -0.4 C 0 km/h
2366 02-01-2009 17:32:53 -0.5 C 3.93 g/m*3 -0.5 C 0 km/h
2367 02-01-2009 17:44:53 -0.5 C 3.93 g/m*3 -0.5 C 0 km/h
2368 02-01-2009 17:56:53 -0.5 C 3.93 g/m*3 -0.5 C 0 km/h
2369 02-01-2009 18:08:53 -0.6 C 3.9 g/m*3 -0.6 C 0 km/h
2370 02-01-2009 18:20:52 -0.4 C 3.96 g/m*3 -0.4 C 0 km/h
2371 02-01-2009 18:32:52 -0.6 C 3.9 g/m*3 -0.6 C 0 km/h
2372 02-01-2009 18:44:52 -0.4 C 3.96 g/m*3 -0.4 C 0 km/h
2373 02-01-2009 18:56:52 -0.4 C 3.96 g/m*3 -0.4 C 0 km/h
2374 02-01-2009 19:08:52 -0.6 C 3.9 g/m*3 -0.6 C 0 km/h
2375 02-01-2009 19:20:52 -0.6 C 3.9 g/m*3 -0.6 C 0 km/h
Sensor: Nr:Datum:Temp:Abs-Feuchte:Windchill:Wind:
Aussen-T/F 2376 02-01-2009 19:32:52 -0.4 C 3.96 g/m*3 -0.4 C 0 km/h
2377 02-01-2009 19:44:52 -0.5 C 3.98 g/m*3 -0.5 C 0 km/h
2378 02-01-2009 19:56:52 -0.6 C 3.95 g/m*3 -0.6 C 0 km/h
2379 02-01-2009 20:08:51 -0.6 C 3.95 g/m*3 -0.6 C 0 km/h
2380 02-01-2009 20:20:52 -0.6 C 3.95 g/m*3 -0.6 C 0 km/h
2381 02-01-2009 20:32:51 -0.6 C 3.95 g/m*3 -0.6 C 0 km/h
2382 02-01-2009 20:44:51 -0.6 C 3.95 g/m*3 -0.6 C 0 km/h
2383 02-01-2009 20:56:51 -0.6 C 3.95 g/m*3 -0.6 C 0 km/h
2384 02-01-2009 21:08:52 -0.6 C 3.95 g/m*3 -0.6 C 0 km/h
2385 02-01-2009 21:20:51 -0.6 C 3.95 g/m*3 -0.6 C 0 km/h
2386 02-01-2009 21:32:51 -0.6 C 3.95 g/m*3 -0.6 C 0 km/h
2387 02-01-2009 21:44:50 -0.5 C 3.98 g/m*3 -0.5 C 0 km/h
2388 02-01-2009 21:56:50 -0.6 C 3.95 g/m*3 -0.6 C 0 km/h
2389 02-01-2009 22:08:51 -0.6 C 3.95 g/m*3 -0.6 C 0 km/h
2390 02-01-2009 22:20:50 -0.6 C 3.95 g/m*3 -0.6 C 0 km/h
2391 02-01-2009 22:33:51 -0.6 C 3.95 g/m*3 -0.6 C 0 km/h
2392 02-01-2009 22:45:51 -0.6 C 3.95 g/m*3 -0.6 C 0 km/h
2393 02-01-2009 22:57:51 -0.7 C 3.92 g/m*3 -0.7 C 0 km/h
2394 02-01-2009 23:09:51 -0.8 C 3.9 g/m*3 -0.8 C 0 km/h
2395 02-01-2009 23:21:51 -0.8 C 3.9 g/m*3 -0.8 C 0 km/h
2396 02-01-2009 23:33:51 -0.8 C 3.9 g/m*3 -0.8 C 0 km/h
2397 02-01-2009 23:45:51 -0.7 C 3.92 g/m*3 -0.7 C 0 km/h
2398 02-01-2009 23:57:51 -0.7 C 3.92 g/m*3 -0.7 C 0 km/h
2399 03-01-2009 00:09:51 -0.7 C 3.92 g/m*3 -0.7 C 0 km/h
2400 03-01-2009 00:21:51 -0.6 C 3.95 g/m*3 -0.6 C 0 km/h
Sensor: Nr:Datum:Temp:Abs-Feuchte:Windchill:Wind:
Aussen-T/F 2401 03-01-2009 00:33:51 -0.7 C 3.92 g/m*3 -0.7 C 0 km/h
2402 03-01-2009 00:45:51 -0.7 C 3.88 g/m*3 -0.7 C 0 km/h
2403 03-01-2009 00:57:51 -0.8 C 3.67 g/m*3 -0.8 C 0 km/h
2404 03-01-2009 01:09:51 -1.2 C 3.43 g/m*3 -1.2 C 0 km/h
2405 03-01-2009 01:21:51 -1.7 C 3.31 g/m*3 -1.7 C 0 km/h
2406 03-01-2009 01:33:51 -2.1 C 3.26 g/m*3 -2.1 C 0 km/h
2407 03-01-2009 01:45:51 -2.5 C 3.21 g/m*3 -2.5 C 0 km/h
2408 03-01-2009 01:57:51 -2.9 C 3.16 g/m*3 -2.9 C 0 km/h
2409 03-01-2009 02:09:51 -3.1 C 3.12 g/m*3 -3.1 C 0 km/h
2410 03-01-2009 02:21:51 -3.2 C 3.14 g/m*3 -3.2 C 0 km/h
2411 03-01-2009 02:33:52 -3.1 C 3.2 g/m*3 -3.1 C 0 km/h
2412 03-01-2009 02:45:52 -2.7 C 3.29 g/m*3 -2.7 C 0 km/h
2413 03-01-2009 02:57:52 -2.6 C 3.31 g/m*3 -2.6 C 0 km/h
2414 03-01-2009 03:09:52 -2.5 C 3.34 g/m*3 -2.5 C 0 km/h
2415 03-01-2009 03:21:52 -2.4 C 3.36 g/m*3 -2.4 C 0 km/h
2416 03-01-2009 03:33:52 -2.3 C 3.38 g/m*3 -2.3 C 0 km/h
2417 03-01-2009 03:45:52 -2.2 C 3.41 g/m*3 -2.2 C 0 km/h
2418 03-01-2009 03:57:52 -2.1 C 3.39 g/m*3 -2.1 C 0 km/h
2419 03-01-2009 04:09:52 -2.2 C 3.28 g/m*3 -2.2 C 0 km/h
2420 03-01-2009 04:21:52 -2.5 C 3.17 g/m*3 -2.5 C 0 km/h
2421 03-01-2009 04:33:52 -2.9 C 3.05 g/m*3 -2.9 C 0 km/h
2422 03-01-2009 04:45:52 -3 C 3.06 g/m*3 -3 C 0 km/h
2423 03-01-2009 04:57:52 -3 C 3.02 g/m*3 -3 C 0 km/h
2424 03-01-2009 05:09:52 -2.8 C 3.07 g/m*3 -2.8 C 0 km/h
2425 03-01-2009 05:21:52 -2.7 C 3.09 g/m*3 -2.7 C 0 km/h
Sensor: Nr:Datum:Temp:Abs-Feuchte:Windchill:Wind:
Aussen-T/F 2426 03-01-2009 05:33:52 -2.6 C 3.11 g/m*3 -2.6 C 0 km/h
2427 03-01-2009 05:45:52 -2.6 C 3.11 g/m*3 -2.6 C 0 km/h
2428 03-01-2009 05:57:52 -2.6 C 3.07 g/m*3 -2.6 C 0 km/h
2429 03-01-2009 06:09:52 -2.6 C 3.11 g/m*3 -2.6 C 0 km/h
2430 03-01-2009 06:21:52 -2.6 C 3.11 g/m*3 -2.6 C 0 km/h
2431 03-01-2009 06:33:52 -2.6 C 3.11 g/m*3 -2.6 C 0 km/h
2432 03-01-2009 06:45:53 -2.6 C 3.11 g/m*3 -2.6 C 0 km/h
2433 03-01-2009 06:57:53 -2.6 C 3.11 g/m*3 -2.6 C 0 km/h
2434 03-01-2009 07:09:53 -2.8 C 2.99 g/m*3 -2.8 C 0 km/h
2435 03-01-2009 07:21:53 -2.9 C 2.97 g/m*3 -2.9 C 0 km/h
2436 03-01-2009 07:33:53 -3 C 2.91 g/m*3 -3 C 0 km/h
2437 03-01-2009 07:45:53 -3.4 C 2.83 g/m*3 -3.4 C 0 km/h
2438 03-01-2009 07:57:53 -3.9 C 2.73 g/m*3 -3.9 C 0 km/h
2439 03-01-2009 08:09:53 -4 C 2.74 g/m*3 -4 C 0 km/h
2440 03-01-2009 08:21:53 -4 C 2.78 g/m*3 -4 C 0 km/h
2441 03-01-2009 08:33:53 -4 C 2.78 g/m*3 -4 C 0 km/h
2442 03-01-2009 08:45:53 -4.2 C 2.74 g/m*3 -4.2 C 0 km/h
2443 03-01-2009 08:57:53 -4.4 C 2.7 g/m*3 -4.4 C 0 km/h
2444 03-01-2009 09:09:51 -4.7 C 2.64 g/m*3 -4.7 C 0 km/h
2445 03-01-2009 09:21:50 -4.7 C 2.68 g/m*3 -4.7 C 0 km/h
2446 03-01-2009 09:33:50 -4.7 C 2.68 g/m*3 -4.7 C 0 km/h
2447 03-01-2009 09:45:50 -4.7 C 2.68 g/m*3 -4.7 C 0 km/h
2448 03-01-2009 09:57:50 -4.7 C 2.71 g/m*3 -4.7 C 0 km/h
2449 03-01-2009 10:09:50 -4.7 C 2.71 g/m*3 -4.7 C 0 km/h
2450 03-01-2009 10:21:50 -4.7 C 2.71 g/m*3 -4.7 C 0 km/h
Sensor: Nr:Datum:Temp:Abs-Feuchte:Windchill:Wind:
Aussen-T/F 2451 03-01-2009 10:33:50 -4.6 C 2.73 g/m*3 -4.6 C 0 km/h
2452 03-01-2009 10:45:50 -4.6 C 2.73 g/m*3 -4.6 C 0 km/h
2453 03-01-2009 10:57:50 -4.6 C 2.73 g/m*3 -4.6 C 0 km/h
2454 03-01-2009 11:09:49 -4.5 C 2.75 g/m*3 -4.5 C 0 km/h
2455 03-01-2009 11:21:50 -4.4 C 2.77 g/m*3 -4.4 C 0 km/h
2456 03-01-2009 11:33:49 -4.4 C 2.77 g/m*3 -4.4 C 0 km/h
2457 03-01-2009 11:45:49 -4.3 C 2.79 g/m*3 -4.3 C 0 km/h
2458 03-01-2009 11:57:50 -4.2 C 2.81 g/m*3 -4.2 C 0 km/h
2459 03-01-2009 12:09:48 -4.2 C 2.81 g/m*3 -4.2 C 0 km/h
2460 03-01-2009 12:21:49 -4.1 C 2.8 g/m*3 -4.1 C 0 km/h
2461 03-01-2009 12:33:49 -4.1 C 2.8 g/m*3 -4.1 C 0 km/h
2462 03-01-2009 12:45:48 -3.9 C 2.84 g/m*3 -3.9 C 0 km/h
2463 03-01-2009 12:57:48 -3.8 C 2.86 g/m*3 -3.8 C 0 km/h
2464 03-01-2009 13:09:49 -3.8 C 2.86 g/m*3 -3.8 C 0 km/h
2465 03-01-2009 13:21:48 -3.7 C 2.88 g/m*3 -3.7 C 0 km/h
2466 03-01-2009 13:33:48 -3.6 C 2.9 g/m*3 -3.6 C 0 km/h
2467 03-01-2009 13:45:48 -3.5 C 2.92 g/m*3 -3.5 C 0 km/h
2468 03-01-2009 13:57:48 -3.4 C 2.9 g/m*3 -3.4 C 0 km/h
2469 03-01-2009 14:09:48 -3.4 C 2.9 g/m*3 -3.4 C 0 km/h
2470 03-01-2009 14:21:47 -3.4 C 2.9 g/m*3 -3.4 C 0 km/h
2471 03-01-2009 14:33:47 -3.3 C 2.92 g/m*3 -3.3 C 0 km/h
2472 03-01-2009 14:45:47 -3.3 C 2.92 g/m*3 -3.3 C 0 km/h
2473 03-01-2009 14:57:47 -3.2 C 2.94 g/m*3 -3.2 C 0 km/h
2474 03-01-2009 15:09:47 -3.3 C 2.92 g/m*3 -3.3 C 0 km/h
2475 03-01-2009 15:21:47 -3.3 C 2.92 g/m*3 -3.3 C 0 km/h
Sensor: Nr:Datum:Temp:Abs-Feuchte:Windchill:Wind:
Aussen-T/F 2476 03-01-2009 15:33:47 -3.3 C 2.92 g/m*3 -3.3 C 0 km/h
2477 03-01-2009 15:45:47 -3.3 C 2.92 g/m*3 -3.3 C 0 km/h
2478 03-01-2009 15:57:47 -3.4 C 2.86 g/m*3 -3.4 C 0 km/h
2479 03-01-2009 16:09:46 -3.4 C 2.86 g/m*3 -3.4 C 0 km/h
2480 03-01-2009 16:21:47 -3.5 C 2.84 g/m*3 -3.5 C 0 km/h
2481 03-01-2009 16:33:46 -3.6 C 2.82 g/m*3 -3.6 C 0 km/h
2482 03-01-2009 16:45:46 -3.6 C 2.86 g/m*3 -3.6 C 0 km/h
2483 03-01-2009 16:57:46 -3.8 C 2.82 g/m*3 -3.8 C 0 km/h
2484 03-01-2009 17:09:46 -4 C 2.78 g/m*3 -4 C 0 km/h
2485 03-01-2009 17:21:46 -4.3 C 2.72 g/m*3 -4.3 C 0 km/h
2486 03-01-2009 17:33:46 -4.3 C 2.79 g/m*3 -4.3 C 0 km/h
2487 03-01-2009 17:45:46 -4.5 C 2.75 g/m*3 -4.5 C 0 km/h
2488 03-01-2009 17:57:46 -4.4 C 2.81 g/m*3 -4.4 C 0 km/h
2489 03-01-2009 18:09:46 -4.6 C 2.77 g/m*3 -4.6 C 0 km/h
2490 03-01-2009 18:21:45 -4.7 C 2.75 g/m*3 -4.7 C 0 km/h
2491 03-01-2009 18:33:45 -4.7 C 2.78 g/m*3 -4.7 C 0 km/h
2492 03-01-2009 18:45:45 -4.8 C 2.8 g/m*3 -4.8 C 0 km/h
2493 03-01-2009 18:57:45 -4.6 C 2.84 g/m*3 -4.6 C 0 km/h
2494 03-01-2009 19:09:45 -4.6 C 2.87 g/m*3 -4.6 C 0 km/h
2495 03-01-2009 19:21:44 -4.6 C 2.87 g/m*3 -4.6 C 0 km/h
2496 03-01-2009 19:33:45 -4.9 C 2.78 g/m*3 -4.9 C 0 km/h
2497 03-01-2009 19:45:45 -5.2 C 2.72 g/m*3 -5.2 C 0 km/h
2498 03-01-2009 19:57:45 -5.1 C 2.77 g/m*3 -5.1 C 0 km/h
2499 03-01-2009 20:09:44 -5 C 2.83 g/m*3 -5 C 0 km/h
2500 03-01-2009 20:21:45 -5.2 C 2.79 g/m*3 -5.2 C 0 km/h
Sensor: Nr:Datum:Temp:Abs-Feuchte:Windchill:Wind:
Aussen-T/F 2501 03-01-2009 20:33:44 -5.2 C 2.79 g/m*3 -5.2 C 0 km/h
2502 03-01-2009 20:45:44 -5 C 2.86 g/m*3 -5 C 0 km/h
2503 03-01-2009 20:57:44 -4.6 C 2.98 g/m*3 -4.6 C 0 km/h
2504 03-01-2009 21:09:43 -4.3 C 3.01 g/m*3 -4.3 C 0 km/h
2505 03-01-2009 21:21:44 -4.2 C 2.99 g/m*3 -4.2 C 0 km/h
2506 03-01-2009 21:33:44 -4.2 C 2.92 g/m*3 -4.2 C 0 km/h
2507 03-01-2009 21:45:43 -4.2 C 2.92 g/m*3 -4.2 C 0 km/h
2508 03-01-2009 21:57:43 -4.1 C 2.91 g/m*3 -4.1 C 0 km/h
2509 03-01-2009 22:09:44 -4.1 C 2.91 g/m*3 -4.1 C 0 km/h
2510 03-01-2009 22:21:43 -4 C 2.89 g/m*3 -4 C 0 km/h
2511 03-01-2009 22:33:43 -4 C 2.89 g/m*3 -4 C 0 km/h
2512 03-01-2009 22:46:44 -4 C 2.89 g/m*3 -4 C 0 km/h
2513 03-01-2009 22:58:44 -4 C 2.89 g/m*3 -4 C 0 km/h
2514 03-01-2009 23:10:44 -3.9 C 2.91 g/m*3 -3.9 C 0 km/h
2515 03-01-2009 23:22:44 -3.9 C 2.91 g/m*3 -3.9 C 0 km/h
2516 03-01-2009 23:34:44 -3.8 C 2.89 g/m*3 -3.8 C 0 km/h
2517 03-01-2009 23:46:44 -3.6 C 2.9 g/m*3 -3.6 C 0 km/h
2518 03-01-2009 23:58:44 -3.5 C 2.88 g/m*3 -3.5 C 0 km/h
2519 04-01-2009 00:10:44 -3.5 C 2.84 g/m*3 -3.5 C 0 km/h
2520 04-01-2009 00:22:44 -3.4 C 2.86 g/m*3 -3.4 C 0 km/h
2521 04-01-2009 00:34:45 -3.4 C 2.86 g/m*3 -3.4 C 0 km/h
2522 04-01-2009 00:46:45 -3.4 C 2.86 g/m*3 -3.4 C 0 km/h
2523 04-01-2009 00:58:45 -3.4 C 2.83 g/m*3 -3.4 C 0 km/h
2524 04-01-2009 01:10:45 -3.4 C 2.83 g/m*3 -3.4 C 0 km/h
2525 04-01-2009 01:22:45 -3.3 C 2.85 g/m*3 -3.3 C 0 km/h
Sensor: Nr:Datum:Temp:Abs-Feuchte:Windchill:Wind:
Aussen-T/F 2526 04-01-2009 01:34:45 -3.3 C 2.81 g/m*3 -3.3 C 0 km/h
2527 04-01-2009 01:46:45 -3.3 C 2.77 g/m*3 -3.3 C 0 km/h
2528 04-01-2009 01:58:45 -3.3 C 2.77 g/m*3 -3.3 C 0 km/h
2529 04-01-2009 02:10:45 -3.2 C 2.79 g/m*3 -3.2 C 0 km/h
2530 04-01-2009 02:22:45 -3.1 C 2.77 g/m*3 -3.1 C 0 km/h
2531 04-01-2009 02:34:45 -3.1 C 2.77 g/m*3 -3.1 C 0 km/h
2532 04-01-2009 02:46:45 -3.1 C 2.77 g/m*3 -3.1 C 0 km/h
2533 04-01-2009 02:58:45 -3.1 C 2.81 g/m*3 -3.1 C 0 km/h
2534 04-01-2009 03:10:45 -3.1 C 2.81 g/m*3 -3.1 C 0 km/h
2535 04-01-2009 03:22:45 -3 C 2.79 g/m*3 -3 C 0 km/h
2536 04-01-2009 03:34:45 -3 C 2.79 g/m*3 -3 C 0 km/h
2537 04-01-2009 03:46:45 -3 C 2.79 g/m*3 -3 C 0 km/h
2538 04-01-2009 03:58:45 -3 C 2.79 g/m*3 -3 C 0 km/h
2539 04-01-2009 04:10:45 -2.9 C 2.81 g/m*3 -2.9 C 0 km/h
2540 04-01-2009 04:22:45 -2.8 C 2.83 g/m*3 -2.8 C 0 km/h
2541 04-01-2009 04:34:46 -2.7 C 2.85 g/m*3 -2.7 C 0 km/h
2542 04-01-2009 04:46:46 -2.8 C 2.83 g/m*3 -2.8 C 0 km/h
2543 04-01-2009 04:58:46 -2.7 C 2.85 g/m*3 -2.7 C 0 km/h
2544 04-01-2009 05:10:46 -2.6 C 2.83 g/m*3 -2.6 C 0 km/h
2545 04-01-2009 05:22:46 -2.6 C 2.83 g/m*3 -2.6 C 0 km/h
2546 04-01-2009 05:34:46 -2.5 C 2.85 g/m*3 -2.5 C 0 km/h
2547 04-01-2009 05:46:46 -2.4 C 2.83 g/m*3 -2.4 C 0 km/h
2548 04-01-2009 05:58:46 -2.4 C 2.83 g/m*3 -2.4 C 0 km/h
2549 04-01-2009 06:10:46 -2.3 C 2.85 g/m*3 -2.3 C 0 km/h
2550 04-01-2009 06:22:46 -2.3 C 2.85 g/m*3 -2.3 C 0 km/h
Sensor: Nr:Datum:Temp:Abs-Feuchte:Windchill:Wind:
Aussen-T/F 2551 04-01-2009 06:34:46 -2.3 C 2.85 g/m*3 -2.3 C 0 km/h
2552 04-01-2009 06:46:46 -2.3 C 2.89 g/m*3 -2.3 C 0 km/h
2553 04-01-2009 06:58:46 -2.2 C 2.87 g/m*3 -2.2 C 0 km/h
2554 04-01-2009 07:10:46 -2.2 C 2.87 g/m*3 -2.2 C 0 km/h
2555 04-01-2009 07:22:46 -2.1 C 2.89 g/m*3 -2.1 C 0 km/h
2556 04-01-2009 07:34:44 -2.1 C 2.89 g/m*3 -2.1 C 0 km/h
2557 04-01-2009 07:46:44 -2 C 2.91 g/m*3 -2 C 0 km/h
2558 04-01-2009 07:58:44 -1.9 C 2.89 g/m*3 -1.9 C 0 km/h
2559 04-01-2009 08:10:44 -1.8 C 2.95 g/m*3 -1.8 C 0 km/h
2560 04-01-2009 08:22:43 -1.7 C 2.97 g/m*3 -1.7 C 0 km/h
2561 04-01-2009 08:34:44 -1.6 C 2.95 g/m*3 -1.6 C 0 km/h
2562 04-01-2009 08:46:43 -1.5 C 2.92 g/m*3 -1.5 C 0 km/h
2563 04-01-2009 08:58:43 -1.5 C 2.92 g/m*3 -1.5 C 0 km/h
2564 04-01-2009 09:10:43 -1.4 C 2.95 g/m*3 -1.4 C 0 km/h
2565 04-01-2009 09:22:43 -1.4 C 2.95 g/m*3 -1.4 C 0 km/h
2566 04-01-2009 09:34:43 -1.3 C 2.97 g/m*3 -1.3 C 0 km/h
2567 04-01-2009 09:46:43 -1.2 C 2.99 g/m*3 -1.2 C 0 km/h
2568 04-01-2009 09:58:43 -1.1 C 2.96 g/m*3 -1.1 C 0 km/h
2569 04-01-2009 10:10:43 -1 C 2.98 g/m*3 -1 C 0 km/h
2570 04-01-2009 10:22:42 -1 C 2.98 g/m*3 -1 C 0 km/h
2571 04-01-2009 10:34:42 -0.9 C 3 g/m*3 -0.9 C 0 km/h
2572 04-01-2009 10:46:42 -0.4 C 3.11 g/m*3 -0.4 C 0 km/h
2573 04-01-2009 10:58:42 -0.4 C 3.06 g/m*3 -0.4 C 0 km/h
2574 04-01-2009 11:10:42 -0.3 C 3.08 g/m*3 -0.3 C 0 km/h
2575 04-01-2009 11:22:41 -0.2 C 3.11 g/m*3 -0.2 C 0 km/h
Sensor: Nr:Datum:Temp:Abs-Feuchte:Windchill:Wind:
Aussen-T/F 2576 04-01-2009 11:34:42 -0.2 C 3.06 g/m*3 -0.2 C 0 km/h
2577 04-01-2009 11:46:42 -0.2 C 3.06 g/m*3 -0.2 C 0 km/h
2578 04-01-2009 11:58:42 -0.1 C 3.08 g/m*3 -0.1 C 0 km/h
2579 04-01-2009 12:10:41 -0.1 C 3.08 g/m*3 -0.1 C 0 km/h
2580 04-01-2009 12:22:42 -0.1 C 3.13 g/m*3 -0.1 C 0 km/h
2581 04-01-2009 12:34:41 0 C 3.1 g/m*3 0 C 0 km/h
2582 04-01-2009 12:46:41 0 C 3.1 g/m*3 0 C 0 km/h
2583 04-01-2009 12:58:41 0.1 C 3.12 g/m*3 0.1 C 0 km/h
2584 04-01-2009 13:10:41 0.3 C 3.12 g/m*3 0.3 C 0 km/h
2585 04-01-2009 13:22:41 0.5 C 3.11 g/m*3 0.5 C 0 km/h
2586 04-01-2009 13:34:41 0.8 C 3.02 g/m*3 0.8 C 0 km/h
2587 04-01-2009 13:46:41 0.9 C 2.94 g/m*3 0.9 C 0 km/h
2588 04-01-2009 13:58:41 0.9 C 2.99 g/m*3 0.9 C 0 km/h
2589 04-01-2009 14:10:41 0.8 C 2.92 g/m*3 0.8 C 0 km/h
2590 04-01-2009 14:22:40 0.6 C 2.93 g/m*3 0.6 C 0 km/h
2591 04-01-2009 14:34:40 0.6 C 2.98 g/m*3 0.6 C 0 km/h
2592 04-01-2009 14:46:40 0.5 C 2.96 g/m*3 0.5 C 0 km/h
2593 04-01-2009 14:58:40 0.5 C 2.91 g/m*3 0.5 C 0 km/h
2594 04-01-2009 15:10:40 0.5 C 2.91 g/m*3 0.5 C 0 km/h
2595 04-01-2009 15:22:39 0.4 C 2.89 g/m*3 0.4 C 0 km/h
2596 04-01-2009 15:34:40 0.4 C 2.89 g/m*3 0.4 C 0 km/h
2597 04-01-2009 15:46:39 0.3 C 2.92 g/m*3 0.3 C 0 km/h
2598 04-01-2009 15:58:39 0.3 C 2.87 g/m*3 0.3 C 0 km/h
2599 04-01-2009 16:10:39 0.2 C 2.9 g/m*3 0.2 C 0 km/h
2600 04-01-2009 16:22:39 0.2 C 2.95 g/m*3 0.2 C 0 km/h
Sensor: Nr:Datum:Temp:Abs-Feuchte:Windchill:Wind:
Aussen-T/F 2601 04-01-2009 16:34:39 0.1 C 2.93 g/m*3 0.1 C 0 km/h
2602 04-01-2009 16:46:39 0 C 2.96 g/m*3 0 C 0 km/h
2603 04-01-2009 16:58:39 0 C 2.96 g/m*3 0 C 0 km/h
2604 04-01-2009 17:10:39 0 C 2.91 g/m*3 0 C 0 km/h
2605 04-01-2009 17:22:39 0.1 C 2.93 g/m*3 0.1 C 0 km/h
2606 04-01-2009 17:34:38 0 C 2.91 g/m*3 0 C 0 km/h
2607 04-01-2009 17:46:39 0 C 2.96 g/m*3 0 C 0 km/h
2608 04-01-2009 17:58:39 -0.1 C 2.98 g/m*3 -0.1 C 0 km/h
2609 04-01-2009 18:10:38 -0.2 C 3.01 g/m*3 -0.2 C 0 km/h
2610 04-01-2009 18:22:38 -0.2 C 3.01 g/m*3 -0.2 C 0 km/h
2611 04-01-2009 18:34:38 -0.2 C 3.01 g/m*3 -0.2 C 0 km/h
2612 04-01-2009 18:46:37 -0.2 C 3.01 g/m*3 -0.2 C 0 km/h
2613 04-01-2009 18:58:37 -0.1 C 3.03 g/m*3 -0.1 C 0 km/h
2614 04-01-2009 19:10:38 0.1 C 3.02 g/m*3 0.1 C 0 km/h
2615 04-01-2009 19:22:37 0.1 C 3.02 g/m*3 0.1 C 0 km/h
2616 04-01-2009 19:34:37 0.1 C 3.02 g/m*3 0.1 C 0 km/h
2617 04-01-2009 19:46:37 0 C 3.05 g/m*3 0 C 0 km/h
2618 04-01-2009 19:58:37 0 C 3.05 g/m*3 0 C 0 km/h
2619 04-01-2009 20:10:37 0 C 3.05 g/m*3 0 C 0 km/h
2620 04-01-2009 20:22:37 0 C 3.05 g/m*3 0 C 0 km/h
2621 04-01-2009 20:34:36 0 C 3.05 g/m*3 0 C 0 km/h
2622 04-01-2009 20:46:37 -0.1 C 3.03 g/m*3 -0.1 C 0 km/h
2623 04-01-2009 20:58:37 -0.1 C 3.03 g/m*3 -0.1 C 0 km/h
2624 04-01-2009 21:10:37 -0.1 C 3.08 g/m*3 -0.1 C 0 km/h
2625 04-01-2009 21:22:36 -0.1 C 3.03 g/m*3 -0.1 C 0 km/h
Sensor: Nr:Datum:Temp:Abs-Feuchte:Windchill:Wind:
Aussen-T/F 2626 04-01-2009 21:34:36 -0.1 C 3.08 g/m*3 -0.1 C 0 km/h
2627 04-01-2009 21:46:36 -0.2 C 3.01 g/m*3 -0.2 C 0 km/h
2628 04-01-2009 21:58:36 -0.2 C 3.01 g/m*3 -0.2 C 0 km/h
2629 04-01-2009 22:10:36 -0.2 C 3.01 g/m*3 -0.2 C 0 km/h
2630 04-01-2009 22:22:35 -0.2 C 3.01 g/m*3 -0.2 C 0 km/h
2631 04-01-2009 22:34:36 -0.2 C 3.06 g/m*3 -0.2 C 0 km/h
2632 04-01-2009 22:46:35 -0.2 C 3.06 g/m*3 -0.2 C 0 km/h
2633 04-01-2009 22:58:35 -0.2 C 3.06 g/m*3 -0.2 C 0 km/h
2634 04-01-2009 23:10:35 -0.3 C 3.18 g/m*3 -0.3 C 0 km/h
2635 04-01-2009 23:22:36 -0.4 C 3.25 g/m*3 -0.4 C 0 km/h
2636 04-01-2009 23:34:35 -0.5 C 3.28 g/m*3 -0.5 C 0 km/h
2637 04-01-2009 23:46:35 -0.7 C 3.28 g/m*3 -0.7 C 0 km/h
2638 04-01-2009 23:58:35 -0.8 C 3.3 g/m*3 -0.8 C 0 km/h
2639 05-01-2009 00:10:34 -0.8 C 3.3 g/m*3 -0.8 C 0 km/h
2640 05-01-2009 00:22:35 -0.9 C 3.37 g/m*3 -0.9 C 0 km/h
2641 05-01-2009 00:34:35 -0.9 C 3.41 g/m*3 -0.9 C 0 km/h
2642 05-01-2009 00:46:34 -1 C 3.39 g/m*3 -1 C 0 km/h
2643 05-01-2009 00:58:34 -1.1 C 3.41 g/m*3 -1.1 C 0 km/h
2644 05-01-2009 01:10:35 -1.1 C 3.46 g/m*3 -1.1 C 0 km/h
2645 05-01-2009 01:22:34 -1.1 C 3.46 g/m*3 -1.1 C 0 km/h
2646 05-01-2009 01:34:34 -1.2 C 3.48 g/m*3 -1.2 C 0 km/h
2647 05-01-2009 01:46:33 -1.2 C 3.52 g/m*3 -1.2 C 0 km/h
2648 05-01-2009 01:58:33 -1.3 C 3.54 g/m*3 -1.3 C 0 km/h
2649 05-01-2009 02:10:34 -1.3 C 3.54 g/m*3 -1.3 C 0 km/h
2650 05-01-2009 02:22:33 -1.2 C 3.57 g/m*3 -1.2 C 0 km/h
Sensor: Nr:Datum:Temp:Abs-Feuchte:Windchill:Wind:
Aussen-T/F 2651 05-01-2009 02:34:33 -1.3 C 3.54 g/m*3 -1.3 C 0 km/h
2652 05-01-2009 02:47:34 -1.2 C 3.57 g/m*3 -1.2 C 0 km/h
2653 05-01-2009 02:59:34 -1.2 C 3.52 g/m*3 -1.2 C 0 km/h
2654 05-01-2009 03:11:34 -1.2 C 3.57 g/m*3 -1.2 C 0 km/h
2655 05-01-2009 03:23:34 -1.3 C 3.63 g/m*3 -1.3 C 0 km/h
2656 05-01-2009 03:35:34 -1.3 C 3.63 g/m*3 -1.3 C 0 km/h
2657 05-01-2009 03:47:34 -1.4 C 3.65 g/m*3 -1.4 C 0 km/h
2658 05-01-2009 03:59:34 -1.5 C 3.67 g/m*3 -1.5 C 0 km/h
2659 05-01-2009 04:11:34 -1.5 C 3.67 g/m*3 -1.5 C 0 km/h
2660 05-01-2009 04:23:33 -1.6 C 3.68 g/m*3 -1.6 C 0 km/h
2661 05-01-2009 04:35:34 -1.6 C 3.68 g/m*3 -1.6 C 0 km/h
2662 05-01-2009 04:47:34 -1.6 C 3.73 g/m*3 -1.6 C 0 km/h
2663 05-01-2009 04:59:34 -1.6 C 3.73 g/m*3 -1.6 C 0 km/h
2664 05-01-2009 05:11:33 -1.6 C 3.73 g/m*3 -1.6 C 0 km/h
2665 05-01-2009 05:23:33 -1.6 C 3.73 g/m*3 -1.6 C 0 km/h
2666 05-01-2009 05:35:34 -1.6 C 3.77 g/m*3 -1.6 C 0 km/h
2667 05-01-2009 05:47:33 -1.7 C 3.75 g/m*3 -1.7 C 0 km/h
2668 05-01-2009 05:59:33 -1.7 C 3.75 g/m*3 -1.7 C 0 km/h
2669 05-01-2009 06:11:33 -1.7 C 3.75 g/m*3 -1.7 C 0 km/h
2670 05-01-2009 06:23:33 -1.6 C 3.77 g/m*3 -1.6 C 0 km/h
2671 05-01-2009 06:35:32 -1.7 C 3.75 g/m*3 -1.7 C 0 km/h
2672 05-01-2009 06:47:33 -1.6 C 3.77 g/m*3 -1.6 C 0 km/h
2673 05-01-2009 06:59:34 -1.6 C 3.77 g/m*3 -1.6 C 0 km/h
2674 05-01-2009 07:11:32 -1.7 C 3.75 g/m*3 -1.7 C 0 km/h
2675 05-01-2009 07:23:32 -1.6 C 3.77 g/m*3 -1.6 C 0 km/h
Sensor: Nr:Datum:Temp:Abs-Feuchte:Windchill:Wind:
Aussen-T/F 2676 05-01-2009 07:35:32 -1.7 C 3.75 g/m*3 -1.7 C 0 km/h
2677 05-01-2009 07:47:32 -1.7 C 3.75 g/m*3 -1.7 C 0 km/h
2678 05-01-2009 07:59:32 -1.7 C 3.79 g/m*3 -1.7 C 0 km/h
2679 05-01-2009 08:11:32 -1.7 C 3.79 g/m*3 -1.7 C 0 km/h
2680 05-01-2009 08:23:31 -1.7 C 3.79 g/m*3 -1.7 C 0 km/h
2681 05-01-2009 08:35:32 -1.7 C 3.75 g/m*3 -1.7 C 0 km/h
2682 05-01-2009 08:47:31 -1.7 C 3.79 g/m*3 -1.7 C 0 km/h
2683 05-01-2009 08:59:31 -1.7 C 3.79 g/m*3 -1.7 C 0 km/h
2684 05-01-2009 09:11:32 -1.6 C 3.81 g/m*3 -1.6 C 0 km/h
2685 05-01-2009 09:23:31 -1.6 C 3.81 g/m*3 -1.6 C 0 km/h
2686 05-01-2009 09:35:31 -1.5 C 3.84 g/m*3 -1.5 C 0 km/h
2687 05-01-2009 09:47:31 -1.4 C 3.87 g/m*3 -1.4 C 0 km/h
2688 05-01-2009 09:59:31 -1.3 C 3.85 g/m*3 -1.3 C 0 km/h
2689 05-01-2009 10:11:31 -1.2 C 3.83 g/m*3 -1.2 C 0 km/h
2690 05-01-2009 10:23:30 -1 C 3.89 g/m*3 -1 C 0 km/h
2691 05-01-2009 10:35:31 -1 C 3.84 g/m*3 -1 C 0 km/h
2692 05-01-2009 10:47:30 -1 C 3.8 g/m*3 -1 C 0 km/h
2693 05-01-2009 10:59:30 -0.9 C 3.78 g/m*3 -0.9 C 0 km/h
2694 05-01-2009 11:11:30 -0.8 C 3.8 g/m*3 -0.8 C 0 km/h
2695 05-01-2009 11:23:30 -0.9 C 3.73 g/m*3 -0.9 C 0 km/h
2696 05-01-2009 11:35:30 -0.9 C 3.69 g/m*3 -0.9 C 0 km/h
2697 05-01-2009 11:47:29 -0.6 C 3.76 g/m*3 -0.6 C 0 km/h
2698 05-01-2009 11:59:29 -0.3 C 3.84 g/m*3 -0.3 C 0 km/h
2699 05-01-2009 12:11:29 -0.3 C 3.8 g/m*3 -0.3 C 0 km/h
2700 05-01-2009 12:23:30 -0.2 C 3.82 g/m*3 -0.2 C 0 km/h
Sensor: Nr:Datum:Temp:Abs-Feuchte:Windchill:Wind:
Aussen-T/F 2701 05-01-2009 12:35:29 -0.1 C 3.85 g/m*3 -0.1 C 0 km/h
2702 05-01-2009 12:47:29 0.2 C 3.93 g/m*3 0.2 C 0 km/h
2703 05-01-2009 12:59:29 0.3 C 3.96 g/m*3 0.3 C 0 km/h
2704 05-01-2009 13:11:29 0.4 C 3.98 g/m*3 0.4 C 0 km/h
2705 05-01-2009 13:23:29 0.5 C 4.01 g/m*3 0.5 C 0 km/h
2706 05-01-2009 13:35:28 0.3 C 3.91 g/m*3 0.3 C 0 km/h
2707 05-01-2009 13:47:29 0.1 C 3.66 g/m*3 0.1 C 0 km/h
2708 05-01-2009 13:59:30 0 C 3.44 g/m*3 0 C 0 km/h
2709 05-01-2009 14:11:28 0 C 3.39 g/m*3 0 C 0 km/h
2710 05-01-2009 14:23:28 0.1 C 3.32 g/m*3 0.1 C 0 km/h
2711 05-01-2009 14:35:28 0.1 C 3.22 g/m*3 0.1 C 0 km/h
2712 05-01-2009 14:47:28 0.2 C 3.19 g/m*3 0.2 C 0 km/h
2713 05-01-2009 14:59:28 0.2 C 3.19 g/m*3 0.2 C 0 km/h
2714 05-01-2009 15:11:28 0.1 C 3.07 g/m*3 0.1 C 0 km/h
2715 05-01-2009 15:23:27 -0.1 C 2.94 g/m*3 -0.1 C 0 km/h
2716 05-01-2009 15:35:28 -0.2 C 2.91 g/m*3 -0.2 C 0 km/h
2717 05-01-2009 15:47:27 -0.3 C 2.94 g/m*3 -0.3 C 0 km/h
2718 05-01-2009 15:59:27 -0.5 C 2.95 g/m*3 -0.5 C 0 km/h
2719 05-01-2009 16:11:27 -0.8 C 2.75 g/m*3 -0.8 C 0 km/h
2720 05-01-2009 16:23:27 -1 C 2.76 g/m*3 -1 C 0 km/h
2721 05-01-2009 16:35:27 -1.2 C 2.76 g/m*3 -1.2 C 0 km/h
2722 05-01-2009 16:47:26 -1.3 C 2.79 g/m*3 -1.3 C 0 km/h
2723 05-01-2009 16:59:26 -1.3 C 2.83 g/m*3 -1.3 C 0 km/h
2724 05-01-2009 17:11:27 -1.2 C 2.9 g/m*3 -1.2 C 0 km/h
2725 05-01-2009 17:23:27 -1.2 C 2.9 g/m*3 -1.2 C 0 km/h
Sensor: Nr:Datum:Temp:Abs-Feuchte:Windchill:Wind:
Aussen-T/F 2726 05-01-2009 17:35:26 -1.2 C 2.85 g/m*3 -1.2 C 0 km/h
2727 05-01-2009 17:47:27 -1.3 C 2.83 g/m*3 -1.3 C 0 km/h
2728 05-01-2009 17:59:27 -1.3 C 2.79 g/m*3 -1.3 C 0 km/h
2729 05-01-2009 18:11:26 -1.4 C 2.77 g/m*3 -1.4 C 0 km/h
2730 05-01-2009 18:23:26 -1.5 C 2.75 g/m*3 -1.5 C 0 km/h
2731 05-01-2009 18:35:25 -1.5 C 2.71 g/m*3 -1.5 C 0 km/h
2732 05-01-2009 18:47:26 -1.5 C 2.66 g/m*3 -1.5 C 0 km/h
2733 05-01-2009 18:59:26 -1.5 C 2.58 g/m*3 -1.5 C 0 km/h
2734 05-01-2009 19:11:25 -1.5 C 2.49 g/m*3 -1.5 C 0 km/h
2735 05-01-2009 19:23:25 -1.6 C 2.47 g/m*3 -1.6 C 0 km/h
2736 05-01-2009 19:35:26 -1.5 C 2.44 g/m*3 -1.5 C 0 km/h
2737 05-01-2009 19:47:25 -1.5 C 2.44 g/m*3 -1.5 C 0 km/h
2738 05-01-2009 19:59:25 -1.6 C 2.47 g/m*3 -1.6 C 0 km/h
2739 05-01-2009 20:11:25 -1.6 C 2.51 g/m*3 -1.6 C 0 km/h
2740 05-01-2009 20:23:25 -1.7 C 2.54 g/m*3 -1.7 C 0 km/h
2741 05-01-2009 20:35:25 -1.7 C 2.54 g/m*3 -1.7 C 0 km/h
2742 05-01-2009 20:47:24 -1.7 C 2.45 g/m*3 -1.7 C 0 km/h
2743 05-01-2009 20:59:24 -1.8 C 2.44 g/m*3 -1.8 C 0 km/h
2744 05-01-2009 21:11:24 -1.9 C 2.46 g/m*3 -1.9 C 0 km/h
2745 05-01-2009 21:23:24 -1.9 C 2.5 g/m*3 -1.9 C 0 km/h
2746 05-01-2009 21:35:24 -2 C 2.49 g/m*3 -2 C 0 km/h
2747 05-01-2009 21:47:24 -2.1 C 2.43 g/m*3 -2.1 C 0 km/h
2748 05-01-2009 21:59:24 -2.1 C 2.43 g/m*3 -2.1 C 0 km/h
2749 05-01-2009 22:11:24 -2.2 C 2.41 g/m*3 -2.2 C 0 km/h
2750 05-01-2009 22:24:25 -2.3 C 2.39 g/m*3 -2.3 C 0 km/h
Sensor: Nr:Datum:Temp:Abs-Feuchte:Windchill:Wind:
Aussen-T/F 2751 05-01-2009 22:36:25 -2.3 C 2.39 g/m*3 -2.3 C 0 km/h
2752 05-01-2009 22:48:25 -2.4 C 2.34 g/m*3 -2.4 C 0 km/h
2753 05-01-2009 23:00:25 -2.5 C 2.32 g/m*3 -2.5 C 0 km/h
2754 05-01-2009 23:12:25 -2.5 C 2.36 g/m*3 -2.5 C 0 km/h
2755 05-01-2009 23:24:25 -2.6 C 2.34 g/m*3 -2.6 C 0 km/h
2756 05-01-2009 23:36:25 -2.6 C 2.34 g/m*3 -2.6 C 0 km/h
2757 05-01-2009 23:48:26 -2.7 C 2.33 g/m*3 -2.7 C 0 km/h
2758 06-01-2009 00:00:26 -2.8 C 2.31 g/m*3 -2.8 C 0 km/h
2759 06-01-2009 00:12:26 -2.8 C 2.39 g/m*3 -2.8 C 0 km/h
2760 06-01-2009 00:24:26 -2.9 C 2.33 g/m*3 -2.9 C 0 km/h
2761 06-01-2009 00:36:26 -3 C 2.32 g/m*3 -3 C 0 km/h
2762 06-01-2009 00:48:26 -3.3 C 2.23 g/m*3 -3.3 C 0 km/h
2763 06-01-2009 01:00:26 -3.6 C 2.18 g/m*3 -3.6 C 0 km/h
2764 06-01-2009 01:12:26 -4.1 C 2.11 g/m*3 -4.1 C 0 km/h
2765 06-01-2009 01:24:26 -4.5 C 2.05 g/m*3 -4.5 C 0 km/h
2766 06-01-2009 01:36:26 -4.9 C 2.02 g/m*3 -4.9 C 0 km/h
2767 06-01-2009 01:48:26 -4.8 C 2.07 g/m*3 -4.8 C 0 km/h
2768 06-01-2009 02:00:26 -4.7 C 1.84 g/m*3 -4.7 C 0 km/h
2769 06-01-2009 02:12:26 -4.6 C 1.72 g/m*3 -4.6 C 0 km/h
2770 06-01-2009 02:24:26 -4.7 C 1.57 g/m*3 -4.7 C 0 km/h
2771 06-01-2009 02:36:26 -4.8 C 1.42 g/m*3 -4.8 C 0 km/h
2772 06-01-2009 02:48:26 -5 C 1.29 g/m*3 -5 C 0 km/h
2773 06-01-2009 03:00:26 -5.1 C 1.32 g/m*3 -5.1 C 0 km/h
2774 06-01-2009 03:12:26 -5.2 C 1.28 g/m*3 -5.2 C 0 km/h
2775 06-01-2009 03:24:26 -5.2 C 1.28 g/m*3 -5.2 C 0 km/h
Sensor: Nr:Datum:Temp:Abs-Feuchte:Windchill:Wind:
Aussen-T/F 2776 06-01-2009 03:36:26 -5.3 C 1.23 g/m*3 -5.3 C 0 km/h
2777 06-01-2009 03:48:26 -5.6 C 1.21 g/m*3 -5.6 C 0 km/h
2778 06-01-2009 04:00:27 -6 C 1.27 g/m*3 -6 C 0 km/h
2779 06-01-2009 04:12:27 -6.3 C 1.21 g/m*3 -6.3 C 0 km/h
2780 06-01-2009 04:24:27 -6.5 C 1.16 g/m*3 -6.5 C 0 km/h
2781 06-01-2009 04:36:27 -6.5 C 1.1 g/m*3 -6.5 C 0 km/h
2782 06-01-2009 04:48:27 -6.4 C 1.11 g/m*3 -6.4 C 0 km/h
2783 06-01-2009 05:00:27 -6.7 C 1.02 g/m*3 -6.7 C 0 km/h
2784 06-01-2009 05:12:27 -6.6 C 1.06 g/m*3 -6.6 C 0 km/h
2785 06-01-2009 05:24:27 -6.3 C 1.12 g/m*3 -6.3 C 0 km/h
2786 06-01-2009 05:36:27 -6.2 C 1.09 g/m*3 -6.2 C 0 km/h
2787 06-01-2009 05:48:27 -6 C 1.14 g/m*3 -6 C 0 km/h
2788 06-01-2009 06:00:27 -6 C 1.14 g/m*3 -6 C 0 km/h
2789 06-01-2009 06:12:27 -6 C 1.08 g/m*3 -6 C 0 km/h
2790 06-01-2009 06:24:27 -6 C 0.98 g/m*3 -6 C 0 km/h
2791 06-01-2009 06:36:27 -6.1 C 0.85 g/m*3 -6.1 C 0 km/h
2792 06-01-2009 06:48:25 -6.2 C 0.87 g/m*3 -6.2 C 0 km/h
2793 06-01-2009 07:00:25 -6.2 C 0.97 g/m*3 -6.2 C 0 km/h
2794 06-01-2009 07:12:25 -6.3 C 0.9 g/m*3 -6.3 C 0 km/h
2795 06-01-2009 07:24:25 -6.2 C 0.97 g/m*3 -6.2 C 0 km/h
2796 06-01-2009 07:36:24 -6.3 C 0.87 g/m*3 -6.3 C 0 km/h
2797 06-01-2009 07:48:25 -6.5 C 0.76 g/m*3 -6.5 C 0 km/h
2798 06-01-2009 08:00:24 -6.5 C 0.89 g/m*3 -6.5 C 0 km/h
2799 06-01-2009 08:12:24 -6.4 C 0.92 g/m*3 -6.4 C 0 km/h
2800 06-01-2009 08:24:24 -6.4 C 0.77 g/m*3 -6.4 C 0 km/h
Sensor: Nr:Datum:Temp:Abs-Feuchte:Windchill:Wind:
Aussen-T/F 2801 06-01-2009 08:36:24 -6.4 C 0.86 g/m*3 -6.4 C 0 km/h
2802 06-01-2009 08:48:24 -6.7 C 0.9 g/m*3 -6.7 C 0 km/h
2803 06-01-2009 09:00:24 -6.7 C 0.9 g/m*3 -6.7 C 0 km/h
2804 06-01-2009 09:12:24 -6.7 C 0.96 g/m*3 -6.7 C 0 km/h
2805 06-01-2009 09:24:24 -6.4 C 1.08 g/m*3 -6.4 C 0 km/h
2806 06-01-2009 09:36:24 -6.2 C 0.97 g/m*3 -6.2 C 0 km/h
2807 06-01-2009 09:48:23 -6 C 0.95 g/m*3 -6 C 0 km/h
2808 06-01-2009 10:00:23 -5.8 C 0.93 g/m*3 -5.8 C 0 km/h
2809 06-01-2009 10:12:23 -5.7 C 0.81 g/m*3 -5.7 C 0 km/h
2810 06-01-2009 10:24:23 -5.7 C 0.65 g/m*3 -5.7 C 0 km/h
2811 06-01-2009 10:36:23 -5.6 C 0.68 g/m*3 -5.6 C 0 km/h
2812 06-01-2009 10:48:22 -5.6 C 0.65 g/m*3 -5.6 C 0 km/h
2813 06-01-2009 11:00:23 -5.6 C 0.65 g/m*3 -5.6 C 0 km/h
2814 06-01-2009 11:12:23 -5.6 C 0.65 g/m*3 -5.6 C 0 km/h
2815 06-01-2009 11:24:22 -5.6 C 0.68 g/m*3 -5.6 C 0 km/h
2816 06-01-2009 11:36:22 -5.6 C 0.68 g/m*3 -5.6 C 0 km/h
2817 06-01-2009 11:48:22 -5.6 C 1.04 g/m*3 -5.6 C 0 km/h
2818 06-01-2009 12:00:22 -5.5 C 1.15 g/m*3 -5.5 C 0 km/h
2819 06-01-2009 12:12:22 -5.3 C 1.17 g/m*3 -5.3 C 0 km/h
2820 06-01-2009 12:24:22 -5 C 1.19 g/m*3 -5 C 0 km/h
2821 06-01-2009 12:36:21 -4.6 C 1.23 g/m*3 -4.6 C 0 km/h
2822 06-01-2009 12:48:22 -4.1 C 1.23 g/m*3 -4.1 C 0 km/h
2823 06-01-2009 13:00:21 -4 C 1.21 g/m*3 -4 C 0 km/h
2824 06-01-2009 13:12:21 -3.9 C 1.18 g/m*3 -3.9 C 0 km/h
2825 06-01-2009 13:24:21 -3.7 C 1.16 g/m*3 -3.7 C 0 km/h
Sensor: Nr:Datum:Temp:Abs-Feuchte:Windchill:Wind:
Aussen-T/F 2826 06-01-2009 13:36:22 -3.9 C 1.07 g/m*3 -3.9 C 0 km/h
2827 06-01-2009 13:48:21 -4.6 C 1.05 g/m*3 -4.6 C 0 km/h
2828 06-01-2009 14:00:21 -5.2 C 1.04 g/m*3 -5.2 C 0 km/h
2829 06-01-2009 14:12:21 -5.4 C 1.16 g/m*3 -5.4 C 0 km/h
2830 06-01-2009 14:24:21 -5.6 C 1.24 g/m*3 -5.6 C 0 km/h
2831 06-01-2009 14:36:21 -5.7 C 1.04 g/m*3 -5.7 C 0 km/h
2832 06-01-2009 14:48:20 -6 C 1.14 g/m*3 -6 C 0 km/h
2833 06-01-2009 15:00:21 -6.2 C 1.25 g/m*3 -6.2 C 0 km/h
2834 06-01-2009 15:12:22 -6.3 C 1.33 g/m*3 -6.3 C 0 km/h
2835 06-01-2009 15:24:20 -6.4 C 1.32 g/m*3 -6.4 C 0 km/h
2836 06-01-2009 15:36:20 -6.7 C 1.35 g/m*3 -6.7 C 0 km/h
2837 06-01-2009 15:48:19 -6.8 C 1.28 g/m*3 -6.8 C 0 km/h
2838 06-01-2009 16:00:20 -7 C 1.32 g/m*3 -7 C 0 km/h
2839 06-01-2009 16:12:20 -7.2 C 1.31 g/m*3 -7.2 C 0 km/h
2840 06-01-2009 16:24:20 -7.3 C 1.3 g/m*3 -7.3 C 0 km/h
2841 06-01-2009 16:36:19 -7.4 C 1.29 g/m*3 -7.4 C 0 km/h
2842 06-01-2009 16:48:20 -7.8 C 1.28 g/m*3 -7.8 C 0 km/h
2843 06-01-2009 17:00:19 -7.9 C 1.32 g/m*3 -7.9 C 0 km/h
2844 06-01-2009 17:12:19 -8 C 1.34 g/m*3 -8 C 0 km/h
2845 06-01-2009 17:24:19 -8.2 C 1.35 g/m*3 -8.2 C 0 km/h
2846 06-01-2009 17:36:19 -8.4 C 1.35 g/m*3 -8.4 C 0 km/h
2847 06-01-2009 17:48:19 -8.6 C 1.36 g/m*3 -8.6 C 0 km/h
2848 06-01-2009 18:00:19 -8.9 C 1.33 g/m*3 -8.9 C 0 km/h
2849 06-01-2009 18:12:19 -9.1 C 1.34 g/m*3 -9.1 C 0 km/h
2850 06-01-2009 18:24:18 -9.2 C 1.38 g/m*3 -9.2 C 0 km/h
Sensor: Nr:Datum:Temp:Abs-Feuchte:Windchill:Wind:
Aussen-T/F 2851 06-01-2009 18:36:18 -9.4 C 1.36 g/m*3 -9.4 C 0 km/h
2852 06-01-2009 18:48:18 -9.5 C 1.37 g/m*3 -9.5 C 0 km/h
2853 06-01-2009 19:00:18 -9.2 C 1.4 g/m*3 -9.2 C 0 km/h
2854 06-01-2009 19:12:18 -9.2 C 1.35 g/m*3 -9.2 C 0 km/h
2855 06-01-2009 19:24:18 -9.5 C 1.32 g/m*3 -9.5 C 0 km/h
2856 06-01-2009 19:36:18 -9.9 C 1.28 g/m*3 -9.9 C 0 km/h
2857 06-01-2009 19:48:18 -9.9 C 1.33 g/m*3 -9.9 C 0 km/h
2858 06-01-2009 20:00:17 -10.2 C 1.3 g/m*3 -10.2 C 0 km/h
2859 06-01-2009 20:12:17 -10.4 C 1.3 g/m*3 -10.4 C 0 km/h
2860 06-01-2009 20:24:18 -10.7 C 1.27 g/m*3 -10.7 C 0 km/h
2861 06-01-2009 20:36:17 -10.8 C 1.29 g/m*3 -10.8 C 0 km/h
2862 06-01-2009 20:48:17 -10.9 C 1.28 g/m*3 -10.9 C 0 km/h
2863 06-01-2009 21:00:17 -11 C 1.29 g/m*3 -11 C 0 km/h
2864 06-01-2009 21:12:17 -11.1 C 1.3 g/m*3 -11.1 C 0 km/h
2865 06-01-2009 21:24:16 -10.9 C 1.32 g/m*3 -10.9 C 0 km/h
2866 06-01-2009 21:36:17 -10.9 C 1.32 g/m*3 -10.9 C 0 km/h
2867 06-01-2009 21:48:16 -10.8 C 1.35 g/m*3 -10.8 C 0 km/h
2868 06-01-2009 22:00:16 -11 C 1.31 g/m*3 -11 C 0 km/h
2869 06-01-2009 22:12:16 -11.3 C 1.28 g/m*3 -11.3 C 0 km/h
2870 06-01-2009 22:24:17 -11.5 C 1.28 g/m*3 -11.5 C 0 km/h
2871 06-01-2009 22:36:16 -11.7 C 1.28 g/m*3 -11.7 C 0 km/h
2872 06-01-2009 22:48:16 -12 C 1.25 g/m*3 -12 C 0 km/h
2873 06-01-2009 23:00:16 -12 C 1.27 g/m*3 -12 C 0 km/h
2874 06-01-2009 23:12:16 -12.1 C 1.28 g/m*3 -12.1 C 0 km/h
2875 06-01-2009 23:24:16 -12.3 C 1.27 g/m*3 -12.3 C 0 km/h
Sensor: Nr:Datum:Temp:Abs-Feuchte:Windchill:Wind:
Aussen-T/F 2876 06-01-2009 23:36:15 -12.6 C 1.24 g/m*3 -12.6 C 0 km/h
2877 06-01-2009 23:48:15 -12.7 C 1.25 g/m*3 -12.7 C 0 km/h
2878 07-01-2009 00:00:16 -12.8 C 1.26 g/m*3 -12.8 C 0 km/h
2879 07-01-2009 00:12:16 -12.9 C 1.25 g/m*3 -12.9 C 0 km/h
2880 07-01-2009 00:24:15 -13 C 1.24 g/m*3 -13 C 0 km/h
2881 07-01-2009 00:36:15 -13.3 C 1.21 g/m*3 -13.3 C 0 km/h
2882 07-01-2009 00:48:15 -13.2 C 1.22 g/m*3 -13.2 C 0 km/h
2883 07-01-2009 01:00:14 -13.4 C 1.22 g/m*3 -13.4 C 0 km/h
2884 07-01-2009 01:12:14 -13.6 C 1.18 g/m*3 -13.6 C 0 km/h
2885 07-01-2009 01:24:15 -13.7 C 1.17 g/m*3 -13.7 C 0 km/h
2886 07-01-2009 01:36:15 -13.7 C 1.19 g/m*3 -13.7 C 0 km/h
2887 07-01-2009 01:48:14 -13.8 C 1.18 g/m*3 -13.8 C 0 km/h
2888 07-01-2009 02:00:15 -13.9 C 1.17 g/m*3 -13.9 C 0 km/h
2889 07-01-2009 02:12:15 -13.9 C 1.17 g/m*3 -13.9 C 0 km/h
2890 07-01-2009 02:24:14 -14.1 C 1.15 g/m*3 -14.1 C 0 km/h
2891 07-01-2009 02:36:14 -14.3 C 1.13 g/m*3 -14.3 C 0 km/h
2892 07-01-2009 02:49:15 -14.3 C 1.13 g/m*3 -14.3 C 0 km/h
2893 07-01-2009 03:01:15 -14.2 C 1.14 g/m*3 -14.2 C 0 km/h
2894 07-01-2009 03:13:15 -14.6 C 1.11 g/m*3 -14.6 C 0 km/h
2895 07-01-2009 03:25:15 -14.6 C 1.11 g/m*3 -14.6 C 0 km/h
2896 07-01-2009 03:37:15 -14.7 C 1.1 g/m*3 -14.7 C 0 km/h
2897 07-01-2009 03:49:15 -14.8 C 1.09 g/m*3 -14.8 C 0 km/h
2898 07-01-2009 04:01:15 -15 C 1.06 g/m*3 -15 C 0 km/h
2899 07-01-2009 04:13:15 -15 C 1.07 g/m*3 -15 C 0 km/h
2900 07-01-2009 04:25:14 -15.2 C 1.04 g/m*3 -15.2 C 0 km/h
Sensor: Nr:Datum:Temp:Abs-Feuchte:Windchill:Wind:
Aussen-T/F 2901 07-01-2009 04:37:14 -15.4 C 1.02 g/m*3 -15.4 C 0 km/h
2902 07-01-2009 04:49:14 -15.4 C 1.02 g/m*3 -15.4 C 0 km/h
2903 07-01-2009 05:01:14 -15.4 C 1.02 g/m*3 -15.4 C 0 km/h
2904 07-01-2009 05:13:14 -15.6 C 1.01 g/m*3 -15.6 C 0 km/h
2905 07-01-2009 05:25:13 -15.7 C 0.99 g/m*3 -15.7 C 0 km/h
2906 07-01-2009 05:37:14 -15.7 C 1 g/m*3 -15.7 C 0 km/h
2907 07-01-2009 05:49:13 -15.7 C 1 g/m*3 -15.7 C 0 km/h
2908 07-01-2009 06:01:14 -15.9 C 0.97 g/m*3 -15.9 C 0 km/h
2909 07-01-2009 06:13:14 -15.9 C 0.97 g/m*3 -15.9 C 0 km/h
2910 07-01-2009 06:25:13 -16 C 0.96 g/m*3 -16 C 0 km/h
2911 07-01-2009 06:37:13 -15.9 C 0.97 g/m*3 -15.9 C 0 km/h
2912 07-01-2009 06:49:13 -15.7 C 0.99 g/m*3 -15.7 C 0 km/h
2913 07-01-2009 07:01:13 -15.4 C 1.01 g/m*3 -15.4 C 0 km/h
2914 07-01-2009 07:13:13 -15.4 C 1.01 g/m*3 -15.4 C 0 km/h
2915 07-01-2009 07:25:12 -15.5 C 0.99 g/m*3 -15.5 C 0 km/h
2916 07-01-2009 07:37:12 -15.5 C 0.99 g/m*3 -15.5 C 0 km/h
2917 07-01-2009 07:49:13 -15.4 C 0.99 g/m*3 -15.4 C 0 km/h
2918 07-01-2009 08:01:12 -15.5 C 0.97 g/m*3 -15.5 C 0 km/h
2919 07-01-2009 08:13:12 -15.6 C 0.96 g/m*3 -15.6 C 0 km/h
2920 07-01-2009 08:25:12 -15.7 C 0.96 g/m*3 -15.7 C 0 km/h
2921 07-01-2009 08:37:12 -16 C 0.92 g/m*3 -16 C 0 km/h
2922 07-01-2009 08:49:12 -16.1 C 0.91 g/m*3 -16.1 C 0 km/h
2923 07-01-2009 09:01:11 -15.9 C 0.93 g/m*3 -15.9 C 0 km/h
2924 07-01-2009 09:13:11 -15.8 C 0.95 g/m*3 -15.8 C 0 km/h
2925 07-01-2009 09:25:12 -15.7 C 0.96 g/m*3 -15.7 C 0 km/h
Sensor: Nr:Datum:Temp:Abs-Feuchte:Windchill:Wind:
Aussen-T/F 2926 07-01-2009 09:37:11 -15.6 C 0.96 g/m*3 -15.6 C 0 km/h
2927 07-01-2009 09:49:11 -15 C 1.01 g/m*3 -15 C 0 km/h
2928 07-01-2009 10:01:12 -14.1 C 1.08 g/m*3 -14.1 C 0 km/h
2929 07-01-2009 10:13:12 -13.9 C 1.08 g/m*3 -13.9 C 0 km/h
2930 07-01-2009 10:25:11 -12.9 C 1.13 g/m*3 -12.9 C 0 km/h
2931 07-01-2009 10:37:11 -12.8 C 1.1 g/m*3 -12.8 C 0 km/h
2932 07-01-2009 10:49:11 -12.6 C 1.1 g/m*3 -12.6 C 0 km/h
2933 07-01-2009 11:01:11 -12.2 C 1.14 g/m*3 -12.2 C 0 km/h
2934 07-01-2009 11:13:11 -11.7 C 1.18 g/m*3 -11.7 C 0 km/h
2935 07-01-2009 11:25:10 -11.6 C 1.17 g/m*3 -11.6 C 0 km/h
2936 07-01-2009 11:37:10 -11.6 C 1.17 g/m*3 -11.6 C 0 km/h
2937 07-01-2009 11:49:10 -10.8 C 1.24 g/m*3 -10.8 C 0 km/h
2938 07-01-2009 12:01:10 -10.4 C 1.28 g/m*3 -10.4 C 0 km/h
2939 07-01-2009 12:13:10 -9.9 C 1.31 g/m*3 -9.9 C 0 km/h
2940 07-01-2009 12:25:09 -9.5 C 1.32 g/m*3 -9.5 C 0 km/h
2941 07-01-2009 12:37:10 -9 C 1.37 g/m*3 -9 C 0 km/h
2942 07-01-2009 12:49:10 -8.7 C 1.38 g/m*3 -8.7 C 0 km/h
2943 07-01-2009 13:01:09 -9 C 1.35 g/m*3 -9 C 0 km/h
2944 07-01-2009 13:13:09 -9 C 1.35 g/m*3 -9 C 0 km/h
2945 07-01-2009 13:25:10 -8.7 C 1.43 g/m*3 -8.7 C 0 km/h
2946 07-01-2009 13:37:09 -8.6 C 1.46 g/m*3 -8.6 C 0 km/h
2947 07-01-2009 13:49:09 -8.3 C 1.5 g/m*3 -8.3 C 0 km/h
2948 07-01-2009 14:01:09 -8.2 C 1.54 g/m*3 -8.2 C 0 km/h
2949 07-01-2009 14:13:09 -8.3 C 1.52 g/m*3 -8.3 C 0 km/h
2950 07-01-2009 14:25:09 -8.2 C 1.56 g/m*3 -8.2 C 0 km/h
Sensor: Nr:Datum:Temp:Abs-Feuchte:Windchill:Wind:
Aussen-T/F 2951 07-01-2009 14:37:08 -8.1 C 1.6 g/m*3 -8.1 C 0 km/h
2952 07-01-2009 14:49:09 -7.8 C 1.64 g/m*3 -7.8 C 0 km/h
2953 07-01-2009 15:01:08 -7.7 C 1.65 g/m*3 -7.7 C 0 km/h
2954 07-01-2009 15:13:08 -7.6 C 1.63 g/m*3 -7.6 C 0 km/h
2955 07-01-2009 15:25:08 -7.5 C 1.65 g/m*3 -7.5 C 0 km/h
2956 07-01-2009 15:37:08 -7.5 C 1.67 g/m*3 -7.5 C 0 km/h
2957 07-01-2009 15:49:08 -7.6 C 1.66 g/m*3 -7.6 C 0 km/h
2958 07-01-2009 16:01:07 -7.6 C 1.69 g/m*3 -7.6 C 0 km/h
2959 07-01-2009 16:13:07 -7.5 C 1.7 g/m*3 -7.5 C 0 km/h
2960 07-01-2009 16:25:08 -7.5 C 1.73 g/m*3 -7.5 C 0 km/h
2961 07-01-2009 16:37:08 -7.6 C 1.72 g/m*3 -7.6 C 0 km/h
2962 07-01-2009 16:49:07 -7.6 C 1.75 g/m*3 -7.6 C 0 km/h
2963 07-01-2009 17:01:08 -7.7 C 1.73 g/m*3 -7.7 C 0 km/h
2964 07-01-2009 17:13:08 -7.6 C 1.8 g/m*3 -7.6 C 0 km/h
2965 07-01-2009 17:25:07 -7.5 C 1.82 g/m*3 -7.5 C 0 km/h
2966 07-01-2009 17:37:07 -7.6 C 1.8 g/m*3 -7.6 C 0 km/h
2967 07-01-2009 17:49:07 -7.6 C 1.8 g/m*3 -7.6 C 0 km/h
2968 07-01-2009 18:01:07 -7.5 C 1.82 g/m*3 -7.5 C 0 km/h
2969 07-01-2009 18:13:08 -7.4 C 1.8 g/m*3 -7.4 C 0 km/h
2970 07-01-2009 18:25:06 -7.3 C 1.84 g/m*3 -7.3 C 0 km/h
2971 07-01-2009 18:37:06 -7.3 C 1.84 g/m*3 -7.3 C 0 km/h
2972 07-01-2009 18:49:06 -7.2 C 1.86 g/m*3 -7.2 C 0 km/h
2973 07-01-2009 19:01:06 -7.1 C 1.87 g/m*3 -7.1 C 0 km/h
2974 07-01-2009 19:13:06 -7.1 C 1.87 g/m*3 -7.1 C 0 km/h
2975 07-01-2009 19:25:06 -7 C 1.88 g/m*3 -7 C 0 km/h
Sensor: Nr:Datum:Temp:Abs-Feuchte:Windchill:Wind:
Aussen-T/F 2976 07-01-2009 19:37:06 -7.2 C 1.86 g/m*3 -7.2 C 0 km/h
2977 07-01-2009 19:49:06 -7.3 C 1.87 g/m*3 -7.3 C 0 km/h
2978 07-01-2009 20:01:05 -7.3 C 1.87 g/m*3 -7.3 C 0 km/h
2979 07-01-2009 20:13:05 -7.4 C 1.89 g/m*3 -7.4 C 0 km/h
2980 07-01-2009 20:25:06 -7.5 C 1.87 g/m*3 -7.5 C 0 km/h
2981 07-01-2009 20:37:05 -7.4 C 1.92 g/m*3 -7.4 C 0 km/h
2982 07-01-2009 20:49:05 -7.2 C 1.97 g/m*3 -7.2 C 0 km/h
2983 07-01-2009 21:01:04 -6.9 C 2.05 g/m*3 -6.9 C 0 km/h
2984 07-01-2009 21:13:04 -6.8 C 2.06 g/m*3 -6.8 C 0 km/h
2985 07-01-2009 21:25:05 -6.6 C 2.09 g/m*3 -6.6 C 0 km/h
2986 07-01-2009 21:37:05 -6.5 C 2.14 g/m*3 -6.5 C 0 km/h
2987 07-01-2009 21:49:04 -6.5 C 2.14 g/m*3 -6.5 C 0 km/h
2988 07-01-2009 22:01:05 -6.4 C 2.15 g/m*3 -6.4 C 0 km/h
2989 07-01-2009 22:13:05 -6.4 C 2.18 g/m*3 -6.4 C 0 km/h
2990 07-01-2009 22:26:09 -6.2 C 2.22 g/m*3 -6.2 C 0 km/h
2991 07-01-2009 22:38:09 -6.2 C 2.25 g/m*3 -6.2 C 0 km/h
2992 07-01-2009 22:50:09 -6.2 C 2.25 g/m*3 -6.2 C 0 km/h
2993 07-01-2009 23:02:09 -6.2 C 2.25 g/m*3 -6.2 C 0 km/h
2994 07-01-2009 23:14:09 -6.2 C 2.25 g/m*3 -6.2 C 0 km/h
2995 07-01-2009 23:26:09 -6.3 C 2.23 g/m*3 -6.3 C 0 km/h
2996 07-01-2009 23:38:09 -6.2 C 2.25 g/m*3 -6.2 C 0 km/h
2997 07-01-2009 23:50:09 -6.2 C 2.25 g/m*3 -6.2 C 0 km/h
2998 08-01-2009 00:02:09 -6.2 C 2.22 g/m*3 -6.2 C 0 km/h
2999 08-01-2009 00:14:09 -6.1 C 2.23 g/m*3 -6.1 C 0 km/h
3000 08-01-2009 00:26:09 -6.1 C 2.23 g/m*3 -6.1 C 0 km/h
Sensor: Nr:Datum:Temp:Abs-Feuchte:Windchill:Wind:
Aussen-T/F 3001 08-01-2009 00:38:09 -6.1 C 2.2 g/m*3 -6.1 C 0 km/h
3002 08-01-2009 00:50:09 -6.1 C 2.2 g/m*3 -6.1 C 0 km/h
3003 08-01-2009 01:02:09 -6.1 C 2.2 g/m*3 -6.1 C 0 km/h
3004 08-01-2009 01:14:09 -6 C 2.22 g/m*3 -6 C 0 km/h
3005 08-01-2009 01:26:09 -5.9 C 2.23 g/m*3 -5.9 C 0 km/h
3006 08-01-2009 01:38:10 -5.9 C 2.23 g/m*3 -5.9 C 0 km/h
3007 08-01-2009 01:50:10 -5.8 C 2.25 g/m*3 -5.8 C 0 km/h
3008 08-01-2009 02:02:10 -5.8 C 2.25 g/m*3 -5.8 C 0 km/h
3009 08-01-2009 02:14:10 -5.7 C 2.27 g/m*3 -5.7 C 0 km/h
3010 08-01-2009 02:26:10 -5.7 C 2.27 g/m*3 -5.7 C 0 km/h
3011 08-01-2009 02:38:10 -5.7 C 2.27 g/m*3 -5.7 C 0 km/h
3012 08-01-2009 02:50:10 -5.6 C 2.31 g/m*3 -5.6 C 0 km/h
3013 08-01-2009 03:02:10 -5.6 C 2.31 g/m*3 -5.6 C 0 km/h
3014 08-01-2009 03:14:10 -5.5 C 2.33 g/m*3 -5.5 C 0 km/h
3015 08-01-2009 03:26:10 -5.4 C 2.35 g/m*3 -5.4 C 0 km/h
3016 08-01-2009 03:38:10 -5.4 C 2.35 g/m*3 -5.4 C 0 km/h
3017 08-01-2009 03:50:10 -5.3 C 2.37 g/m*3 -5.3 C 0 km/h
3018 08-01-2009 04:02:10 -5.3 C 2.37 g/m*3 -5.3 C 0 km/h
3019 08-01-2009 04:14:10 -5.3 C 2.37 g/m*3 -5.3 C 0 km/h
3020 08-01-2009 04:26:10 -5.3 C 2.37 g/m*3 -5.3 C 0 km/h
3021 08-01-2009 04:38:10 -5.3 C 2.37 g/m*3 -5.3 C 0 km/h
3022 08-01-2009 04:50:10 -5.3 C 2.4 g/m*3 -5.3 C 0 km/h
3023 08-01-2009 05:02:10 -5.2 C 2.42 g/m*3 -5.2 C 0 km/h
3024 08-01-2009 05:14:10 -5.1 C 2.47 g/m*3 -5.1 C 0 km/h
3025 08-01-2009 05:26:11 -5 C 2.49 g/m*3 -5 C 0 km/h
Sensor: Nr:Datum:Temp:Abs-Feuchte:Windchill:Wind:
Aussen-T/F 3026 08-01-2009 05:38:11 -5 C 2.49 g/m*3 -5 C 0 km/h
3027 08-01-2009 05:50:11 -5 C 2.49 g/m*3 -5 C 0 km/h
3028 08-01-2009 06:02:11 -5 C 2.49 g/m*3 -5 C 0 km/h
3029 08-01-2009 06:14:11 -5 C 2.49 g/m*3 -5 C 0 km/h
3030 08-01-2009 06:26:11 -5 C 2.52 g/m*3 -5 C 0 km/h
3031 08-01-2009 06:38:11 -5 C 2.52 g/m*3 -5 C 0 km/h
3032 08-01-2009 06:50:11 -5 C 2.52 g/m*3 -5 C 0 km/h
3033 08-01-2009 07:02:06 -5 C 2.52 g/m*3 -5 C 0 km/h
3034 08-01-2009 07:14:05 -4.9 C 2.54 g/m*3 -4.9 C 0 km/h
3035 08-01-2009 07:26:05 -4.9 C 2.54 g/m*3 -4.9 C 0 km/h
3036 08-01-2009 07:38:05 -4.9 C 2.54 g/m*3 -4.9 C 0 km/h
3037 08-01-2009 07:50:05 -4.9 C 2.54 g/m*3 -4.9 C 0 km/h
3038 08-01-2009 08:02:05 -4.8 C 2.59 g/m*3 -4.8 C 0 km/h
3039 08-01-2009 08:14:04 -4.8 C 2.59 g/m*3 -4.8 C 0 km/h
3040 08-01-2009 08:26:04 -4.9 C 2.57 g/m*3 -4.9 C 0 km/h
3041 08-01-2009 08:38:04 -4.8 C 2.63 g/m*3 -4.8 C 0 km/h
3042 08-01-2009 08:50:04 -4.8 C 2.63 g/m*3 -4.8 C 0 km/h
3043 08-01-2009 09:02:04 -4.7 C 2.61 g/m*3 -4.7 C 0 km/h
3044 08-01-2009 09:14:04 -4.6 C 2.63 g/m*3 -4.6 C 0 km/h
3045 08-01-2009 09:26:04 -4.7 C 2.57 g/m*3 -4.7 C 0 km/h
3046 08-01-2009 09:38:04 -4.6 C 2.56 g/m*3 -4.6 C 0 km/h
3047 08-01-2009 09:50:04 -4.5 C 2.58 g/m*3 -4.5 C 0 km/h
3048 08-01-2009 10:02:03 -4.4 C 2.6 g/m*3 -4.4 C 0 km/h
3049 08-01-2009 10:14:04 -4.2 C 2.6 g/m*3 -4.2 C 0 km/h
3050 08-01-2009 10:26:04 -4 C 2.63 g/m*3 -4 C 0 km/h
Sensor: Nr:Datum:Temp:Abs-Feuchte:Windchill:Wind:
Aussen-T/F 3051 08-01-2009 10:38:03 -3.8 C 2.63 g/m*3 -3.8 C 0 km/h
3052 08-01-2009 10:50:03 -3.7 C 2.62 g/m*3 -3.7 C 0 km/h
3053 08-01-2009 11:02:03 -3.5 C 2.62 g/m*3 -3.5 C 0 km/h
3054 08-01-2009 11:14:03 -3.7 C 2.5 g/m*3 -3.7 C 0 km/h
3055 08-01-2009 11:26:03 -3.8 C 2.49 g/m*3 -3.8 C 0 km/h
3056 08-01-2009 11:38:02 -3.8 C 2.49 g/m*3 -3.8 C 0 km/h
3057 08-01-2009 11:50:03 -3.8 C 2.49 g/m*3 -3.8 C 0 km/h
3058 08-01-2009 12:02:03 -3.5 C 2.5 g/m*3 -3.5 C 0 km/h
3059 08-01-2009 12:14:02 -3.3 C 2.5 g/m*3 -3.3 C 0 km/h
3060 08-01-2009 12:26:02 -3.5 C 2.43 g/m*3 -3.5 C 0 km/h
3061 08-01-2009 12:38:02 -3.2 C 2.48 g/m*3 -3.2 C 0 km/h
3062 08-01-2009 12:50:02 -3.4 C 2.41 g/m*3 -3.4 C 0 km/h
3063 08-01-2009 13:02:02 -3.8 C 2.34 g/m*3 -3.8 C 0 km/h
3064 08-01-2009 13:14:01 -3.7 C 2.39 g/m*3 -3.7 C 0 km/h
3065 08-01-2009 13:26:01 -3.7 C 2.39 g/m*3 -3.7 C 0 km/h
3066 08-01-2009 13:38:02 -3.9 C 2.36 g/m*3 -3.9 C 0 km/h
3067 08-01-2009 13:50:01 -4 C 2.34 g/m*3 -4 C 0 km/h
3068 08-01-2009 14:02:01 -4 C 2.38 g/m*3 -4 C 0 km/h
3069 08-01-2009 14:14:02 -4.1 C 2.32 g/m*3 -4.1 C 0 km/h
3070 08-01-2009 14:26:02 -4.3 C 2.33 g/m*3 -4.3 C 0 km/h
3071 08-01-2009 14:38:01 -4.5 C 2.29 g/m*3 -4.5 C 0 km/h
3072 08-01-2009 14:50:01 -4.6 C 2.31 g/m*3 -4.6 C 0 km/h
3073 08-01-2009 15:02:01 -4.6 C 2.31 g/m*3 -4.6 C 0 km/h
3074 08-01-2009 15:14:01 -4.6 C 2.35 g/m*3 -4.6 C 0 km/h
3075 08-01-2009 15:26:01 -4.7 C 2.33 g/m*3 -4.7 C 0 km/h
Sensor: Nr:Datum:Temp:Abs-Feuchte:Windchill:Wind:
Aussen-T/F 3076 08-01-2009 15:38:00 -4.8 C 2.31 g/m*3 -4.8 C 0 km/h
3077 08-01-2009 15:50:01 -4.9 C 2.33 g/m*3 -4.9 C 0 km/h
3078 08-01-2009 16:02:00 -5 C 2.32 g/m*3 -5 C 0 km/h
3079 08-01-2009 16:14:00 -5.1 C 2.33 g/m*3 -5.1 C 0 km/h
3080 08-01-2009 16:26:00 -5.5 C 2.27 g/m*3 -5.5 C 0 km/h
3081 08-01-2009 16:38:59 -6 C 2.22 g/m*3 -6 C 0 km/h
3082 08-01-2009 16:50:00 -6.2 C 2.18 g/m*3 -6.2 C 0 km/h
3083 08-01-2009 17:02:00 -6.5 C 2.17 g/m*3 -6.5 C 0 km/h
3084 08-01-2009 17:14:59 -6.5 C 2.23 g/m*3 -6.5 C 0 km/h
3085 08-01-2009 17:26:59 -6.6 C 2.21 g/m*3 -6.6 C 0 km/h
3086 08-01-2009 17:38:00 -6.7 C 2.23 g/m*3 -6.7 C 0 km/h
3087 08-01-2009 17:50:59 -7 C 2.18 g/m*3 -7 C 0 km/h
3088 08-01-2009 18:01:59 -7 C 2.21 g/m*3 -7 C 0 km/h
3089 08-01-2009 18:14:59 -7.3 C 2.19 g/m*3 -7.3 C 0 km/h
3090 08-01-2009 18:26:59 -7.5 C 2.16 g/m*3 -7.5 C 0 km/h
3091 08-01-2009 18:38:59 -7.8 C 2.11 g/m*3 -7.8 C 0 km/h
3092 08-01-2009 18:50:59 -7.9 C 2.09 g/m*3 -7.9 C 0 km/h
3093 08-01-2009 19:02:59 -8.2 C 2.05 g/m*3 -8.2 C 0 km/h
3094 08-01-2009 19:14:58 -8.4 C 2.02 g/m*3 -8.4 C 0 km/h
3095 08-01-2009 19:26:58 -8.4 C 2.04 g/m*3 -8.4 C 0 km/h
3096 08-01-2009 19:38:58 -8.3 C 2.09 g/m*3 -8.3 C 0 km/h
3097 08-01-2009 19:50:58 -8.4 C 2.07 g/m*3 -8.4 C 0 km/h
3098 08-01-2009 20:02:58 -8.7 C 2.03 g/m*3 -8.7 C 0 km/h
3099 08-01-2009 20:14:57 -8.8 C 2.01 g/m*3 -8.8 C 0 km/h
3100 08-01-2009 20:26:57 -8.8 C 2.04 g/m*3 -8.8 C 0 km/h
Sensor: Nr:Datum:Temp:Abs-Feuchte:Windchill:Wind:
Aussen-T/F 3101 08-01-2009 20:38:58 -8.9 C 2.02 g/m*3 -8.9 C 0 km/h
3102 08-01-2009 20:50:57 -9.2 C 1.95 g/m*3 -9.2 C 0 km/h
3103 08-01-2009 21:02:57 -9.2 C 1.98 g/m*3 -9.2 C 0 km/h
3104 08-01-2009 21:14:58 -9.5 C 1.93 g/m*3 -9.5 C 0 km/h
3105 08-01-2009 21:26:58 -9.9 C 1.85 g/m*3 -9.9 C 0 km/h
3106 08-01-2009 21:38:57 -9.8 C 1.84 g/m*3 -9.8 C 0 km/h
3107 08-01-2009 21:50:57 -9.8 C 1.84 g/m*3 -9.8 C 0 km/h
3108 08-01-2009 22:02:56 -9.9 C 1.83 g/m*3 -9.9 C 0 km/h
3109 08-01-2009 22:14:57 -10 C 1.79 g/m*3 -10 C 0 km/h
3110 08-01-2009 22:26:57 -10.4 C 1.71 g/m*3 -10.4 C 0 km/h
3111 08-01-2009 22:38:56 -10.7 C 1.65 g/m*3 -10.7 C 0 km/h
3112 08-01-2009 22:51:11 -10.6 C 1.67 g/m*3 -10.6 C 0 km/h
3113 08-01-2009 23:03:11 -10.8 C 1.64 g/m*3 -10.8 C 0 km/h
3114 08-01-2009 23:15:11 -10.7 C 1.65 g/m*3 -10.7 C 0 km/h
3115 08-01-2009 23:27:11 -10.8 C 1.64 g/m*3 -10.8 C 0 km/h
3116 08-01-2009 23:39:11 -10.6 C 1.67 g/m*3 -10.6 C 0 km/h
3117 08-01-2009 23:51:12 -10.7 C 1.65 g/m*3 -10.7 C 0 km/h
3118 09-01-2009 00:03:12 -10.9 C 1.61 g/m*3 -10.9 C 0 km/h
3119 09-01-2009 00:15:12 -11.1 C 1.58 g/m*3 -11.1 C 0 km/h
3120 09-01-2009 00:27:12 -11.1 C 1.58 g/m*3 -11.1 C 0 km/h
3121 09-01-2009 00:39:12 -11.1 C 1.58 g/m*3 -11.1 C 0 km/h
3122 09-01-2009 00:51:12 -11.3 C 1.54 g/m*3 -11.3 C 0 km/h
3123 09-01-2009 01:03:12 -11.5 C 1.51 g/m*3 -11.5 C 0 km/h
3124 09-01-2009 01:15:12 -11.7 C 1.47 g/m*3 -11.7 C 0 km/h
3125 09-01-2009 01:27:12 -11.7 C 1.47 g/m*3 -11.7 C 0 km/h
Sensor: Nr:Datum:Temp:Abs-Feuchte:Windchill:Wind:
Aussen-T/F 3126 09-01-2009 01:39:12 -11.7 C 1.47 g/m*3 -11.7 C 0 km/h
3127 09-01-2009 01:51:12 -11.7 C 1.47 g/m*3 -11.7 C 0 km/h
3128 09-01-2009 02:03:12 -11.8 C 1.46 g/m*3 -11.8 C 0 km/h
3129 09-01-2009 02:15:12 -11.9 C 1.45 g/m*3 -11.9 C 0 km/h
3130 09-01-2009 02:27:12 -12.1 C 1.41 g/m*3 -12.1 C 0 km/h
3131 09-01-2009 02:39:12 -12.1 C 1.43 g/m*3 -12.1 C 0 km/h
3132 09-01-2009 02:51:12 -12.2 C 1.39 g/m*3 -12.2 C 0 km/h
3133 09-01-2009 03:03:12 -12.3 C 1.38 g/m*3 -12.3 C 0 km/h
3134 09-01-2009 03:15:12 -12.4 C 1.37 g/m*3 -12.4 C 0 km/h
3135 09-01-2009 03:27:12 -12.5 C 1.36 g/m*3 -12.5 C 0 km/h
3136 09-01-2009 03:39:13 -12.6 C 1.33 g/m*3 -12.6 C 0 km/h
3137 09-01-2009 03:51:13 -12.6 C 1.33 g/m*3 -12.6 C 0 km/h
3138 09-01-2009 04:03:13 -12.6 C 1.33 g/m*3 -12.6 C 0 km/h
3139 09-01-2009 04:15:13 -12.8 C 1.31 g/m*3 -12.8 C 0 km/h
3140 09-01-2009 04:27:13 -12.8 C 1.31 g/m*3 -12.8 C 0 km/h
3141 09-01-2009 04:39:13 -12.9 C 1.3 g/m*3 -12.9 C 0 km/h
3142 09-01-2009 04:51:13 -13.2 C 1.25 g/m*3 -13.2 C 0 km/h
3143 09-01-2009 05:03:13 -13.2 C 1.25 g/m*3 -13.2 C 0 km/h
3144 09-01-2009 05:15:13 -13.1 C 1.26 g/m*3 -13.1 C 0 km/h
3145 09-01-2009 05:27:13 -13.2 C 1.25 g/m*3 -13.2 C 0 km/h
3146 09-01-2009 05:39:13 -13.3 C 1.24 g/m*3 -13.3 C 0 km/h
3147 09-01-2009 05:51:13 -13.2 C 1.25 g/m*3 -13.2 C 0 km/h
3148 09-01-2009 06:03:13 -13.3 C 1.24 g/m*3 -13.3 C 0 km/h
3149 09-01-2009 06:15:13 -13.4 C 1.22 g/m*3 -13.4 C 0 km/h
3150 09-01-2009 06:27:13 -13.5 C 1.21 g/m*3 -13.5 C 0 km/h
Sensor: Nr:Datum:Temp:Abs-Feuchte:Windchill:Wind:
Aussen-T/F 3151 09-01-2009 06:39:58 -13.5 C 1.21 g/m*3 -13.5 C 0 km/h
3152 09-01-2009 06:51:57 -13.6 C 1.2 g/m*3 -13.6 C 0 km/h
3153 09-01-2009 07:03:58 -13.7 C 1.19 g/m*3 -13.7 C 0 km/h
3154 09-01-2009 07:15:57 -13.7 C 1.19 g/m*3 -13.7 C 0 km/h
3155 09-01-2009 07:27:57 -13.6 C 1.2 g/m*3 -13.6 C 0 km/h
3156 09-01-2009 07:39:57 -13.7 C 1.19 g/m*3 -13.7 C 0 km/h
3157 09-01-2009 07:51:57 -13.9 C 1.17 g/m*3 -13.9 C 0 km/h
3158 09-01-2009 08:03:57 -13.9 C 1.15 g/m*3 -13.9 C 0 km/h
3159 09-01-2009 08:15:56 -13.9 C 1.15 g/m*3 -13.9 C 0 km/h
3160 09-01-2009 08:27:56 -13.9 C 1.15 g/m*3 -13.9 C 0 km/h
3161 09-01-2009 08:39:56 -13.9 C 1.15 g/m*3 -13.9 C 0 km/h
3162 09-01-2009 08:51:56 -13.7 C 1.19 g/m*3 -13.7 C 0 km/h
3163 09-01-2009 09:03:56 -13.6 C 1.2 g/m*3 -13.6 C 0 km/h
3164 09-01-2009 09:15:56 -13.7 C 1.19 g/m*3 -13.7 C 0 km/h
3165 09-01-2009 09:27:56 -13.6 C 1.2 g/m*3 -13.6 C 0 km/h
3166 09-01-2009 09:39:56 -13.6 C 1.2 g/m*3 -13.6 C 0 km/h
3167 09-01-2009 09:51:56 -13.4 C 1.22 g/m*3 -13.4 C 0 km/h
3168 09-01-2009 10:03:55 -13.4 C 1.22 g/m*3 -13.4 C 0 km/h
3169 09-01-2009 10:15:55 -13.2 C 1.24 g/m*3 -13.2 C 0 km/h
3170 09-01-2009 10:27:55 -13.2 C 1.24 g/m*3 -13.2 C 0 km/h
3171 09-01-2009 10:39:55 -13 C 1.26 g/m*3 -13 C 0 km/h
3172 09-01-2009 10:51:55 -12.7 C 1.28 g/m*3 -12.7 C 0 km/h
3173 09-01-2009 11:03:55 -12.6 C 1.31 g/m*3 -12.6 C 0 km/h
3174 09-01-2009 11:15:55 -12.3 C 1.34 g/m*3 -12.3 C 0 km/h
3175 09-01-2009 11:27:55 -12 C 1.4 g/m*3 -12 C 0 km/h
Sensor: Nr:Datum:Temp:Abs-Feuchte:Windchill:Wind:
Aussen-T/F 3176 09-01-2009 11:39:55 -11.8 C 1.42 g/m*3 -11.8 C 0 km/h
3177 09-01-2009 11:51:54 -11.5 C 1.47 g/m*3 -11.5 C 0 km/h
3178 09-01-2009 12:03:55 -11.1 C 1.52 g/m*3 -11.1 C 0 km/h
3179 09-01-2009 12:15:54 -10.8 C 1.57 g/m*3 -10.8 C 0 km/h
3180 09-01-2009 12:27:54 -10.5 C 1.61 g/m*3 -10.5 C 0 km/h
3181 09-01-2009 12:39:54 -10 C 1.7 g/m*3 -10 C 0 km/h
3182 09-01-2009 12:51:54 -9.6 C 1.77 g/m*3 -9.6 C 0 km/h
3183 09-01-2009 13:03:54 -9 C 1.85 g/m*3 -9 C 0 km/h
3184 09-01-2009 13:15:54 -8.2 C 1.99 g/m*3 -8.2 C 0 km/h
3185 09-01-2009 13:27:54 -8.1 C 1.98 g/m*3 -8.1 C 0 km/h
3186 09-01-2009 13:39:53 -7.7 C 2.04 g/m*3 -7.7 C 0 km/h
3187 09-01-2009 13:51:54 -7 C 2.15 g/m*3 -7 C 0 km/h
3188 09-01-2009 14:03:53 -7.3 C 2.07 g/m*3 -7.3 C 0 km/h
3189 09-01-2009 14:15:53 -7.7 C 1.99 g/m*3 -7.7 C 0 km/h
3190 09-01-2009 14:27:53 -7.8 C 2 g/m*3 -7.8 C 0 km/h
3191 09-01-2009 14:39:53 -7.8 C 2 g/m*3 -7.8 C 0 km/h
3192 09-01-2009 14:51:01 -7.8 C 2.03 g/m*3 -7.8 C 0 km/h
3193 09-01-2009 15:03:02 -7.8 C 2.03 g/m*3 -7.8 C 0 km/h
3194 09-01-2009 15:15:01 -7.9 C 2.04 g/m*3 -7.9 C 0 km/h
3195 09-01-2009 15:27:01 -7.9 C 2.04 g/m*3 -7.9 C 0 km/h
3196 09-01-2009 15:39:01 -7.8 C 2.08 g/m*3 -7.8 C 0 km/h
3197 09-01-2009 15:51:01 -7.8 C 2.08 g/m*3 -7.8 C 0 km/h
3198 09-01-2009 16:03:01 -7.9 C 2.07 g/m*3 -7.9 C 0 km/h
3199 09-01-2009 16:15:00 -8.1 C 2.04 g/m*3 -8.1 C 0 km/h
3200 09-01-2009 16:27:00 -8 C 2.05 g/m*3 -8 C 0 km/h
Sensor: Nr:Datum:Temp:Abs-Feuchte:Windchill:Wind:
Aussen-T/F 3201 09-01-2009 16:39:01 -8.1 C 2.06 g/m*3 -8.1 C 0 km/h
3202 09-01-2009 16:51:00 -8.2 C 2.05 g/m*3 -8.2 C 0 km/h
3203 09-01-2009 17:03:00 -8.3 C 2.03 g/m*3 -8.3 C 0 km/h
3204 09-01-2009 17:15:01 -8.6 C 1.99 g/m*3 -8.6 C 0 km/h
3205 09-01-2009 17:27:01 -8.6 C 1.99 g/m*3 -8.6 C 0 km/h
3206 09-01-2009 17:39:00 -8.7 C 1.97 g/m*3 -8.7 C 0 km/h
3207 09-01-2009 17:51:59 -8.7 C 1.97 g/m*3 -8.7 C 0 km/h
3208 09-01-2009 18:03:00 -9 C 1.93 g/m*3 -9 C 0 km/h
3209 09-01-2009 18:15:00 -9 C 1.93 g/m*3 -9 C 0 km/h
3210 09-01-2009 18:27:00 -9.2 C 1.9 g/m*3 -9.2 C 0 km/h
3211 09-01-2009 18:39:59 -9.3 C 1.89 g/m*3 -9.3 C 0 km/h
3212 09-01-2009 18:51:00 -9.4 C 1.87 g/m*3 -9.4 C 0 km/h
3213 09-01-2009 19:03:59 -9.6 C 1.84 g/m*3 -9.6 C 0 km/h
3214 09-01-2009 19:15:59 -9.7 C 1.83 g/m*3 -9.7 C 0 km/h
3215 09-01-2009 19:28:00 -9.9 C 1.8 g/m*3 -9.9 C 0 km/h
3216 09-01-2009 19:39:58 -10 C 1.77 g/m*3 -10 C 0 km/h
3217 09-01-2009 19:51:59 -10.1 C 1.75 g/m*3 -10.1 C 0 km/h
3218 09-01-2009 20:03:59 -10.3 C 1.73 g/m*3 -10.3 C 0 km/h
3219 09-01-2009 20:15:58 -10.4 C 1.71 g/m*3 -10.4 C 0 km/h
3220 09-01-2009 20:27:58 -10.6 C 1.69 g/m*3 -10.6 C 0 km/h
3221 09-01-2009 20:39:59 -10.7 C 1.68 g/m*3 -10.7 C 0 km/h
3222 09-01-2009 20:51:58 -10.9 C 1.63 g/m*3 -10.9 C 0 km/h
3223 09-01-2009 21:03:58 -11 C 1.62 g/m*3 -11 C 0 km/h
3224 09-01-2009 21:15:58 -11 C 1.62 g/m*3 -11 C 0 km/h
3225 09-01-2009 21:27:58 -11.3 C 1.58 g/m*3 -11.3 C 0 km/h
Sensor: Nr:Datum:Temp:Abs-Feuchte:Windchill:Wind:
Aussen-T/F 3226 09-01-2009 21:39:57 -11.3 C 1.56 g/m*3 -11.3 C 0 km/h
3227 09-01-2009 21:51:58 -11.3 C 1.58 g/m*3 -11.3 C 0 km/h
3228 09-01-2009 22:03:58 -11.4 C 1.57 g/m*3 -11.4 C 0 km/h
3229 09-01-2009 22:15:57 -11.6 C 1.54 g/m*3 -11.6 C 0 km/h
3230 09-01-2009 22:27:57 -11.5 C 1.56 g/m*3 -11.5 C 0 km/h
3231 09-01-2009 22:39:57 -11.5 C 1.56 g/m*3 -11.5 C 0 km/h
3232 09-01-2009 22:51:57 -11.8 C 1.52 g/m*3 -11.8 C 0 km/h
3233 09-01-2009 23:03:57 -11.8 C 1.5 g/m*3 -11.8 C 0 km/h
3234 09-01-2009 23:15:56 -11.9 C 1.49 g/m*3 -11.9 C 0 km/h
3235 09-01-2009 23:27:56 -12 C 1.48 g/m*3 -12 C 0 km/h
3236 09-01-2009 23:39:57 -12.1 C 1.47 g/m*3 -12.1 C 0 km/h
3237 09-01-2009 23:51:56 -12 C 1.48 g/m*3 -12 C 0 km/h
3238 10-01-2009 00:03:56 -12.2 C 1.45 g/m*3 -12.2 C 0 km/h
3239 10-01-2009 00:15:56 -12.4 C 1.41 g/m*3 -12.4 C 0 km/h
3240 10-01-2009 00:27:56 -12.5 C 1.4 g/m*3 -12.5 C 0 km/h